Provisional Data: Marsh Creek near Blanchard, PA


Please select a monitoring station.
Please select start date.
Please select start date.

Toggle Unit: C/F Toggle Unit: C/F
Sample Time Temperature (C) Temperature (F) Specific Conductivity (mS/cm) pH   Turbidity (NTU+) DO (mg/L)
4/18/2023 12:00:00 AM 11.43 52.574 0.102 7.19 5.38 10.03
4/18/2023 12:15:00 AM 11.33 52.394 0.094 7.19 5.46 10.12
4/18/2023 12:30:00 AM 11.25 52.25 0.101 7.19 5.54 10.1
4/18/2023 12:45:00 AM 11.17 52.106 0.102 7.18 5.52 10.15
4/18/2023 1:00:00 AM 11.11 51.998 0.101 7.18 5.43 10.16
4/18/2023 1:15:00 AM 11.04 51.872 0.094 7.17 5.17 10.17
4/18/2023 1:30:00 AM 10.95 51.71 0.101 7.17 5.03 10.22
4/18/2023 1:45:00 AM 10.87 51.566 0.101 7.16 5.36 10.2
4/18/2023 2:00:00 AM 10.8 51.44 0.101 7.16 5.05 10.23
4/18/2023 2:15:00 AM 10.72 51.296 0.101 7.17 5.69 10.3
4/18/2023 2:30:00 AM 10.66 51.188 0.101 7.17 4.98 10.3
4/18/2023 2:45:00 AM 10.57 51.026 0.101 7.16 4.97 10.31
4/18/2023 3:00:00 AM 10.5 50.9 0.094 7.16 5.06 10.31
4/18/2023 3:15:00 AM 10.42 50.756 0.094 7.16 5.06 10.38
4/18/2023 3:30:00 AM 10.35 50.63 0.101 7.17 5.11 10.41
4/18/2023 3:45:00 AM 10.3 50.54 0.093 7.16 5.08 10.39
4/18/2023 4:00:00 AM 10.23 50.414 0.094 7.16 5.08 10.41
4/18/2023 4:15:00 AM 10.15 50.27 0.094 7.16 6.24 10.43
4/18/2023 4:30:00 AM 10.06 50.108 0.094 7.16 4.85 10.46
4/18/2023 4:45:00 AM 10.01 50.018 0.093 7.16 5.07 10.48
4/18/2023 5:00:00 AM 9.92 49.856 0.094 7.16 5.2 10.52
4/18/2023 5:15:00 AM 9.87 49.766 0.093 7.16 5.33 10.56
4/18/2023 5:30:00 AM 9.8 49.64 0.101 7.16 5.29 10.58
4/18/2023 5:45:00 AM 9.74 49.532 0.094 7.17 5.16 10.62
4/18/2023 6:00:00 AM 9.7 49.46 0.094 7.17 6.33 10.59
4/18/2023 6:15:00 AM 9.64 49.352 0.093 7.17 4.97 10.61
4/18/2023 6:30:00 AM 9.58 49.244 0.093 7.17 5.13 10.63
4/18/2023 6:45:00 AM 9.52 49.136 0.093 7.18 4.76 10.67
4/18/2023 7:00:00 AM 9.48 49.064 0.093 7.18 4.59 10.73
4/18/2023 7:15:00 AM 9.44 48.992 0.093 7.19 4.67 10.77
4/18/2023 7:30:00 AM 9.4 48.92 0.093 7.2 6.1 10.85
4/18/2023 7:45:00 AM 9.38 48.884 0.093 7.22 4.8 10.99
4/18/2023 8:00:00 AM 9.33 48.794 0.093 7.24 4.74 11.1
4/18/2023 8:15:00 AM 9.31 48.758 0.092 7.25 4.59 11.18
4/18/2023 8:30:00 AM 9.28 48.704 0.092 7.27 4.86 11.28
4/18/2023 8:45:00 AM 9.26 48.668 0.092 7.3 4.56 11.41
4/18/2023 9:00:00 AM 9.26 48.668 0.092 7.34 4.54 11.61
4/18/2023 9:15:00 AM 9.25 48.65 0.092 7.36 4.31 11.71
4/18/2023 9:30:00 AM 9.29 48.722 0.091 7.41 4.23 11.9
4/18/2023 9:45:00 AM 9.29 48.722 0.092 7.45 4.33 12.06
4/18/2023 10:00:00 AM 9.29 48.722 0.091 7.49 4.33 12.13
4/18/2023 10:15:00 AM 9.32 48.776 0.091 7.51 4.26 12.25
4/18/2023 10:30:00 AM 9.42 48.956 0.09 7.58 4.22 12.41
4/18/2023 10:45:00 AM 9.49 49.082 0.09 7.64 4.2 12.53
4/18/2023 11:00:00 AM 9.53 49.154 0.09 7.71 5.02 12.62
4/18/2023 11:15:00 AM 9.55 49.19 0.091 7.72 4.62 12.66
4/18/2023 11:30:00 AM 9.58 49.244 0.09 7.77 4.4 12.71
4/18/2023 11:45:00 AM 9.62 49.316 0.09 7.82 4.18 12.76
4/18/2023 12:00:00 PM 9.65 49.37 0.09 7.87 4.38 12.79
4/18/2023 12:15:00 PM 9.79 49.622 0.089 7.94 4.09 12.86
4/18/2023 12:30:00 PM 9.99 49.982 0.09 8.04 4.23 12.9
4/18/2023 12:45:00 PM 10.04 50.072 0.089 8.09 3.99 12.89
4/18/2023 1:00:00 PM 9.99 49.982 0.089 8.09 4.01 12.81
4/18/2023 1:15:00 PM 10.04 50.072 0.089 8.15 4.16 12.79
4/18/2023 1:30:00 PM 10.12 50.216 0.089 8.22 3.78 12.79
4/18/2023 1:45:00 PM 10.12 50.216 0.089 8.25 3.87 12.73
4/18/2023 2:00:00 PM 10.12 50.216 0.089 8.24 3.82 12.66
4/18/2023 2:15:00 PM 10.17 50.306 0.089 8.27 4.05 12.7
4/18/2023 2:30:00 PM 10.18 50.324 0.088 8.32 4.12 12.67
4/18/2023 2:45:00 PM 10.12 50.216 0.089 8.28 4.1 12.56
4/18/2023 3:00:00 PM 10.06 50.108 0.089 8.24 4.01 12.53
4/18/2023 3:15:00 PM 10 50 0.088 8.19 3.78 12.41
4/18/2023 3:30:00 PM 9.93 49.874 0.089 8.14 4.11 12.32
4/18/2023 3:45:00 PM 9.86 49.748 0.089 8.08 3.85 12.29
4/18/2023 4:00:00 PM 9.82 49.676 0.088 8.09 4.38 12.33
4/18/2023 4:15:00 PM 9.8 49.64 0.089 8.06 3.98 12.34
4/18/2023 4:30:00 PM 9.78 49.604 0.088 8.1 3.91 12.42
4/18/2023 4:45:00 PM 9.73 49.514 0.089 8.08 4.05 12.39
4/18/2023 5:00:00 PM 9.66 49.388 0.089 8.01 3.99 12.32
4/18/2023 5:15:00 PM 9.62 49.316 0.089 8 3.92 12.31
4/18/2023 5:30:00 PM 9.58 49.244 0.089 7.98 4.1 12.34
4/18/2023 5:45:00 PM 9.53 49.154 0.089 7.91 3.97 12.25
4/18/2023 6:00:00 PM 9.49 49.082 0.089 7.89 3.83 12.18
4/18/2023 6:15:00 PM 9.44 48.992 0.089 7.82 4.26 12.1
4/18/2023 6:30:00 PM 9.39 48.902 0.089 7.78 4.31 12.06
4/18/2023 6:45:00 PM 9.34 48.812 0.089 7.73 3.96 11.98
4/18/2023 7:00:00 PM 9.29 48.722 0.089 7.69 3.99 11.91
4/18/2023 7:15:00 PM 9.25 48.65 0.089 7.63 4.31 11.8
4/18/2023 7:30:00 PM 9.21 48.578 0.09 7.58 5.37 11.71
4/18/2023 7:45:00 PM 9.16 48.488 0.09 7.55 5.71 11.65
4/18/2023 8:00:00 PM 9.11 48.398 0.09 7.5 4.24 11.56
4/18/2023 8:15:00 PM 9.05 48.29 0.09 7.46 4.34 11.46
4/18/2023 8:30:00 PM 9 48.2 0.09 7.44 4.78 11.4
4/18/2023 8:45:00 PM 8.96 48.128 0.09 7.4 4.18 11.34
4/18/2023 9:00:00 PM 8.91 48.038 0.09 7.38 4.05 11.29
4/18/2023 9:15:00 PM 8.86 47.948 0.09 7.35 3.98 11.24
4/18/2023 9:30:00 PM 8.82 47.876 0.091 7.34 4.05 11.21
4/18/2023 9:45:00 PM 8.77 47.786 0.091 7.32 4.01 11.2
4/18/2023 10:00:00 PM 8.73 47.714 0.091 7.32 4.16 11.18
4/18/2023 10:15:00 PM 8.69 47.642 0.091 7.29 4.05 11.16
4/18/2023 10:30:00 PM 8.66 47.588 0.091 7.29 4.06 11.16
4/18/2023 10:45:00 PM 8.62 47.516 0.091 7.27 4.1 11.15
4/18/2023 11:00:00 PM 8.59 47.462 0.091 7.27 4.25 11.15
4/18/2023 11:15:00 PM 8.56 47.408 0.092 7.26 4.26 11.15
4/18/2023 11:30:00 PM 8.53 47.354 0.092 7.25 4.11 11.15
4/18/2023 11:45:00 PM 8.5 47.3 0.092 7.25 4.28 11.16
4/19/2023 12:00:00 AM 8.47 47.246 0.092 7.24 4.78 11.16
4/19/2023 12:15:00 AM 8.43 47.174 0.092 7.23 4.16 11.18
4/19/2023 12:30:00 AM 8.4 47.12 0.092 7.23 4.15 11.19
4/19/2023 12:45:00 AM 8.37 47.066 0.092 7.23 4.13 11.21
4/19/2023 1:00:00 AM 8.34 47.012 0.092 7.23 4.4 11.21
4/19/2023 1:15:00 AM 8.31 46.958 0.092 7.22 4 11.21
4/19/2023 1:30:00 AM 8.28 46.904 0.092 7.22 4.6 11.22
4/19/2023 1:45:00 AM 8.25 46.85 0.092 7.22 3.95 11.23
4/19/2023 2:00:00 AM 8.22 46.796 0.092 7.22 3.91 11.24
4/19/2023 2:15:00 AM 8.19 46.742 0.092 7.21 3.69 11.25
4/19/2023 2:30:00 AM 8.16 46.688 0.092 7.21 3.89 11.27
4/19/2023 2:45:00 AM 8.14 46.652 0.092 7.21 3.99 11.28
4/19/2023 3:00:00 AM 8.11 46.598 0.092 7.21 4.01 11.29
4/19/2023 3:15:00 AM 8.08 46.544 0.092 7.21 3.97 11.3
4/19/2023 3:30:00 AM 8.05 46.49 0.092 7.21 3.93 11.3
4/19/2023 3:45:00 AM 8.02 46.436 0.091 7.21 4.09 11.32
4/19/2023 4:00:00 AM 7.98 46.364 0.091 7.21 4.2 11.33
4/19/2023 4:15:00 AM 7.92 46.256 0.092 7.21 4.18 11.35
4/19/2023 4:30:00 AM 7.87 46.166 0.092 7.2 4.02 11.37
4/19/2023 4:45:00 AM 7.82 46.076 0.091 7.2 4.14 11.34
4/19/2023 5:00:00 AM 7.76 45.968 0.091 7.2 3.98 11.39
4/19/2023 5:15:00 AM 7.71 45.878 0.091 7.2 4.11 11.41
4/19/2023 5:30:00 AM 7.65 45.77 0.091 7.2 3.88 11.43
4/19/2023 5:45:00 AM 7.58 45.644 0.091 7.2 3.87 11.45
4/19/2023 6:00:00 AM 7.51 45.518 0.091 7.19 3.87 11.47
4/19/2023 6:15:00 AM 7.44 45.392 0.091 7.19 3.8 11.5
4/19/2023 6:30:00 AM 7.36 45.248 0.091 7.19 3.91 11.52
4/19/2023 6:45:00 AM 7.29 45.122 0.091 7.19 3.7 11.57
4/19/2023 7:00:00 AM 7.22 44.996 0.091 7.19 4.19 11.65
4/19/2023 7:15:00 AM 7.16 44.888 0.091 7.2 4.06 11.76
4/19/2023 7:30:00 AM 7.12 44.816 0.091 7.22 3.78 11.84
4/19/2023 7:45:00 AM 7.09 44.762 0.091 7.24 3.9 12
4/19/2023 8:00:00 AM 7.08 44.744 0.091 7.26 3.62 12.16
4/19/2023 8:15:00 AM 7.09 44.762 0.09 7.3 3.74 12.33
4/19/2023 8:30:00 AM 7.1 44.78 0.09 7.33 3.78 12.47
4/19/2023 8:45:00 AM 7.13 44.834 0.09 7.36 3.99 12.61
4/19/2023 9:00:00 AM 7.19 44.942 0.09 7.4 3.84 12.76
4/19/2023 9:15:00 AM 7.28 45.104 0.09 7.44 3.81 12.89
4/19/2023 9:30:00 AM 7.4 45.32 0.09 7.47 4.49 13.01
4/19/2023 9:45:00 AM 7.55 45.59 0.089 7.54 3.91 13.12
4/19/2023 10:00:00 AM 7.74 45.932 0.089 7.56 4.07 13.21
4/19/2023 10:15:00 AM 7.93 46.274 0.089 7.63 3.92 13.3
4/19/2023 10:30:00 AM 8.13 46.634 0.089 7.69 3.68 13.34
4/19/2023 10:45:00 AM 8.38 47.084 0.088 7.74 3.83 13.38
4/19/2023 11:00:00 AM 8.65 47.57 0.088 7.79 3.63 13.41
4/19/2023 11:15:00 AM 8.96 48.128 0.088 7.84 3.72 13.41
4/19/2023 11:30:00 AM 9.25 48.65 0.088 7.91 3.55 13.4
4/19/2023 11:45:00 AM 9.58 49.244 0.087 7.97 3.54 13.4
4/19/2023 12:00:00 PM 9.93 49.874 0.087 8.07 3.46 13.36
4/19/2023 12:15:00 PM 10.26 50.468 0.087 8.1 3.57 13.31
4/19/2023 12:30:00 PM 10.62 51.116 0.087 8.19 3.34 13.28
4/19/2023 12:45:00 PM 10.98 51.764 0.087 8.25 3.53 13.22
4/19/2023 1:00:00 PM 11.32 52.376 0.087 8.33 4.12 13.16
4/19/2023 1:15:00 PM 11.71 53.078 0.087 8.39 3.54 13.1
4/19/2023 1:30:00 PM 12.03 53.654 0.087 8.48 3.51 13.03
4/19/2023 1:45:00 PM 12.32 54.176 0.087 8.54 3.54 12.98
4/19/2023 2:00:00 PM 12.63 54.734 0.087 8.6 3.53 12.93
4/19/2023 2:15:00 PM 12.92 55.256 0.087 8.66 3.4 12.86
4/19/2023 2:30:00 PM 13.2 55.76 0.087 8.71 3.5 12.79
4/19/2023 2:45:00 PM 13.41 56.138 0.087 8.73 4.46 12.71
4/19/2023 3:00:00 PM 13.64 56.552 0.087 8.76 3.47 12.66
4/19/2023 3:15:00 PM 13.82 56.876 0.087 8.79 3.62 12.59
4/19/2023 3:30:00 PM 13.97 57.146 0.087 8.82 3.58 12.49
4/19/2023 3:45:00 PM 14.12 57.416 0.087 8.85 3.54 12.44
4/19/2023 4:00:00 PM 14.22 57.596 0.093 8.85 3.56 12.35
4/19/2023 4:15:00 PM 14.3 57.74 0.093 8.87 3.48 12.27
4/19/2023 4:30:00 PM 14.35 57.83 0.087 8.88 3.56 12.21
4/19/2023 4:45:00 PM 14.37 57.866 0.087 8.88 3.65 12.13
4/19/2023 5:00:00 PM 14.38 57.884 0.093 8.88 3.58 12.05
4/19/2023 5:15:00 PM 14.38 57.884 0.093 8.87 3.55 11.95
4/19/2023 5:30:00 PM 14.33 57.794 0.093 8.83 3.73 11.87
4/19/2023 5:45:00 PM 14.3 57.74 0.087 8.82 3.83 11.77
4/19/2023 6:00:00 PM 14.23 57.614 0.087 8.78 3.95 11.65
4/19/2023 6:15:00 PM 14.14 57.452 0.087 8.72 6.98 11.52
4/19/2023 6:30:00 PM 14.06 57.308 0.093 8.68 4.07 11.4
4/19/2023 6:45:00 PM 13.98 57.164 0.087 8.57 3.75 11.27
4/19/2023 7:00:00 PM 13.88 56.984 0.094 8.44 3.71 11.14
4/19/2023 7:15:00 PM 13.78 56.804 0.094 8.29 3.74 11.01
4/19/2023 7:30:00 PM 13.68 56.624 0.094 8.13 3.6 10.88
4/19/2023 7:45:00 PM 13.56 56.408 0.095 7.98 3.6 10.72
4/19/2023 8:00:00 PM 13.44 56.192 0.095 7.84 3.57 10.58
4/19/2023 8:15:00 PM 13.3 55.94 0.095 7.74 4.02 10.46
4/19/2023 8:30:00 PM 13.17 55.706 0.089 7.65 3.9 10.36
4/19/2023 8:45:00 PM 13.04 55.472 0.089 7.58 4.25 10.29
4/19/2023 9:00:00 PM 12.91 55.238 0.096 7.52 4.18 10.21
4/19/2023 9:15:00 PM 12.77 54.986 0.096 7.48 4.24 10.14
4/19/2023 9:30:00 PM 12.65 54.77 0.096 7.44 4.02 10.08
4/19/2023 9:45:00 PM 12.54 54.572 0.097 7.4 4.04 10.04
4/19/2023 10:00:00 PM 12.42 54.356 0.09 7.37 3.79 10.01
4/19/2023 10:15:00 PM 12.31 54.158 0.09 7.35 3.93 9.98
4/19/2023 10:30:00 PM 12.21 53.978 0.09 7.33 4.02 9.98
4/19/2023 10:45:00 PM 12.11 53.798 0.098 7.31 3.95 9.97
4/19/2023 11:00:00 PM 12.02 53.636 0.091 7.29 4.21 9.98
4/19/2023 11:15:00 PM 11.93 53.474 0.091 7.27 4.25 9.98
4/19/2023 11:30:00 PM 11.84 53.312 0.091 7.27 4.16 10.02
4/19/2023 11:45:00 PM 11.76 53.168 0.091 7.26 3.91 10.03
4/20/2023 12:00:00 AM 11.67 53.006 0.091 7.25 4.06 10.05
4/20/2023 12:15:00 AM 11.59 52.862 0.098 7.24 4.15 10.06
4/20/2023 12:30:00 AM 11.53 52.754 0.091 7.24 4.42 10.09
4/20/2023 12:45:00 AM 11.46 52.628 0.091 7.23 4.45 10.11
4/20/2023 1:00:00 AM 11.38 52.484 0.091 7.22 4.05 10.15
4/20/2023 1:15:00 AM 11.31 52.358 0.091 7.22 4.24 10.18
4/20/2023 1:30:00 AM 11.23 52.214 0.098 7.22 4.57 10.2
4/20/2023 1:45:00 AM 11.17 52.106 0.098 7.21 4.52 10.23
4/20/2023 2:00:00 AM 11.11 51.998 0.091 7.21 6.17 10.26
4/20/2023 2:15:00 AM 11.05 51.89 0.091 7.21 4.48 10.28
4/20/2023 2:30:00 AM 10.99 51.782 0.091 7.2 4.39 10.31
4/20/2023 2:45:00 AM 10.92 51.656 0.092 7.2 4.25 10.32
4/20/2023 3:00:00 AM 10.87 51.566 0.092 7.19 4.25 10.35
4/20/2023 3:15:00 AM 10.8 51.44 0.092 7.2 4.23 10.38
4/20/2023 3:30:00 AM 10.74 51.332 0.092 7.19 4.5 10.39
4/20/2023 3:45:00 AM 10.67 51.206 0.092 7.19 4.48 10.44
4/20/2023 4:00:00 AM 10.6 51.08 0.092 7.19 4.6 10.45
4/20/2023 4:15:00 AM 10.52 50.936 0.092 7.19 4.25 10.47
4/20/2023 4:30:00 AM 10.44 50.792 0.092 7.18 4.26 10.5
4/20/2023 4:45:00 AM 10.36 50.648 0.092 7.19 4.2 10.53
4/20/2023 5:00:00 AM 10.29 50.522 0.092 7.19 4.1 10.55
4/20/2023 5:15:00 AM 10.22 50.396 0.092 7.18 4.31 10.56
4/20/2023 5:30:00 AM 10.16 50.288 0.092 7.17 4.3 10.58
4/20/2023 5:45:00 AM 10.11 50.198 0.092 7.17 4.87 10.61
4/20/2023 6:00:00 AM 10.05 50.09 0.092 7.17 4.13 10.64
4/20/2023 6:15:00 AM 10 50 0.092 7.17 4.03 10.66
4/20/2023 6:30:00 AM 9.94 49.892 0.092 7.16 4.13 10.69
4/20/2023 6:45:00 AM 9.89 49.802 0.091 7.16 3.97 10.74
4/20/2023 7:00:00 AM 9.85 49.73 0.091 7.17 3.91 10.82
4/20/2023 7:15:00 AM 9.82 49.676 0.091 7.19 3.85 10.96
4/20/2023 7:30:00 AM 9.79 49.622 0.091 7.21 4.02 11.08
4/20/2023 7:45:00 AM 9.77 49.586 0.091 7.22 3.98 11.22
4/20/2023 8:00:00 AM 9.76 49.568 0.091 7.24 3.76 11.38
4/20/2023 8:15:00 AM 9.77 49.586 0.091 7.28 3.72 11.55
4/20/2023 8:30:00 AM 9.8 49.64 0.091 7.31 3.8 11.73
4/20/2023 8:45:00 AM 9.86 49.748 0.09 7.36 3.66 11.92
4/20/2023 9:00:00 AM 9.91 49.838 0.09 7.4 3.56 12.1
4/20/2023 9:15:00 AM 10.02 50.036 0.09 7.46 3.9 12.28
4/20/2023 9:30:00 AM 10.13 50.234 0.09 7.51 3.8 12.43
4/20/2023 9:45:00 AM 10.29 50.522 0.089 7.59 3.58 12.58
4/20/2023 10:00:00 AM 10.43 50.774 0.089 7.66 3.7 12.7
4/20/2023 10:15:00 AM 10.61 51.098 0.089 7.75 3.77 12.78
4/20/2023 10:30:00 AM 10.82 51.476 0.088 7.84 3.64 12.87
4/20/2023 10:45:00 AM 11.07 51.926 0.089 7.89 3.83 12.92
4/20/2023 11:00:00 AM 11.32 52.376 0.088 7.99 3.89 12.97
4/20/2023 11:15:00 AM 11.61 52.898 0.088 8.09 3.63 13
4/20/2023 11:30:00 AM 11.92 53.456 0.088 8.18 3.7 13
4/20/2023 11:45:00 AM 12.24 54.032 0.088 8.28 3.88 13.01
4/20/2023 12:00:00 PM 12.58 54.644 0.087 8.38 4.32 12.98
4/20/2023 12:15:00 PM 12.93 55.274 0.087 8.47 3.33 12.95
4/20/2023 12:30:00 PM 13.3 55.94 0.087 8.56 3.31 12.9
4/20/2023 12:45:00 PM 13.64 56.552 0.087 8.63 3.41 12.86
4/20/2023 1:00:00 PM 14.03 57.254 0.094 8.7 3.61 12.81
4/20/2023 1:15:00 PM 14.39 57.902 0.093 8.78 3.51 12.75
4/20/2023 1:30:00 PM 14.77 58.586 0.087 8.83 3.42 12.67
4/20/2023 1:45:00 PM 15.13 59.234 0.093 8.88 3.82 12.6
4/20/2023 2:00:00 PM 15.48 59.864 0.093 8.92 4.03 12.52
4/20/2023 2:15:00 PM 15.8 60.44 0.093 8.97 3.78 12.44
4/20/2023 2:30:00 PM 16.1 60.98 0.093 9.02 4.87 12.35
4/20/2023 2:45:00 PM 16.31 61.358 0.093 9.04 3.35 12.3
4/20/2023 3:00:00 PM 16.6 61.88 0.093 9.09 3.65 12.23
4/20/2023 3:15:00 PM 16.75 62.15 0.093 9.12 3.61 12.13
4/20/2023 3:30:00 PM 16.88 62.384 0.093 9.13 3.41 12.07
4/20/2023 3:45:00 PM 16.98 62.564 0.093 9.16 3.86 12
4/20/2023 4:00:00 PM 17.09 62.762 0.093 9.17 3.45 11.94
4/20/2023 4:15:00 PM 17.18 62.924 0.093 9.18 3.4 11.86
4/20/2023 4:30:00 PM 17.21 62.978 0.093 9.18 3.7 11.77
4/20/2023 4:45:00 PM 17.3 63.14 0.093 9.2 3.6 11.73
4/20/2023 5:00:00 PM 17.33 63.194 0.093 9.2 3.51 11.66
4/20/2023 5:15:00 PM 17.33 63.194 0.093 9.19 4.38 11.54
4/20/2023 5:30:00 PM 17.28 63.104 0.093 9.17 3.47 11.4
4/20/2023 5:45:00 PM 17.24 63.032 0.093 9.15 3.66 11.29
4/20/2023 6:00:00 PM 17.17 62.906 0.093 9.12 3.41 11.19
4/20/2023 6:15:00 PM 17.12 62.816 0.093 9.11 3.57 11.08
4/20/2023 6:30:00 PM 17.03 62.654 0.094 9.06 3.58 10.92
4/20/2023 6:45:00 PM 16.96 62.528 0.094 9 3.59 10.73
4/20/2023 7:00:00 PM 16.88 62.384 0.094 8.91 3.81 10.52
4/20/2023 7:15:00 PM 16.81 62.258 0.094 8.8 3.78 10.33
4/20/2023 7:30:00 PM 16.76 62.168 0.094 8.69 3.88 10.15
4/20/2023 7:45:00 PM 16.7 62.06 0.095 8.52 4.21 9.97
4/20/2023 8:00:00 PM 16.62 61.916 0.095 8.33 3.8 9.78
4/20/2023 8:15:00 PM 16.53 61.754 0.095 8.1 5.59 9.59
4/20/2023 8:30:00 PM 16.42 61.556 0.096 7.9 3.75 9.46
4/20/2023 8:45:00 PM 16.29 61.322 0.096 7.76 4.12 9.36
4/20/2023 9:00:00 PM 16.17 61.106 0.096 7.65 4.4 9.25
4/20/2023 9:15:00 PM 16.03 60.854 0.097 7.57 4.07 9.18
4/20/2023 9:30:00 PM 15.89 60.602 0.098 7.5 4.12 9.1
4/20/2023 9:45:00 PM 15.76 60.368 0.098 7.45 3.91 9.07
4/20/2023 10:00:00 PM 15.62 60.116 0.098 7.4 4.24 9.03
4/20/2023 10:15:00 PM 15.49 59.882 0.099 7.36 4.22 9.01
4/20/2023 10:30:00 PM 15.37 59.666 0.099 7.34 4.41 8.98
4/20/2023 10:45:00 PM 15.26 59.468 0.099 7.31 4.28 8.98
4/20/2023 11:00:00 PM 15.15 59.27 0.099 7.29 4.25 8.99
4/20/2023 11:15:00 PM 15.05 59.09 0.099 7.27 4.32 8.99
4/20/2023 11:30:00 PM 14.97 58.946 0.099 7.26 4.08 8.99
4/20/2023 11:45:00 PM 14.87 58.766 0.1 7.25 4.41 9.01
4/21/2023 12:00:00 AM 14.78 58.604 0.1 7.23 4.45 9.02
4/21/2023 12:15:00 AM 14.68 58.424 0.1 7.22 4.3 9.06
4/21/2023 12:30:00 AM 14.59 58.262 0.1 7.22 4.26 9.09
4/21/2023 12:45:00 AM 14.5 58.1 0.1 7.22 4.59 9.12
4/21/2023 1:00:00 AM 14.41 57.938 0.1 7.2 4.4 9.14
4/21/2023 1:15:00 AM 14.32 57.776 0.1 7.2 4.47 9.17
4/21/2023 1:30:00 AM 14.22 57.596 0.1 7.2 5.27 9.2
4/21/2023 1:45:00 AM 14.12 57.416 0.1 7.19 4.5 9.22
4/21/2023 2:00:00 AM 14.03 57.254 0.1 7.19 4.32 9.25
4/21/2023 2:15:00 AM 13.93 57.074 0.1 7.18 4.28 9.29
4/21/2023 2:30:00 AM 13.84 56.912 0.1 7.18 4.46 9.33
4/21/2023 2:45:00 AM 13.73 56.714 0.1 7.18 4.71 9.35
4/21/2023 3:00:00 AM 13.64 56.552 0.1 7.17 4.35 9.38
4/21/2023 3:15:00 AM 13.54 56.372 0.1 7.17 4.17 9.41
4/21/2023 3:30:00 AM 13.44 56.192 0.1 7.17 4.7 9.45
4/21/2023 3:45:00 AM 13.35 56.03 0.1 7.17 4.91 9.49
4/21/2023 4:00:00 AM 13.25 55.85 0.101 7.16 7.17 9.52
4/21/2023 4:15:00 AM 13.15 55.67 0.1 7.16 6.26 9.54
4/21/2023 4:30:00 AM 13.06 55.508 0.1 7.16 5.08 9.58
4/21/2023 4:45:00 AM 12.95 55.31 0.101 7.16 13.51 9.61
4/21/2023 5:00:00 AM 12.87 55.166 0.1 7.16 4.04 9.64
4/21/2023 5:15:00 AM 12.76 54.968 0.1 7.16 4.05 9.66
4/21/2023 5:30:00 AM 12.67 54.806 0.1 7.15 4.14 9.7
4/21/2023 5:45:00 AM 12.57 54.626 0.093 7.15 4.19 9.74
4/21/2023 6:00:00 AM 12.47 54.446 0.1 7.16 3.87 9.77
4/21/2023 6:15:00 AM 12.39 54.302 0.1 7.15 4.17 9.8
4/21/2023 6:30:00 AM 12.28 54.104 0.1 7.14 4.2 9.84
4/21/2023 6:45:00 AM 12.21 53.978 0.1 7.13 4.68 9.9
4/21/2023 7:00:00 AM 12.13 53.834 0.1 7.14 3.89 9.99
4/21/2023 7:15:00 AM 12.07 53.726 0.1 7.15 4.05 10.1
4/21/2023 7:30:00 AM 12.03 53.654 0.1 7.15 3.9 10.24
4/21/2023 7:45:00 AM 12 53.6 0.1 7.18 4.33 10.41
4/21/2023 8:00:00 AM 11.98 53.564 0.1 7.2 3.92 10.59
4/21/2023 8:15:00 AM 11.98 53.564 0.1 7.23 3.91 10.78
4/21/2023 8:30:00 AM 12 53.6 0.099 7.27 3.81 10.98
4/21/2023 8:45:00 AM 12.04 53.672 0.099 7.32 3.57 11.17
4/21/2023 9:00:00 AM 12.09 53.762 0.099 7.37 3.79 11.36
4/21/2023 9:15:00 AM 12.17 53.906 0.098 7.43 3.91 11.55
4/21/2023 9:30:00 AM 12.27 54.086 0.098 7.49 3.93 11.73
4/21/2023 9:45:00 AM 12.42 54.356 0.091 7.57 3.92 11.91
4/21/2023 10:00:00 AM 12.59 54.662 0.09 7.66 3.86 12.05
4/21/2023 10:15:00 AM 12.76 54.968 0.097 7.74 4.33 12.18
4/21/2023 10:30:00 AM 12.98 55.364 0.097 7.85 4.05 12.3
4/21/2023 10:45:00 AM 13.23 55.814 0.097 7.93 4.29 12.38
4/21/2023 11:00:00 AM 13.49 56.282 0.096 8.05 4.28 12.44
4/21/2023 11:15:00 AM 13.79 56.822 0.096 8.19 3.5 12.49
4/21/2023 11:30:00 AM 14.09 57.362 0.096 8.28 3.46 12.52
4/21/2023 11:45:00 AM 14.44 57.992 0.095 8.41 3.68 12.55
4/21/2023 12:00:00 PM 14.79 58.622 0.095 8.51 3.56 12.55
4/21/2023 12:15:00 PM 15.15 59.27 0.095 8.6 4.19 12.55
4/21/2023 12:30:00 PM 15.55 59.99 0.095 8.7 3.57 12.51
4/21/2023 12:45:00 PM 15.97 60.746 0.095 8.78 12.36 12.43
4/21/2023 1:00:00 PM 16.36 61.448 0.095 8.86 3.45 12.41
4/21/2023 1:15:00 PM 16.77 62.186 0.095 8.92 3.71 12.34
4/21/2023 1:30:00 PM 17.14 62.852 0.094 8.98 3.72 12.29
4/21/2023 1:45:00 PM 17.53 63.554 0.095 9.07 3.4 12.22
4/21/2023 2:00:00 PM 17.88 64.184 0.094 9.09 3.69 12.14
4/21/2023 2:15:00 PM 18.21 64.778 0.094 9.14 3.62 12.07
4/21/2023 2:30:00 PM 18.52 65.336 0.094 9.16 3.62 11.99
4/21/2023 2:45:00 PM 18.73 65.714 0.094 9.19 3.45 11.84
4/21/2023 3:00:00 PM 18.92 66.056 0.094 9.2 3.68 11.76
4/21/2023 3:15:00 PM 19.12 66.416 0.094 9.21 3.42 11.66
4/21/2023 3:30:00 PM 19.23 66.614 0.094 9.24 3.42 11.52
4/21/2023 3:45:00 PM 19.33 66.794 0.094 9.24 3.65 11.44
4/21/2023 4:00:00 PM 19.36 66.848 0.094 9.24 3.65 11.28
4/21/2023 4:15:00 PM 19.4 66.92 0.094 9.23 4 11.16
4/21/2023 4:30:00 PM 19.5 67.1 0.094 9.24 3.85 11.13
4/21/2023 4:45:00 PM 19.46 67.028 0.094 9.23 3.75 11
4/21/2023 5:00:00 PM 19.34 66.812 0.095 9.2 3.96 10.78
4/21/2023 5:15:00 PM 19.22 66.596 0.095 9.14 3.87 10.49
4/21/2023 5:30:00 PM 19.24 66.632 0.094 9.12 4.26 10.47
4/21/2023 5:45:00 PM 19.13 66.434 0.095 9.08 3.7 10.38
4/21/2023 6:00:00 PM 19 66.2 0.095 9.03 3.9 10.21
4/21/2023 6:15:00 PM 18.84 65.912 0.095 8.94 3.71 9.93
4/21/2023 6:30:00 PM 18.74 65.732 0.095 8.82 5.06 9.72
4/21/2023 6:45:00 PM 18.65 65.57 0.095 8.68 3.8 9.53
4/21/2023 7:00:00 PM 18.55 65.39 0.095 8.51 3.83 9.36
4/21/2023 7:15:00 PM 18.46 65.228 0.096 8.32 3.58 9.22
4/21/2023 7:30:00 PM 18.37 65.066 0.096 8.1 3.82 9.08
4/21/2023 7:45:00 PM 18.29 64.922 0.097 7.91 3.76 8.95
4/21/2023 8:00:00 PM 18.2 64.76 0.097 7.77 4.28 8.81
4/21/2023 8:15:00 PM 18.1 64.58 0.098 7.66 4.16 8.71
4/21/2023 8:30:00 PM 18 64.4 0.098 7.57 4.43 8.6
4/21/2023 8:45:00 PM 17.9 64.22 0.098 7.51 4.59 8.54
4/21/2023 9:00:00 PM 17.81 64.058 0.099 7.46 4.53 8.48
4/21/2023 9:15:00 PM 17.72 63.896 0.099 7.41 4.36 8.4
4/21/2023 9:30:00 PM 17.64 63.752 0.099 7.38 4.44 8.41
4/21/2023 9:45:00 PM 17.56 63.608 0.1 7.35 4.25 8.37
4/21/2023 10:00:00 PM 17.5 63.5 0.1 7.33 4.17 8.35
4/21/2023 10:15:00 PM 17.43 63.374 0.1 7.3 4.81 8.33
4/21/2023 10:30:00 PM 17.38 63.284 0.1 7.29 4 8.34
4/21/2023 10:45:00 PM 17.33 63.194 0.1 7.27 4.59 8.35
4/21/2023 11:00:00 PM 17.27 63.086 0.101 7.26 4.25 8.34
4/21/2023 11:15:00 PM 17.2 62.96 0.101 7.25 4.48 8.36
4/21/2023 11:30:00 PM 17.13 62.834 0.101 7.24 4.11 8.38
4/21/2023 11:45:00 PM 17.04 62.672 0.101 7.23 4.38 8.37
4/22/2023 12:00:00 AM 16.96 62.528 0.101 7.22 4.54 8.4
4/22/2023 12:15:00 AM 16.87 62.366 0.102 7.21 4.28 8.42
4/22/2023 12:30:00 AM 16.8 62.24 0.102 7.21 4.22 8.43
4/22/2023 12:45:00 AM 16.73 62.114 0.101 7.21 4.24 8.44
4/22/2023 1:00:00 AM 16.67 62.006 0.101 7.21 4.24 8.46
4/22/2023 1:15:00 AM 16.6 61.88 0.102 7.21 4.39 8.49
4/22/2023 1:30:00 AM 16.53 61.754 0.102 7.2 4.39 8.53
4/22/2023 1:45:00 AM 16.45 61.61 0.102 7.2 4.48 8.55
4/22/2023 2:00:00 AM 16.36 61.448 0.102 7.2 4.31 8.58
4/22/2023 2:15:00 AM 16.28 61.304 0.102 7.2 4.31 8.58
4/22/2023 2:30:00 AM 16.2 61.16 0.102 7.2 4.55 8.62
4/22/2023 2:45:00 AM 16.11 60.998 0.102 7.19 4.46 8.63
4/22/2023 3:00:00 AM 16.03 60.854 0.102 7.19 3.98 8.68
4/22/2023 3:15:00 AM 15.94 60.692 0.101 7.19 4.36 8.71
4/22/2023 3:30:00 AM 15.84 60.512 0.102 7.18 4.68 8.74
4/22/2023 3:45:00 AM 15.76 60.368 0.102 7.18 4.52 8.74
4/22/2023 4:00:00 AM 15.68 60.224 0.101 7.19 4.76 8.78
4/22/2023 4:15:00 AM 15.6 60.08 0.101 7.19 4.52 8.8
4/22/2023 4:30:00 AM 15.51 59.918 0.101 7.19 4.55 8.83
4/22/2023 4:45:00 AM 15.42 59.756 0.102 7.19 5.02 8.86
4/22/2023 5:00:00 AM 15.34 59.612 0.101 7.19 5.03 8.88
4/22/2023 5:15:00 AM 15.26 59.468 0.101 7.19 4.67 8.92
4/22/2023 5:30:00 AM 15.18 59.324 0.101 7.18 4.71 8.95
4/22/2023 5:45:00 AM 15.12 59.216 0.101 7.19 4.6 8.96
4/22/2023 6:00:00 AM 15.04 59.072 0.101 7.19 5.09 8.99
4/22/2023 6:15:00 AM 14.97 58.946 0.101 7.19 4.03 9.02
4/22/2023 6:30:00 AM 14.9 58.82 0.101 7.19 4.05 9.04
4/22/2023 6:45:00 AM 14.83 58.694 0.101 7.19 4.06 9.11
4/22/2023 7:00:00 AM 14.77 58.586 0.101 7.2 3.98 9.17
4/22/2023 7:15:00 AM 14.7 58.46 0.101 7.21 3.86 9.27
4/22/2023 7:30:00 AM 14.65 58.37 0.1 7.22 3.82 9.39
4/22/2023 7:45:00 AM 14.6 58.28 0.1 7.25 3.97 9.52
4/22/2023 8:00:00 AM 14.57 58.226 0.1 7.27 3.93 9.75
4/22/2023 8:15:00 AM 14.55 58.19 0.1 7.31 4.11 9.97
4/22/2023 8:30:00 AM 14.62 58.316 0.1 7.35 3.77 10.27
4/22/2023 8:45:00 AM 14.66 58.388 0.099 7.41 3.8 10.51
4/22/2023 9:00:00 AM 14.72 58.496 0.099 7.47 3.92 10.73
4/22/2023 9:15:00 AM 14.77 58.586 0.099 7.54 4.04 10.93
4/22/2023 9:30:00 AM 14.8 58.64 0.099 7.62 3.73 11.11
4/22/2023 9:45:00 AM 14.85 58.73 0.099 7.7 3.51 11.26
4/22/2023 10:00:00 AM 14.91 58.838 0.099 7.77 3.75 11.38
4/22/2023 10:15:00 AM 15.01 59.018 0.099 7.89 3.84 11.54
4/22/2023 10:30:00 AM 15.1 59.18 0.098 8 3.8 11.63
4/22/2023 10:45:00 AM 15.21 59.378 0.098 8.12 3.84 11.74
4/22/2023 11:00:00 AM 15.28 59.504 0.098 8.22 3.69 11.77
4/22/2023 11:15:00 AM 15.3 59.54 0.097 8.25 4.24 11.67
4/22/2023 11:30:00 AM 15.31 59.558 0.097 8.25 3.63 11.49
4/22/2023 11:45:00 AM 15.31 59.558 0.097 8.15 3.72 11.23
4/22/2023 12:00:00 PM 15.38 59.684 0.097 8.16 4.24 11.23
4/22/2023 12:15:00 PM 15.45 59.81 0.096 8.27 3.87 11.29
4/22/2023 12:30:00 PM 15.52 59.936 0.096 8.35 3.59 11.28
4/22/2023 12:45:00 PM 15.57 60.026 0.096 8.38 3.78 11.24
4/22/2023 1:00:00 PM 15.62 60.116 0.096 8.39 3.74 11.25
4/22/2023 1:15:00 PM 15.63 60.134 0.096 8.4 3.57 11.17
4/22/2023 1:30:00 PM 15.61 60.098 0.096 8.33 3.71 10.97
4/22/2023 1:45:00 PM 15.57 60.026 0.096 8.19 3.93 10.79
4/22/2023 2:00:00 PM 15.55 59.99 0.096 8.17 4.14 10.76
4/22/2023 2:15:00 PM 15.52 59.936 0.096 8.11 4.31 10.67
4/22/2023 2:30:00 PM 15.48 59.864 0.096 8.03 3.86 10.6
4/22/2023 2:45:00 PM 15.41 59.738 0.096 7.93 3.85 10.45
4/22/2023 3:00:00 PM 15.37 59.666 0.096 7.89 3.98 10.45
4/22/2023 3:15:00 PM 15.33 59.594 0.096 7.85 3.71 10.42
4/22/2023 3:30:00 PM 15.28 59.504 0.096 7.79 3.91 10.35
4/22/2023 3:45:00 PM 15.23 59.414 0.096 7.75 3.95 10.3
4/22/2023 4:00:00 PM 15.18 59.324 0.096 7.72 4.34 10.31
4/22/2023 4:15:00 PM 15.13 59.234 0.096 7.68 4.17 10.25
4/22/2023 4:30:00 PM 15.06 59.108 0.096 7.64 4.16 10.17
4/22/2023 4:45:00 PM 15 59 0.097 7.59 4.54 10.12
4/22/2023 5:00:00 PM 14.98 58.964 0.097 7.59 4.49 10.23
4/22/2023 5:15:00 PM 14.97 58.946 0.097 7.62 4.59 10.37
4/22/2023 5:30:00 PM 14.92 58.856 0.097 7.61 5.39 10.25
4/22/2023 5:45:00 PM 14.88 58.784 0.097 7.59 5.74 10.23
4/22/2023 6:00:00 PM 14.83 58.694 0.098 7.56 5.43 10.18
4/22/2023 6:15:00 PM 14.8 58.64 0.097 7.55 5.23 10.22
4/22/2023 6:30:00 PM 14.75 58.55 0.097 7.53 5.4 10.11
4/22/2023 6:45:00 PM 14.69 58.442 0.097 7.49 6.12 10.04
4/22/2023 7:00:00 PM 14.64 58.352 0.098 7.48 5.5 10.08
4/22/2023 7:15:00 PM 14.59 58.262 0.098 7.46 5.79 9.99
4/22/2023 7:30:00 PM 14.53 58.154 0.099 7.43 6.09 9.89
4/22/2023 7:45:00 PM 14.47 58.046 0.099 7.41 7.31 9.85
4/22/2023 8:00:00 PM 14.41 57.938 0.1 7.39 7.1 9.77
4/22/2023 8:15:00 PM 14.34 57.812 0.1 7.36 7.22 9.7
4/22/2023 8:30:00 PM 14.27 57.686 0.1 7.33 6.62 9.61
4/22/2023 8:45:00 PM 14.19 57.542 0.101 7.3 7.77 9.58
4/22/2023 9:00:00 PM 14.13 57.434 0.103 7.28 6.89 9.51
4/22/2023 9:15:00 PM 14.06 57.308 0.105 7.26 6.65 9.47
4/22/2023 9:30:00 PM 13.99 57.182 0.106 7.25 6.32 9.47
4/22/2023 9:45:00 PM 13.93 57.074 0.106 7.24 6.02 9.49
4/22/2023 10:00:00 PM 13.86 56.948 0.105 7.22 5.73 9.47
4/22/2023 10:15:00 PM 13.78 56.804 0.104 7.22 5.99 9.52
4/22/2023 10:30:00 PM 13.7 56.66 0.104 7.21 5.91 9.48
4/22/2023 10:45:00 PM 13.62 56.516 0.103 7.19 5.93 9.49
4/22/2023 11:00:00 PM 13.53 56.354 0.102 7.18 5.92 9.49
4/22/2023 11:15:00 PM 13.45 56.21 0.103 7.19 6.35 9.56
4/22/2023 11:30:00 PM 13.4 56.12 0.103 7.18 6.46 9.54
4/22/2023 11:45:00 PM 13.35 56.03 0.103 7.18 6.16 9.53
4/23/2023 12:00:00 AM 13.25 55.85 0.104 7.18 6.82 9.62
4/23/2023 12:15:00 AM 13.19 55.742 0.104 7.17 6.66 9.59
4/23/2023 12:30:00 AM 13.13 55.634 0.103 7.18 6.41 9.68
4/23/2023 12:45:00 AM 13.06 55.508 0.103 7.17 6.76 9.65
4/23/2023 1:00:00 AM 12.97 55.346 0.103 7.17 6.72 9.72
4/23/2023 1:15:00 AM 12.89 55.202 0.103 7.16 5.72 9.69
4/23/2023 1:30:00 AM 12.81 55.058 0.103 7.17 5.85 9.72
4/23/2023 1:45:00 AM 12.71 54.878 0.104 7.17 6.2 9.77
4/23/2023 2:00:00 AM 12.64 54.752 0.103 7.17 5.9 9.78
4/23/2023 2:15:00 AM 12.56 54.608 0.104 7.17 6.13 9.82
4/23/2023 2:30:00 AM 12.49 54.482 0.104 7.16 6.06 9.81
4/23/2023 2:45:00 AM 12.43 54.374 0.103 7.17 5.94 9.85
4/23/2023 3:00:00 AM 12.35 54.23 0.103 7.17 5.44 9.88
4/23/2023 3:15:00 AM 12.26 54.068 0.104 7.17 5.27 9.9
4/23/2023 3:30:00 AM 12.2 53.96 0.103 7.17 5.77 9.92
4/23/2023 3:45:00 AM 12.13 53.834 0.103 7.17 4.87 9.94
4/23/2023 4:00:00 AM 12.06 53.708 0.103 7.17 5.08 9.94
4/23/2023 4:15:00 AM 11.99 53.582 0.103 7.17 5.02 9.99
4/23/2023 4:30:00 AM 11.94 53.492 0.103 7.17 4.98 10
4/23/2023 4:45:00 AM 11.88 53.384 0.103 7.18 5.07 10.02
4/23/2023 5:00:00 AM 11.81 53.258 0.103 7.17 5.04 10.04
4/23/2023 5:15:00 AM 11.74 53.132 0.103 7.17 5.37 10.07
4/23/2023 5:30:00 AM 11.67 53.006 0.102 7.17 5.22 10.09
4/23/2023 5:45:00 AM 11.6 52.88 0.103 7.17 4.94 10.11
4/23/2023 6:00:00 AM 11.52 52.736 0.103 7.17 4.82 10.14
4/23/2023 6:15:00 AM 11.45 52.61 0.103 7.17 4.93 10.14
4/23/2023 6:30:00 AM 11.37 52.466 0.102 7.17 4.98 10.19
4/23/2023 6:45:00 AM 11.3 52.34 0.102 7.17 5.06 10.23
4/23/2023 7:00:00 AM 11.24 52.232 0.103 7.18 4.78 10.3
4/23/2023 7:15:00 AM 11.19 52.142 0.102 7.19 4.8 10.39
4/23/2023 7:30:00 AM 11.15 52.07 0.102 7.21 4.36 10.45
4/23/2023 7:45:00 AM 11.13 52.034 0.102 7.23 4.5 10.59
4/23/2023 8:00:00 AM 11.11 51.998 0.102 7.25 4.62 10.7
4/23/2023 8:15:00 AM 11.1 51.98 0.102 7.28 4.46 10.88
4/23/2023 8:30:00 AM 11.09 51.962 0.102 7.33 4.26 11.06
4/23/2023 8:45:00 AM 11.1 51.98 0.102 7.36 4.6 11.26
4/23/2023 9:00:00 AM 11.12 52.016 0.102 7.4 4.39 11.46
4/23/2023 9:15:00 AM 11.18 52.124 0.101 7.47 4.82 11.65
4/23/2023 9:30:00 AM 11.31 52.358 0.101 7.53 4.35 11.86
4/23/2023 9:45:00 AM 11.32 52.376 0.101 7.59 3.98 12
4/23/2023 10:00:00 AM 11.32 52.376 0.1 7.66 4.14 12.1
4/23/2023 10:15:00 AM 11.34 52.412 0.1 7.69 4.43 12.08
4/23/2023 10:30:00 AM 11.37 52.466 0.1 7.69 4.09 12.05
4/23/2023 10:45:00 AM 11.41 52.538 0.093 7.72 4.54 12.02
4/23/2023 11:00:00 AM 11.58 52.844 0.092 7.78 4.02 12.18
4/23/2023 11:15:00 AM 11.76 53.168 0.092 7.88 3.92 12.29
4/23/2023 11:30:00 AM 11.71 53.078 0.099 7.91 3.95 12.21
4/23/2023 11:45:00 AM 11.71 53.078 0.092 7.92 3.73 12.21
4/23/2023 12:00:00 PM 12.01 53.618 0.099 8.04 3.86 12.37
4/23/2023 12:15:00 PM 12.23 54.014 0.099 8.13 4.01 12.45
4/23/2023 12:30:00 PM 12.24 54.032 0.092 8.22 3.97 12.44
4/23/2023 12:45:00 PM 12.16 53.888 0.099 8.23 4.18 12.33
4/23/2023 1:00:00 PM 12.15 53.87 0.098 8.26 4.01 12.28
4/23/2023 1:15:00 PM 12.16 53.888 0.098 8.27 3.92 12.22
4/23/2023 1:30:00 PM 12.16 53.888 0.098 8.22 4.02 12.05
4/23/2023 1:45:00 PM 12.17 53.906 0.091 8.22 4.02 12.03
4/23/2023 2:00:00 PM 12.16 53.888 0.098 8.23 3.73 11.97
4/23/2023 2:15:00 PM 12.14 53.852 0.098 8.22 3.87 11.87
4/23/2023 2:30:00 PM 12.16 53.888 0.091 8.21 4.1 11.9
4/23/2023 2:45:00 PM 12.21 53.978 0.098 8.3 3.85 12.02
4/23/2023 3:00:00 PM 12.3 54.14 0.098 8.39 3.82 12.14
4/23/2023 3:15:00 PM 12.31 54.158 0.091 8.45 3.92 12.18
4/23/2023 3:30:00 PM 12.28 54.104 0.098 8.48 4.29 12.19
4/23/2023 3:45:00 PM 12.21 53.978 0.091 8.48 3.87 12.16
4/23/2023 4:00:00 PM 12.12 53.816 0.098 8.46 4.03 12.09
4/23/2023 4:15:00 PM 12.07 53.726 0.098 8.46 3.83 12.09
4/23/2023 4:30:00 PM 12.08 53.744 0.091 8.48 4.17 12.17
4/23/2023 4:45:00 PM 12.09 53.762 0.098 8.54 3.88 12.23
4/23/2023 5:00:00 PM 12.07 53.726 0.091 8.57 3.71 12.22
4/23/2023 5:15:00 PM 12.06 53.708 0.097 8.59 3.89 12.2
4/23/2023 5:30:00 PM 12.07 53.726 0.091 8.61 3.83 12.23
4/23/2023 5:45:00 PM 12.02 53.636 0.098 8.61 3.97 12.19
4/23/2023 6:00:00 PM 11.98 53.564 0.091 8.58 4.1 12.1
4/23/2023 6:15:00 PM 11.94 53.492 0.091 8.53 4 12.01
4/23/2023 6:30:00 PM 11.91 53.438 0.091 8.49 4.05 11.96
4/23/2023 6:45:00 PM 11.86 53.348 0.098 8.4 4 11.82
4/23/2023 7:00:00 PM 11.8 53.24 0.091 8.28 4.06 11.67
4/23/2023 7:15:00 PM 11.74 53.132 0.091 8.17 4.11 11.56
4/23/2023 7:30:00 PM 11.68 53.024 0.091 8.08 3.82 11.44
4/23/2023 7:45:00 PM 11.6 52.88 0.091 7.95 3.75 11.29
4/23/2023 8:00:00 PM 11.52 52.736 0.098 7.84 3.85 11.14
4/23/2023 8:15:00 PM 11.42 52.556 0.092 7.74 4.01 11.02
4/23/2023 8:30:00 PM 11.35 52.43 0.092 7.67 3.98 10.91
4/23/2023 8:45:00 PM 11.27 52.286 0.092 7.6 4.22 10.81
4/23/2023 9:00:00 PM 11.18 52.124 0.092 7.55 3.99 10.75
4/23/2023 9:15:00 PM 11.1 51.98 0.092 7.5 3.8 10.65
4/23/2023 9:30:00 PM 11.01 51.818 0.1 7.45 3.91 10.61
4/23/2023 9:45:00 PM 10.92 51.656 0.094 7.42 4.56 10.57
4/23/2023 10:00:00 PM 10.83 51.494 0.093 7.39 3.83 10.53
4/23/2023 10:15:00 PM 10.73 51.314 0.093 7.36 4.19 10.51
4/23/2023 10:30:00 PM 10.65 51.17 0.1 7.33 3.97 10.48
4/23/2023 10:45:00 PM 10.57 51.026 0.093 7.31 4.07 10.49
4/23/2023 11:00:00 PM 10.5 50.9 0.094 7.3 3.78 10.48
4/23/2023 11:15:00 PM 10.44 50.792 0.094 7.28 4.29 10.5
4/23/2023 11:30:00 PM 10.37 50.666 0.101 7.28 4.05 10.46
4/23/2023 11:45:00 PM 10.29 50.522 0.094 7.26 4.2 10.51
4/24/2023 12:00:00 AM 10.21 50.378 0.101 7.25 3.98 10.5
4/24/2023 12:15:00 AM 10.13 50.234 0.094 7.24 3.96 10.55
4/24/2023 12:30:00 AM 10.04 50.072 0.094 7.23 4.06 10.57
4/24/2023 12:45:00 AM 9.97 49.946 0.094 7.23 4.45 10.61
4/24/2023 1:00:00 AM 9.89 49.802 0.094 7.22 4.07 10.62
4/24/2023 1:15:00 AM 9.82 49.676 0.094 7.22 4.17 10.65
4/24/2023 1:30:00 AM 9.75 49.55 0.094 7.21 4.12 10.65
4/24/2023 1:45:00 AM 9.68 49.424 0.094 7.2 4.28 10.67
4/24/2023 2:00:00 AM 9.62 49.316 0.094 7.2 4.03 10.71
4/24/2023 2:15:00 AM 9.54 49.172 0.094 7.2 4.22 10.72
4/24/2023 2:30:00 AM 9.47 49.046 0.094 7.19 4.41 10.76
4/24/2023 2:45:00 AM 9.38 48.884 0.094 7.19 3.9 10.78
4/24/2023 3:00:00 AM 9.3 48.74 0.094 7.19 4.08 10.81
4/24/2023 3:15:00 AM 9.22 48.596 0.094 7.18 4.07 10.83
4/24/2023 3:30:00 AM 9.13 48.434 0.094 7.18 4.14 10.87
4/24/2023 3:45:00 AM 9.07 48.326 0.094 7.18 3.85 10.89
4/24/2023 4:00:00 AM 9.02 48.236 0.094 7.18 3.75 10.91
4/24/2023 4:15:00 AM 8.94 48.092 0.094 7.18 3.83 10.93
4/24/2023 4:30:00 AM 8.86 47.948 0.094 7.18 3.87 10.95
4/24/2023 4:45:00 AM 8.78 47.804 0.094 7.18 3.89 10.98
4/24/2023 5:00:00 AM 8.71 47.678 0.094 7.18 3.95 11.02
4/24/2023 5:15:00 AM 8.63 47.534 0.094 7.17 3.84 11.03
4/24/2023 5:30:00 AM 8.56 47.408 0.094 7.17 3.74 11.06
4/24/2023 5:45:00 AM 8.5 47.3 0.094 7.17 3.73 11.09
4/24/2023 6:00:00 AM 8.43 47.174 0.094 7.18 3.98 11.1
4/24/2023 6:15:00 AM 8.36 47.048 0.094 7.17 3.85 11.13
4/24/2023 6:30:00 AM 8.31 46.958 0.094 7.18 3.86 11.17
4/24/2023 6:45:00 AM 8.27 46.886 0.093 7.19 3.8 11.21
4/24/2023 7:00:00 AM 8.23 46.814 0.094 7.19 3.82 11.27
4/24/2023 7:15:00 AM 8.2 46.76 0.094 7.21 3.79 11.37
4/24/2023 7:30:00 AM 8.18 46.724 0.093 7.23 3.58 11.53
4/24/2023 7:45:00 AM 8.18 46.724 0.093 7.27 3.59 11.71
4/24/2023 8:00:00 AM 8.21 46.778 0.093 7.3 3.67 11.91
4/24/2023 8:15:00 AM 8.2 46.76 0.093 7.33 3.66 12.04
4/24/2023 8:30:00 AM 8.22 46.796 0.093 7.36 3.55 12.17
4/24/2023 8:45:00 AM 8.24 46.832 0.093 7.4 3.59 12.34
4/24/2023 9:00:00 AM 8.34 47.012 0.092 7.45 3.53 12.49
4/24/2023 9:15:00 AM 8.46 47.228 0.092 7.49 3.57 12.65
4/24/2023 9:30:00 AM 8.52 47.336 0.091 7.56 3.54 12.79
4/24/2023 9:45:00 AM 8.69 47.642 0.094 7.55 44.26 12.86
4/24/2023 10:00:00 AM 8.83 47.894 0.092 7.56 30.6 12.89
4/24/2023 10:15:00 AM 8.8 47.84 0.091 7.68 5.49 12.97
4/24/2023 10:30:00 AM 8.89 48.002 0.091 7.75 4 13.04
4/24/2023 10:45:00 AM 8.98 48.164 0.091 7.8 4.14 13.1
4/24/2023 11:00:00 AM 9.18 48.524 0.091 7.85 14.84 13.14
4/24/2023 11:15:00 AM 9.3 48.74 0.09 7.92 4.42 13.19
4/24/2023 11:30:00 AM 9.58 49.244 0.09 8 3.85 13.22
4/24/2023 11:45:00 AM 9.62 49.316 0.09 8.03 7.35 13.19
4/24/2023 12:00:00 PM 9.58 49.244 0.09 8.03 11.31 13.05
4/24/2023 12:15:00 PM 9.58 49.244 0.091 8.02 5.06 12.93
4/24/2023 12:30:00 PM 9.74 49.532 0.09 8.09 4.54 13
4/24/2023 12:45:00 PM 10 50 0.09 8.2 3.85 13.11
4/24/2023 1:00:00 PM 10.25 50.45 0.089 8.3 3.73 13.07
4/24/2023 1:15:00 PM 10.2 50.36 0.09 8.26 3.61 12.89
4/24/2023 1:30:00 PM 10.18 50.324 0.09 8.26 3.54 12.82
4/24/2023 1:45:00 PM 10.5 50.9 0.089 8.33 4.45 12.92
4/24/2023 2:00:00 PM 10.52 50.936 0.089 8.41 3.79 12.94
4/24/2023 2:15:00 PM 10.56 51.008 0.089 8.46 3.71 12.94
4/24/2023 2:30:00 PM 10.6 51.08 0.089 8.51 3.93 12.93
4/24/2023 2:45:00 PM 10.58 51.044 0.089 8.5 3.74 12.83
4/24/2023 3:00:00 PM 10.7 51.26 0.089 8.52 3.54 12.83
4/24/2023 3:15:00 PM 10.68 51.224 0.089 8.52 3.6 12.73
4/24/2023 3:30:00 PM 10.73 51.314 0.089 8.51 3.77 12.69
4/24/2023 3:45:00 PM 10.81 51.458 0.089 8.55 3.8 12.67
4/24/2023 4:00:00 PM 10.88 51.584 0.089 8.58 3.7 12.67
4/24/2023 4:15:00 PM 10.96 51.728 0.089 8.61 3.56 12.66
4/24/2023 4:30:00 PM 11.16 52.088 0.088 8.64 3.41 12.67
4/24/2023 4:45:00 PM 11.19 52.142 0.088 8.68 3.6 12.66
4/24/2023 5:00:00 PM 11.29 52.322 0.088 8.69 3.58 12.64
4/24/2023 5:15:00 PM 11.41 52.538 0.088 8.73 3.9 12.63
4/24/2023 5:30:00 PM 11.48 52.664 0.088 8.74 3.53 12.62
4/24/2023 5:45:00 PM 11.41 52.538 0.088 8.74 3.77 12.52
4/24/2023 6:00:00 PM 11.35 52.43 0.089 8.71 3.81 12.42
4/24/2023 6:15:00 PM 11.32 52.376 0.089 8.65 4.15 12.29
4/24/2023 6:30:00 PM 11.31 52.358 0.088 8.63 4.8 12.25
4/24/2023 6:45:00 PM 11.29 52.322 0.088 8.63 4.63 12.21
4/24/2023 7:00:00 PM 11.23 52.214 0.088 8.57 3.62 12.1
4/24/2023 7:15:00 PM 11.15 52.07 0.089 8.45 4.43 11.91
4/24/2023 7:30:00 PM 11.08 51.944 0.089 8.29 3.56 11.72
4/24/2023 7:45:00 PM 11.01 51.818 0.089 8.14 3.76 11.57
4/24/2023 8:00:00 PM 10.93 51.674 0.089 8 3.69 11.43
4/24/2023 8:15:00 PM 10.85 51.53 0.09 7.89 4.26 11.3
4/24/2023 8:30:00 PM 10.77 51.386 0.09 7.78 3.95 11.17
4/24/2023 8:45:00 PM 10.68 51.224 0.09 7.7 3.74 11.07
4/24/2023 9:00:00 PM 10.6 51.08 0.09 7.63 3.68 10.99
4/24/2023 9:15:00 PM 10.52 50.936 0.09 7.58 3.59 10.91
4/24/2023 9:30:00 PM 10.45 50.81 0.091 7.53 3.62 10.85
4/24/2023 9:45:00 PM 10.36 50.648 0.091 7.49 3.99 10.79
4/24/2023 10:00:00 PM 10.3 50.54 0.091 7.46 4.93 10.74
4/24/2023 10:15:00 PM 10.24 50.432 0.092 7.43 3.88 10.68
4/24/2023 10:30:00 PM 10.19 50.342 0.091 7.41 4.35 10.67
4/24/2023 10:45:00 PM 10.13 50.234 0.092 7.39 3.67 10.65
4/24/2023 11:00:00 PM 10.08 50.144 0.092 7.38 3.81 10.64
4/24/2023 11:15:00 PM 10.02 50.036 0.092 7.36 3.79 10.63
4/24/2023 11:30:00 PM 9.95 49.91 0.092 7.34 4.06 10.63
4/24/2023 11:45:00 PM 9.89 49.802 0.092 7.33 3.6 10.65
4/25/2023 12:00:00 AM 9.84 49.712 0.092 7.32 3.77 10.66
4/25/2023 12:15:00 AM 9.79 49.622 0.092 7.31 3.82 10.66
4/25/2023 12:30:00 AM 9.73 49.514 0.092 7.31 3.59 10.68
4/25/2023 12:45:00 AM 9.64 49.352 0.092 7.3 3.68 10.67
4/25/2023 1:00:00 AM 9.57 49.226 0.093 7.29 3.89 10.71
4/25/2023 1:15:00 AM 9.52 49.136 0.093 7.28 3.83 10.71
4/25/2023 1:30:00 AM 9.46 49.028 0.092 7.28 3.77 10.75
4/25/2023 1:45:00 AM 9.38 48.884 0.092 7.27 3.83 10.77
4/25/2023 2:00:00 AM 9.29 48.722 0.093 7.27 3.9 10.81
4/25/2023 2:15:00 AM 9.2 48.56 0.093 7.27 3.71 10.82
4/25/2023 2:30:00 AM 9.12 48.416 0.093 7.26 3.62 10.85
4/25/2023 2:45:00 AM 9.04 48.272 0.092 7.26 3.92 10.87
4/25/2023 3:00:00 AM 8.95 48.11 0.093 7.26 3.69 10.9
4/25/2023 3:15:00 AM 8.85 47.93 0.093 7.26 4.03 10.92
4/25/2023 3:30:00 AM 8.74 47.732 0.093 7.25 3.8 10.96
4/25/2023 3:45:00 AM 8.64 47.552 0.093 7.24 4.05 11
4/25/2023 4:00:00 AM 8.53 47.354 0.093 7.23 3.62 11.04
4/25/2023 4:15:00 AM 8.43 47.174 0.092 7.22 3.84 11.08
4/25/2023 4:30:00 AM 8.32 46.976 0.093 7.22 3.85 11.11
4/25/2023 4:45:00 AM 8.22 46.796 0.093 7.21 3.66 11.15
4/25/2023 5:00:00 AM 8.11 46.598 0.093 7.2 3.74 11.19
4/25/2023 5:15:00 AM 8.01 46.418 0.093 7.2 3.92 11.23
4/25/2023 5:30:00 AM 7.91 46.238 0.093 7.2 3.72 11.27
4/25/2023 5:45:00 AM 7.82 46.076 0.093 7.19 3.64 11.27
4/25/2023 6:00:00 AM 7.73 45.914 0.093 7.19 3.92 11.32
4/25/2023 6:15:00 AM 7.64 45.752 0.093 7.18 5.99 11.35
4/25/2023 6:30:00 AM 7.55 45.59 0.093 7.19 4.26 11.41
4/25/2023 6:45:00 AM 7.46 45.428 0.092 7.19 3.67 11.48
4/25/2023 7:00:00 AM 7.38 45.284 0.092 7.2 3.65 11.57
4/25/2023 7:15:00 AM 7.31 45.158 0.092 7.2 3.73 11.69
4/25/2023 7:30:00 AM 7.24 45.032 0.092 7.23 3.45 11.82
4/25/2023 7:45:00 AM 7.19 44.942 0.092 7.24 3.57 11.97
4/25/2023 8:00:00 AM 7.19 44.942 0.092 7.27 3.37 12.15
4/25/2023 8:15:00 AM 7.21 44.978 0.092 7.31 3.51 12.35
4/25/2023 8:30:00 AM 7.2 44.96 0.091 7.34 3.4 12.5
4/25/2023 8:45:00 AM 7.22 44.996 0.091 7.38 3.52 12.65
4/25/2023 9:00:00 AM 7.27 45.086 0.091 7.43 3.66 12.8
4/25/2023 9:15:00 AM 7.36 45.248 0.091 7.47 4.04 12.95
4/25/2023 9:30:00 AM 7.45 45.41 0.09 7.51 4.23 13.06
4/25/2023 9:45:00 AM 7.59 45.662 0.09 7.57 4.32 13.18
4/25/2023 10:00:00 AM 7.76 45.968 0.09 7.61 3.72 13.29
4/25/2023 10:15:00 AM 7.97 46.346 0.09 7.67 3.88 13.38
4/25/2023 10:30:00 AM 8.11 46.598 0.09 7.72 3.58 13.4
4/25/2023 10:45:00 AM 8.34 47.012 0.09 7.77 4.33 13.46
4/25/2023 11:00:00 AM 8.59 47.462 0.09 7.83 5.33 13.5
4/25/2023 11:15:00 AM 8.85 47.93 0.09 7.92 16.73 13.49
4/25/2023 11:30:00 AM 9.07 48.326 0.089 7.97 7.16 13.48
4/25/2023 11:45:00 AM 9.1 48.38 0.089 8 4.51 13.43
4/25/2023 12:00:00 PM 9.38 48.884 0.089 8.04 3.97 13.42
4/25/2023 12:15:00 PM 9.62 49.316 0.089 8.09 3.74 13.38
4/25/2023 12:30:00 PM 9.88 49.784 0.088 8.16 3.55 13.36
4/25/2023 12:45:00 PM 10.11 50.198 0.088 8.23 3.51 13.32
4/25/2023 1:00:00 PM 10.47 50.846 0.088 8.32 3.7 13.32
4/25/2023 1:15:00 PM 10.79 51.422 0.088 8.4 3.53 13.27
4/25/2023 1:30:00 PM 11.15 52.07 0.088 8.47 3.77 13.23
4/25/2023 1:45:00 PM 11.25 52.25 0.088 8.51 3.84 13.16
4/25/2023 2:00:00 PM 11.73 53.114 0.088 8.57 3.59 13.1
4/25/2023 2:15:00 PM 12.02 53.636 0.088 8.62 3.32 13.07
4/25/2023 2:30:00 PM 12.3 54.14 0.088 8.67 3.47 13.01
4/25/2023 2:45:00 PM 12.33 54.194 0.087 8.72 3.46 12.94
4/25/2023 3:00:00 PM 12.65 54.77 0.088 8.77 3.45 12.92
4/25/2023 3:15:00 PM 12.89 55.202 0.087 8.82 3.31 12.85
4/25/2023 3:30:00 PM 13.16 55.688 0.087 8.87 3.41 12.79
4/25/2023 3:45:00 PM 13.31 55.958 0.087 8.89 3.42 12.72
4/25/2023 4:00:00 PM 13.38 56.084 0.087 8.91 3.43 12.62
4/25/2023 4:15:00 PM 13.42 56.156 0.087 8.92 3.53 12.5
4/25/2023 4:30:00 PM 13.58 56.444 0.094 8.95 3.42 12.46
4/25/2023 4:45:00 PM 13.6 56.48 0.087 8.97 3.44 12.38
4/25/2023 5:00:00 PM 13.52 56.336 0.087 8.96 3.39 12.27
4/25/2023 5:15:00 PM 13.49 56.282 0.087 8.95 3.57 12.21
4/25/2023 5:30:00 PM 13.47 56.246 0.087 8.95 3.89 12.2
4/25/2023 5:45:00 PM 13.32 55.976 0.087 8.94 3.41 12.13
4/25/2023 6:00:00 PM 13.19 55.742 0.094 8.92 3.37 12.05
4/25/2023 6:15:00 PM 13.08 55.544 0.087 8.89 3.42 11.98
4/25/2023 6:30:00 PM 12.93 55.274 0.088 8.84 3.57 11.88
4/25/2023 6:45:00 PM 12.81 55.058 0.087 8.77 3.65 11.76
4/25/2023 7:00:00 PM 12.69 54.842 0.088 8.67 3.42 11.6
4/25/2023 7:15:00 PM 12.54 54.572 0.088 8.54 3.3 11.45
4/25/2023 7:30:00 PM 12.39 54.302 0.088 8.38 3.45 11.31
4/25/2023 7:45:00 PM 12.24 54.032 0.088 8.2 3.53 11.19
4/25/2023 8:00:00 PM 12.08 53.744 0.088 8.03 3.41 11.04
4/25/2023 8:15:00 PM 11.91 53.438 0.089 7.88 3.56 10.9
4/25/2023 8:30:00 PM 11.76 53.168 0.089 7.77 3.63 10.8
4/25/2023 8:45:00 PM 11.6 52.88 0.089 7.68 4.71 10.7
4/25/2023 9:00:00 PM 11.45 52.61 0.089 7.61 3.77 10.63
4/25/2023 9:15:00 PM 11.31 52.358 0.09 7.55 3.78 10.58
4/25/2023 9:30:00 PM 11.18 52.124 0.09 7.51 3.62 10.53
4/25/2023 9:45:00 PM 11.05 51.89 0.09 7.47 3.59 10.5
4/25/2023 10:00:00 PM 10.93 51.674 0.09 7.43 3.64 10.47
4/25/2023 10:15:00 PM 10.81 51.458 0.091 7.41 4.23 10.46
4/25/2023 10:30:00 PM 10.71 51.278 0.091 7.39 3.63 10.44
4/25/2023 10:45:00 PM 10.59 51.062 0.091 7.37 3.62 10.46
4/25/2023 11:00:00 PM 10.49 50.882 0.091 7.35 3.83 10.46
4/25/2023 11:15:00 PM 10.37 50.666 0.091 7.34 3.78 10.48
4/25/2023 11:30:00 PM 10.27 50.486 0.091 7.32 3.61 10.5
4/25/2023 11:45:00 PM 10.17 50.306 0.091 7.31 3.85 10.51
4/26/2023 12:00:00 AM 10.09 50.162 0.091 7.3 3.81 10.54
4/26/2023 12:15:00 AM 10.01 50.018 0.091 7.29 3.95 10.56
4/26/2023 12:30:00 AM 9.94 49.892 0.092 7.28 3.82 10.59
4/26/2023 12:45:00 AM 9.87 49.766 0.091 7.27 3.57 10.61
4/26/2023 1:00:00 AM 9.81 49.658 0.091 7.28 3.58 10.64
4/26/2023 1:15:00 AM 9.75 49.55 0.092 7.27 3.68 10.65
4/26/2023 1:30:00 AM 9.7 49.46 0.092 7.26 3.73 10.66
4/26/2023 1:45:00 AM 9.64 49.352 0.092 7.26 3.89 10.7
4/26/2023 2:00:00 AM 9.58 49.244 0.092 7.25 3.57 10.69
4/26/2023 2:15:00 AM 9.52 49.136 0.092 7.25 3.67 10.73
4/26/2023 2:30:00 AM 9.46 49.028 0.092 7.25 3.7 10.74
4/26/2023 2:45:00 AM 9.41 48.938 0.092 7.24 3.71 10.77
4/26/2023 3:00:00 AM 9.35 48.83 0.092 7.24 3.68 10.79
4/26/2023 3:15:00 AM 9.29 48.722 0.092 7.24 4.19 10.8
4/26/2023 3:30:00 AM 9.24 48.632 0.092 7.24 3.64 10.83
4/26/2023 3:45:00 AM 9.18 48.524 0.092 7.23 3.66 10.85
4/26/2023 4:00:00 AM 9.14 48.452 0.092 7.23 3.66 10.87
4/26/2023 4:15:00 AM 9.09 48.362 0.092 7.23 3.55 10.89
4/26/2023 4:30:00 AM 9.04 48.272 0.093 7.22 3.58 10.9
4/26/2023 4:45:00 AM 8.99 48.182 0.093 7.23 3.58 10.92
4/26/2023 5:00:00 AM 8.94 48.092 0.093 7.23 3.63 10.95
4/26/2023 5:15:00 AM 8.87 47.966 0.093 7.22 3.5 10.96
4/26/2023 5:30:00 AM 8.79 47.822 0.093 7.22 3.55 10.97
4/26/2023 5:45:00 AM 8.72 47.696 0.093 7.22 3.68 11.01
4/26/2023 6:00:00 AM 8.65 47.57 0.093 7.21 3.77 11.03
4/26/2023 6:15:00 AM 8.58 47.444 0.093 7.2 3.65 11.06
4/26/2023 6:30:00 AM 8.51 47.318 0.093 7.2 3.87 11.09
4/26/2023 6:45:00 AM 8.44 47.192 0.093 7.2 4.15 11.16
4/26/2023 7:00:00 AM 8.38 47.084 0.092 7.21 3.52 11.26
4/26/2023 7:15:00 AM 8.33 46.994 0.092 7.24 3.36 11.39
4/26/2023 7:30:00 AM 8.29 46.922 0.092 7.25 3.59 11.53
4/26/2023 7:45:00 AM 8.27 46.886 0.092 7.27 14.33 11.69
4/26/2023 8:00:00 AM 8.21 46.778 0.095 7.34 82.33 11.8
4/26/2023 8:15:00 AM 8.25 46.85 0.093 7.34 59.49 11.97
4/26/2023 8:30:00 AM 8.27 46.886 0.092 7.37 32.15 12.14
4/26/2023 8:45:00 AM 8.3 46.94 0.091 7.4 14.26 12.31
4/26/2023 9:00:00 AM 8.37 47.066 0.091 7.44 6.71 12.49
4/26/2023 9:15:00 AM 8.48 47.264 0.09 7.49 6.84 12.65
4/26/2023 9:30:00 AM 8.6 47.48 0.09 7.54 4.99 12.81
4/26/2023 9:45:00 AM 8.75 47.75 0.09 7.59 28.16 12.9
4/26/2023 10:00:00 AM 8.93 48.074 0.09 7.66 5.89 13.01
4/26/2023 10:15:00 AM 9.14 48.452 0.09 7.73 5.21 13.13
4/26/2023 10:30:00 AM 9.37 48.866 0.09 7.79 7 13.2
4/26/2023 10:45:00 AM 9.63 49.334 0.089 7.86 12.09 13.25
4/26/2023 11:00:00 AM 9.69 49.442 0.089 7.92 15.53 13.26
4/26/2023 11:15:00 AM 9.76 49.568 0.089 8 8.6 13.27
4/26/2023 11:30:00 AM 9.86 49.748 0.089 8.07 5.74 13.29
4/26/2023 11:45:00 AM 9.99 49.982 0.088 8.16 4.57 13.28
4/26/2023 12:00:00 PM 10.1 50.18 0.088 8.21 4.27 13.22
4/26/2023 12:15:00 PM 10.16 50.288 0.088 8.22 4.28 13.09
4/26/2023 12:30:00 PM 10.2 50.36 0.088 8.18 4.17 12.87
4/26/2023 12:45:00 PM 10.61 51.098 0.088 8.22 4.2 12.92
4/26/2023 1:00:00 PM 11.09 51.962 0.087 8.36 3.96 13.03
4/26/2023 1:15:00 PM 11.23 52.214 0.087 8.43 3.87 12.97
4/26/2023 1:30:00 PM 11.2 52.16 0.087 8.47 3.9 12.86
4/26/2023 1:45:00 PM 11.49 52.682 0.087 8.51 4.06 12.85
4/26/2023 2:00:00 PM 11.83 53.294 0.087 8.57 9.14 12.9
4/26/2023 2:15:00 PM 12.13 53.834 0.087 8.63 3.69 12.89
4/26/2023 2:30:00 PM 12.12 53.816 0.087 8.66 3.82 12.81
4/26/2023 2:45:00 PM 12.06 53.708 0.087 8.66 5.27 12.69
4/26/2023 3:00:00 PM 12.18 53.924 0.087 8.65 3.8 12.62
4/26/2023 3:15:00 PM 12.55 54.59 0.087 8.69 5.83 12.67
4/26/2023 3:30:00 PM 12.58 54.644 0.087 8.71 3.87 12.59
4/26/2023 3:45:00 PM 12.58 54.644 0.087 8.74 3.4 12.45
4/26/2023 4:00:00 PM 12.65 54.77 0.087 8.73 4.24 12.36
4/26/2023 4:15:00 PM 12.8 55.04 0.087 8.76 3.67 12.35
4/26/2023 4:30:00 PM 13.01 55.418 0.087 8.79 3.75 12.36
4/26/2023 4:45:00 PM 13.14 55.652 0.087 8.83 3.98 12.38
4/26/2023 5:00:00 PM 13.24 55.832 0.087 8.85 11.25 12.35
4/26/2023 5:15:00 PM 13.27 55.886 0.087 8.87 5.23 12.31
4/26/2023 5:30:00 PM 13.3 55.94 0.087 8.88 4.51 12.26
4/26/2023 5:45:00 PM 13.31 55.958 0.087 8.89 4.18 12.25
4/26/2023 6:00:00 PM 13.26 55.868 0.087 8.9 4.37 12.19
4/26/2023 6:15:00 PM 13.17 55.706 0.087 8.88 3.93 12.12
4/26/2023 6:30:00 PM 13.1 55.58 0.087 8.86 4.1 12.01
4/26/2023 6:45:00 PM 13.03 55.454 0.087 8.82 3.9 11.9
4/26/2023 7:00:00 PM 12.96 55.328 0.087 8.77 3.7 11.78
4/26/2023 7:15:00 PM 12.89 55.202 0.087 8.7 3.64 11.61
4/26/2023 7:30:00 PM 12.84 55.112 0.087 8.59 3.77 11.43
4/26/2023 7:45:00 PM 12.77 54.986 0.088 8.44 4.29 11.23
4/26/2023 8:00:00 PM 12.7 54.86 0.087 8.28 3.6 11.06
4/26/2023 8:15:00 PM 12.61 54.698 0.088 8.08 4.04 10.87
4/26/2023 8:30:00 PM 12.53 54.554 0.088 7.94 3.9 10.74
4/26/2023 8:45:00 PM 12.43 54.374 0.088 7.81 3.98 10.6
4/26/2023 9:00:00 PM 12.33 54.194 0.088 7.71 4.33 10.49
4/26/2023 9:15:00 PM 12.22 53.996 0.089 7.64 4.11 10.42
4/26/2023 9:30:00 PM 12.12 53.816 0.089 7.58 4.02 10.35
4/26/2023 9:45:00 PM 12.01 53.618 0.089 7.53 4.02 10.3
4/26/2023 10:00:00 PM 11.91 53.438 0.09 7.48 3.82 10.25
4/26/2023 10:15:00 PM 11.82 53.276 0.09 7.45 3.87 10.2
4/26/2023 10:30:00 PM 11.73 53.114 0.09 7.42 3.76 10.18
4/26/2023 10:45:00 PM 11.64 52.952 0.09 7.39 3.82 10.14
4/26/2023 11:00:00 PM 11.56 52.808 0.091 7.36 3.84 10.15
4/26/2023 11:15:00 PM 11.51 52.718 0.091 7.35 4.01 10.12
4/26/2023 11:30:00 PM 11.44 52.592 0.091 7.33 3.96 10.11
4/26/2023 11:45:00 PM 11.38 52.484 0.091 7.32 3.77 10.12
4/27/2023 12:00:00 AM 11.33 52.394 0.091 7.31 3.86 10.13
4/27/2023 12:15:00 AM 11.27 52.286 0.091 7.29 4.36 10.15
4/27/2023 12:30:00 AM 11.22 52.196 0.091 7.29 4.28 10.15
4/27/2023 12:45:00 AM 11.15 52.07 0.091 7.28 4.04 10.17
4/27/2023 1:00:00 AM 11.08 51.944 0.091 7.27 3.81 10.14
4/27/2023 1:15:00 AM 11.02 51.836 0.091 7.27 3.82 10.22
4/27/2023 1:30:00 AM 10.97 51.746 0.091 7.27 3.92 10.22
4/27/2023 1:45:00 AM 10.9 51.62 0.091 7.26 3.98 10.25
4/27/2023 2:00:00 AM 10.84 51.512 0.091 7.26 3.89 10.27
4/27/2023 2:15:00 AM 10.78 51.404 0.091 7.26 6.01 10.29
4/27/2023 2:30:00 AM 10.71 51.278 0.091 7.25 3.93 10.3
4/27/2023 2:45:00 AM 10.65 51.17 0.092 7.24 3.78 10.32
4/27/2023 3:00:00 AM 10.6 51.08 0.091 7.24 3.95 10.36
4/27/2023 3:15:00 AM 10.56 51.008 0.091 7.23 3.86 10.37
4/27/2023 3:30:00 AM 10.51 50.918 0.091 7.24 3.91 10.39
4/27/2023 3:45:00 AM 10.46 50.828 0.091 7.24 3.81 10.41
4/27/2023 4:00:00 AM 10.42 50.756 0.091 7.24 4.07 10.44
4/27/2023 4:15:00 AM 10.38 50.684 0.092 7.23 4.16 10.44
4/27/2023 4:30:00 AM 10.34 50.612 0.092 7.23 4.07 10.46
4/27/2023 4:45:00 AM 10.3 50.54 0.092 7.23 3.92 10.46
4/27/2023 5:00:00 AM 10.26 50.468 0.092 7.23 4.03 10.49
4/27/2023 5:15:00 AM 10.22 50.396 0.092 7.23 3.95 10.51
4/27/2023 5:30:00 AM 10.18 50.324 0.092 7.23 4.03 10.53
4/27/2023 5:45:00 AM 10.14 50.252 0.092 7.22 4.14 10.55
4/27/2023 6:00:00 AM 10.1 50.18 0.092 7.22 3.85 10.55
4/27/2023 6:15:00 AM 10.05 50.09 0.092 7.22 4.04 10.58
4/27/2023 6:30:00 AM 10 50 0.092 7.22 3.96 10.6
4/27/2023 6:45:00 AM 9.97 49.946 0.092 7.23 3.84 10.64
4/27/2023 7:00:00 AM 9.92 49.856 0.092 7.23 4.31 10.74
4/27/2023 7:15:00 AM 9.9 49.82 0.092 7.24 3.65 10.86
4/27/2023 7:30:00 AM 9.87 49.766 0.092 7.27 3.67 10.95
4/27/2023 7:45:00 AM 9.85 49.73 0.091 7.27 3.86 11.04
4/27/2023 8:00:00 AM 9.85 49.73 0.091 7.29 3.72 11.21
4/27/2023 8:15:00 AM 9.87 49.766 0.092 7.33 4.17 11.46
4/27/2023 8:30:00 AM 9.88 49.784 0.091 7.36 3.58 11.67
4/27/2023 8:45:00 AM 9.89 49.802 0.09 7.4 3.54 11.85
4/27/2023 9:00:00 AM 9.98 49.964 0.09 7.46 3.67 12.04
4/27/2023 9:15:00 AM 10.05 50.09 0.09 7.5 3.79 12.2
4/27/2023 9:30:00 AM 10.14 50.252 0.09 7.56 3.86 12.34
4/27/2023 9:45:00 AM 10.29 50.522 0.09 7.62 4.26 12.51
4/27/2023 10:00:00 AM 10.47 50.846 0.089 7.7 3.49 12.65
4/27/2023 10:15:00 AM 10.7 51.26 0.089 7.77 4.26 12.78
4/27/2023 10:30:00 AM 10.83 51.494 0.089 7.84 3.75 12.82
4/27/2023 10:45:00 AM 11.11 51.998 0.088 7.95 3.55 12.94
4/27/2023 11:00:00 AM 11.38 52.484 0.088 8.04 3.39 12.97
4/27/2023 11:15:00 AM 11.65 52.97 0.088 8.14 3.53 13.01
4/27/2023 11:30:00 AM 11.95 53.51 0.088 8.24 3.55 13.04
4/27/2023 11:45:00 AM 12.23 54.014 0.088 8.33 3.57 13.01
4/27/2023 12:00:00 PM 12.58 54.644 0.088 8.43 3.48 13.01
4/27/2023 12:15:00 PM 12.87 55.166 0.087 8.52 3.39 12.98
4/27/2023 12:30:00 PM 13.21 55.778 0.087 8.6 3.35 12.97
4/27/2023 12:45:00 PM 13.6 56.48 0.087 8.68 3.65 12.89
4/27/2023 1:00:00 PM 13.97 57.146 0.093 8.74 3.64 12.84
4/27/2023 1:15:00 PM 14.33 57.794 0.093 8.8 3.53 12.78
4/27/2023 1:30:00 PM 14.67 58.406 0.093 8.86 4.02 12.7
4/27/2023 1:45:00 PM 14.99 58.982 0.093 8.91 3.57 12.63
4/27/2023 2:00:00 PM 15.27 59.486 0.093 8.95 3.47 12.59
4/27/2023 2:15:00 PM 15.54 59.972 0.093 8.98 3.36 12.49
4/27/2023 2:30:00 PM 15.8 60.44 0.093 9.03 4.13 12.46
4/27/2023 2:45:00 PM 16.05 60.89 0.093 9.05 3.57 12.37
4/27/2023 3:00:00 PM 16.28 61.304 0.093 9.09 3.78 12.31
4/27/2023 3:15:00 PM 16.45 61.61 0.093 9.11 3.31 12.24
4/27/2023 3:30:00 PM 16.62 61.916 0.093 9.13 3.41 12.17
4/27/2023 3:45:00 PM 16.72 62.096 0.093 9.15 3.72 12.09
4/27/2023 4:00:00 PM 16.86 62.348 0.093 9.18 3.41 12.03
4/27/2023 4:15:00 PM 16.89 62.402 0.093 9.2 3.59 11.96
4/27/2023 4:30:00 PM 16.89 62.402 0.093 9.21 3.66 11.86
4/27/2023 4:45:00 PM 16.83 62.294 0.093 9.21 3.64 11.74
4/27/2023 5:00:00 PM 16.77 62.186 0.093 9.21 3.85 11.64
4/27/2023 5:15:00 PM 16.71 62.078 0.093 9.19 3.75 11.58
4/27/2023 5:30:00 PM 16.62 61.916 0.093 9.18 3.84 11.53
4/27/2023 5:45:00 PM 16.49 61.682 0.093 9.17 3.65 11.45
4/27/2023 6:00:00 PM 16.36 61.448 0.093 9.14 3.75 11.34
4/27/2023 6:15:00 PM 16.22 61.196 0.093 9.11 3.52 11.26
4/27/2023 6:30:00 PM 16.07 60.926 0.093 9.08 3.46 11.15
4/27/2023 6:45:00 PM 15.92 60.656 0.093 9.02 3.84 11
4/27/2023 7:00:00 PM 15.76 60.368 0.093 8.96 3.6 10.9
4/27/2023 7:15:00 PM 15.61 60.098 0.093 8.87 3.78 10.74
4/27/2023 7:30:00 PM 15.47 59.846 0.093 8.78 3.84 10.6
4/27/2023 7:45:00 PM 15.31 59.558 0.094 8.63 3.78 10.41
4/27/2023 8:00:00 PM 15.14 59.252 0.094 8.44 3.71 10.24
4/27/2023 8:15:00 PM 14.99 58.982 0.094 8.24 3.87 10.11
4/27/2023 8:30:00 PM 14.83 58.694 0.094 8.03 3.92 9.89
4/27/2023 8:45:00 PM 14.68 58.424 0.095 7.87 3.85 9.82
4/27/2023 9:00:00 PM 14.55 58.19 0.095 7.75 4.74 9.72
4/27/2023 9:15:00 PM 14.41 57.938 0.095 7.65 4.83 9.66
4/27/2023 9:30:00 PM 14.28 57.704 0.096 7.58 3.68 9.61
4/27/2023 9:45:00 PM 14.15 57.47 0.096 7.52 3.67 9.55
4/27/2023 10:00:00 PM 14.02 57.236 0.097 7.47 3.89 9.5
4/27/2023 10:15:00 PM 13.88 56.984 0.097 7.43 4.03 9.44
4/27/2023 10:30:00 PM 13.74 56.732 0.097 7.4 3.78 9.45
4/27/2023 10:45:00 PM 13.61 56.498 0.097 7.37 3.99 9.44
4/27/2023 11:00:00 PM 13.48 56.264 0.097 7.35 4.05 9.44
4/27/2023 11:15:00 PM 13.37 56.066 0.098 7.33 3.77 9.44
4/27/2023 11:30:00 PM 13.27 55.886 0.098 7.31 3.85 9.45
4/27/2023 11:45:00 PM 13.17 55.706 0.098 7.3 3.82 9.44
4/28/2023 12:00:00 AM 13.08 55.544 0.098 7.29 4.06 9.47
4/28/2023 12:15:00 AM 13.01 55.418 0.098 7.28 3.82 9.5
4/28/2023 12:30:00 AM 12.94 55.292 0.098 7.27 4.3 9.52
4/28/2023 12:45:00 AM 12.9 55.22 0.098 7.26 3.98 9.54
4/28/2023 1:00:00 AM 12.85 55.13 0.098 7.25 3.76 9.56
4/28/2023 1:15:00 AM 12.8 55.04 0.098 7.25 3.84 9.58
4/28/2023 1:30:00 AM 12.75 54.95 0.098 7.25 3.95 9.59
4/28/2023 1:45:00 AM 12.71 54.878 0.098 7.24 3.83 9.62
4/28/2023 2:00:00 AM 12.67 54.806 0.098 7.23 3.69 9.62
4/28/2023 2:15:00 AM 12.63 54.734 0.098 7.23 3.92 9.66
4/28/2023 2:30:00 AM 12.59 54.662 0.099 7.23 3.86 9.68
4/28/2023 2:45:00 AM 12.55 54.59 0.099 7.23 3.86 9.7
4/28/2023 3:00:00 AM 12.51 54.518 0.099 7.22 3.85 9.73
4/28/2023 3:15:00 AM 12.46 54.428 0.099 7.23 4.04 9.74
4/28/2023 3:30:00 AM 12.41 54.338 0.092 7.22 4.15 9.71
4/28/2023 3:45:00 AM 12.37 54.266 0.099 7.22 4.08 9.77
4/28/2023 4:00:00 AM 12.33 54.194 0.099 7.22 3.83 9.81
4/28/2023 4:15:00 AM 12.28 54.104 0.099 7.22 4.33 9.81
4/28/2023 4:30:00 AM 12.23 54.014 0.099 7.21 3.88 9.84
4/28/2023 4:45:00 AM 12.18 53.924 0.092 7.22 3.91 9.85
4/28/2023 5:00:00 AM 12.13 53.834 0.099 7.21 3.86 9.87
4/28/2023 5:15:00 AM 12.08 53.744 0.099 7.21 3.94 9.89
4/28/2023 5:30:00 AM 12.03 53.654 0.092 7.21 4.13 9.91
4/28/2023 5:45:00 AM 11.97 53.546 0.099 7.21 4.03 9.93
4/28/2023 6:00:00 AM 11.92 53.456 0.099 7.22 3.68 9.96
4/28/2023 6:15:00 AM 11.87 53.366 0.099 7.21 3.86 9.97
4/28/2023 6:30:00 AM 11.83 53.294 0.092 7.22 4.07 9.95
4/28/2023 6:45:00 AM 11.79 53.222 0.099 7.21 3.99 10
4/28/2023 7:00:00 AM 11.74 53.132 0.092 7.23 3.72 10.07
4/28/2023 7:15:00 AM 11.71 53.078 0.092 7.23 3.84 10.13
4/28/2023 7:30:00 AM 11.68 53.024 0.099 7.25 3.65 10.26
4/28/2023 7:45:00 AM 11.66 52.988 0.099 7.26 3.6 10.38
4/28/2023 8:00:00 AM 11.64 52.952 0.099 7.28 3.81 10.4
4/28/2023 8:15:00 AM 11.63 52.934 0.098 7.29 3.38 10.54
4/28/2023 8:30:00 AM 11.61 52.898 0.098 7.3 3.8 10.61
4/28/2023 8:45:00 AM 11.6 52.88 0.091 7.33 3.41 10.73
4/28/2023 9:00:00 AM 11.59 52.862 0.091 7.35 3.53 10.81
4/28/2023 9:15:00 AM 11.58 52.844 0.091 7.37 3.5 10.91
4/28/2023 9:30:00 AM 11.58 52.844 0.091 7.38 3.64 11.01
4/28/2023 9:45:00 AM 11.59 52.862 0.098 7.42 3.69 11.16
4/28/2023 10:00:00 AM 11.57 52.826 0.091 7.44 3.44 11.21
4/28/2023 10:15:00 AM 11.56 52.808 0.091 7.45 3.44 11.2
4/28/2023 10:30:00 AM 11.55 52.79 0.091 7.47 3.52 11.25
4/28/2023 10:45:00 AM 11.54 52.772 0.09 7.49 3.57 11.3
4/28/2023 11:00:00 AM 11.54 52.772 0.09 7.5 3.57 11.36
4/28/2023 11:15:00 AM 11.54 52.772 0.09 7.52 3.6 11.42
4/28/2023 11:30:00 AM 11.54 52.772 0.09 7.55 3.59 11.49
4/28/2023 11:45:00 AM 11.54 52.772 0.09 7.58 3.6 11.59
4/28/2023 12:00:00 PM 11.53 52.754 0.09 7.61 3.58 11.63
4/28/2023 12:15:00 PM 11.52 52.736 0.089 7.63 3.59 11.65
4/28/2023 12:30:00 PM 11.53 52.754 0.089 7.67 3.56 11.79
4/28/2023 12:45:00 PM 11.54 52.772 0.089 7.71 3.57 11.86
4/28/2023 1:00:00 PM 11.55 52.79 0.089 7.76 3.45 11.94
4/28/2023 1:15:00 PM 11.55 52.79 0.089 7.8 3.77 11.96
4/28/2023 1:30:00 PM 11.56 52.808 0.088 7.83 3.49 12.01
4/28/2023 1:45:00 PM 11.57 52.826 0.088 7.86 3.61 12.05
4/28/2023 2:00:00 PM 11.58 52.844 0.088 7.89 4.08 12.08
4/28/2023 2:15:00 PM 11.6 52.88 0.088 7.94 4.39 12.14
4/28/2023 2:30:00 PM 11.63 52.934 0.088 7.99 4.13 12.19
4/28/2023 2:45:00 PM 11.65 52.97 0.088 8.04 3.97 12.2
4/28/2023 3:00:00 PM 11.68 53.024 0.087 8.09 3.9 12.23
4/28/2023 3:15:00 PM 11.72 53.096 0.087 8.14 3.93 12.25
4/28/2023 3:30:00 PM 11.74 53.132 0.087 8.19 3.92 12.25
4/28/2023 3:45:00 PM 11.8 53.24 0.087 8.27 3.6 12.35
4/28/2023 4:00:00 PM 11.82 53.276 0.087 8.3 3.79 12.34
4/28/2023 4:15:00 PM 11.8 53.24 0.087 8.29 3.72 12.2
4/28/2023 4:30:00 PM 11.8 53.24 0.087 8.27 3.96 12.16
4/28/2023 4:45:00 PM 11.81 53.258 0.087 8.28 3.77 12.15
4/28/2023 5:00:00 PM 11.82 53.276 0.087 8.29 4.06 12.12
4/28/2023 5:15:00 PM 11.81 53.258 0.087 8.25 3.89 12
4/28/2023 5:30:00 PM 11.78 53.204 0.087 8.18 3.83 11.88
4/28/2023 5:45:00 PM 11.76 53.168 0.087 8.09 3.8 11.74
4/28/2023 6:00:00 PM 11.73 53.114 0.087 8.03 3.97 11.67
4/28/2023 6:15:00 PM 11.71 53.078 0.087 7.98 4.13 11.63
4/28/2023 6:30:00 PM 11.67 53.006 0.087 7.95 3.74 11.6
4/28/2023 6:45:00 PM 11.64 52.952 0.087 7.89 3.99 11.53
4/28/2023 7:00:00 PM 11.58 52.844 0.087 7.82 3.83 11.38
4/28/2023 7:15:00 PM 11.52 52.736 0.087 7.73 3.85 11.21
4/28/2023 7:30:00 PM 11.45 52.61 0.088 7.66 4.03 11.08
4/28/2023 7:45:00 PM 11.4 52.52 0.088 7.6 3.97 10.98
4/28/2023 8:00:00 PM 11.33 52.394 0.088 7.55 4.14 10.87
4/28/2023 8:15:00 PM 11.27 52.286 0.088 7.51 4.34 10.78
4/28/2023 8:30:00 PM 11.21 52.178 0.088 7.48 4.16 10.71
4/28/2023 8:45:00 PM 11.15 52.07 0.089 7.44 4.22 10.63
4/28/2023 9:00:00 PM 11.08 51.944 0.089 7.41 4.18 10.58
4/28/2023 9:15:00 PM 11.03 51.854 0.089 7.38 4 10.53
4/28/2023 9:30:00 PM 10.98 51.764 0.089 7.36 4.35 10.48
4/28/2023 9:45:00 PM 10.93 51.674 0.089 7.34 4.34 10.47
4/28/2023 10:00:00 PM 10.88 51.584 0.09 7.32 4.27 10.44
4/28/2023 10:15:00 PM 10.83 51.494 0.091 7.3 4.27 10.42
4/28/2023 10:30:00 PM 10.78 51.404 0.091 7.29 4.28 10.42
4/28/2023 10:45:00 PM 10.74 51.332 0.092 7.28 4.47 10.43
4/28/2023 11:00:00 PM 10.7 51.26 0.092 7.27 4.45 10.41
4/28/2023 11:15:00 PM 10.66 51.188 0.092 7.26 4.45 10.43
4/28/2023 11:30:00 PM 10.62 51.116 0.092 7.26 4.46 10.44
4/28/2023 11:45:00 PM 10.59 51.062 0.092 7.25 4.35 10.44
4/29/2023 12:00:00 AM 10.55 50.99 0.092 7.25 4.27 10.47
4/29/2023 12:15:00 AM 10.51 50.918 0.092 7.24 4.69 10.47
4/29/2023 12:30:00 AM 10.48 50.864 0.092 7.24 4.41 10.47
4/29/2023 12:45:00 AM 10.45 50.81 0.092 7.24 4.65 10.47
4/29/2023 1:00:00 AM 10.42 50.756 0.093 7.24 5.35 10.49
4/29/2023 1:15:00 AM 10.39 50.702 0.093 7.24 4.56 10.49
4/29/2023 1:30:00 AM 10.36 50.648 0.093 7.24 4.9 10.51
4/29/2023 1:45:00 AM 10.32 50.576 0.093 7.24 4.53 10.52
4/29/2023 2:00:00 AM 10.3 50.54 0.092 7.25 4.4 10.51
4/29/2023 2:15:00 AM 10.27 50.486 0.092 7.24 4.44 10.52
4/29/2023 2:30:00 AM 10.24 50.432 0.092 7.24 4.9 10.54
4/29/2023 2:45:00 AM 10.21 50.378 0.092 7.23 4.52 10.53
4/29/2023 3:00:00 AM 10.18 50.324 0.092 7.24 4.65 10.56
4/29/2023 3:15:00 AM 10.15 50.27 0.092 7.23 4.34 10.56
4/29/2023 3:30:00 AM 10.13 50.234 0.092 7.24 4.39 10.57
4/29/2023 3:45:00 AM 10.11 50.198 0.092 7.24 4.49 10.59
4/29/2023 4:00:00 AM 10.08 50.144 0.092 7.24 4.2 10.59
4/29/2023 4:15:00 AM 10.06 50.108 0.092 7.24 4.23 10.61
4/29/2023 4:30:00 AM 10.04 50.072 0.092 7.23 4.21 10.6
4/29/2023 4:45:00 AM 10.02 50.036 0.092 7.24 4.21 10.62
4/29/2023 5:00:00 AM 10 50 0.092 7.24 4.32 10.63
4/29/2023 5:15:00 AM 9.98 49.964 0.092 7.23 4.18 10.64
4/29/2023 5:30:00 AM 9.96 49.928 0.092 7.24 4.61 10.65
4/29/2023 5:45:00 AM 9.94 49.892 0.092 7.24 4.29 10.64
4/29/2023 6:00:00 AM 9.92 49.856 0.092 7.24 4.3 10.65
4/29/2023 6:15:00 AM 9.9 49.82 0.092 7.24 4.35 10.68
4/29/2023 6:30:00 AM 9.89 49.802 0.092 7.24 4.4 10.66
4/29/2023 6:45:00 AM 9.87 49.766 0.092 7.24 5.59 10.69
4/29/2023 7:00:00 AM 9.86 49.748 0.092 7.24 4.22 10.72
4/29/2023 7:15:00 AM 9.84 49.712 0.092 7.25 4.04 10.74
4/29/2023 7:30:00 AM 9.83 49.694 0.092 7.25 4.05 10.78
4/29/2023 7:45:00 AM 9.82 49.676 0.092 7.27 4.12 10.81
4/29/2023 8:00:00 AM 9.82 49.676 0.092 7.26 4.21 10.84
4/29/2023 8:15:00 AM 9.81 49.658 0.092 7.27 3.91 10.9
4/29/2023 8:30:00 AM 9.81 49.658 0.093 7.29 3.95 10.98
4/29/2023 8:45:00 AM 9.82 49.676 0.093 7.3 3.99 11.06
4/29/2023 9:00:00 AM 9.83 49.694 0.093 7.33 3.95 11.15
4/29/2023 9:15:00 AM 9.84 49.712 0.093 7.35 3.94 11.25
4/29/2023 9:30:00 AM 9.85 49.73 0.093 7.37 4.1 11.35
4/29/2023 9:45:00 AM 9.86 49.748 0.093 7.38 3.97 11.38
4/29/2023 10:00:00 AM 9.88 49.784 0.093 7.41 4.12 11.46
4/29/2023 10:15:00 AM 9.91 49.838 0.093 7.43 4.25 11.56
4/29/2023 10:30:00 AM 9.96 49.928 0.093 7.46 4.11 11.69
4/29/2023 10:45:00 AM 10 50 0.093 7.49 3.97 11.83
4/29/2023 11:00:00 AM 10.05 50.09 0.093 7.54 3.94 11.91
4/29/2023 11:15:00 AM 10.11 50.198 0.093 7.58 3.84 12.03
4/29/2023 11:30:00 AM 10.2 50.36 0.093 7.63 4.14 12.15
4/29/2023 11:45:00 AM 10.28 50.504 0.092 7.69 3.96 12.25
4/29/2023 12:00:00 PM 10.37 50.666 0.092 7.75 3.98 12.34
4/29/2023 12:15:00 PM 10.47 50.846 0.092 7.82 4.5 12.42
4/29/2023 12:30:00 PM 10.57 51.026 0.091 7.88 3.83 12.46
4/29/2023 12:45:00 PM 10.65 51.17 0.091 7.94 3.94 12.51
4/29/2023 1:00:00 PM 10.76 51.368 0.091 8.02 3.94 12.55
4/29/2023 1:15:00 PM 10.87 51.566 0.091 8.09 3.8 12.58
4/29/2023 1:30:00 PM 10.97 51.746 0.091 8.16 3.86 12.59
4/29/2023 1:45:00 PM 11.04 51.872 0.091 8.2 3.88 12.58
4/29/2023 2:00:00 PM 11.16 52.088 0.09 8.27 3.83 12.6
4/29/2023 2:15:00 PM 11.27 52.286 0.09 8.33 3.9 12.56
4/29/2023 2:30:00 PM 11.34 52.412 0.09 8.36 3.93 12.51
4/29/2023 2:45:00 PM 11.41 52.538 0.091 8.37 4.55 12.43
4/29/2023 3:00:00 PM 11.47 52.646 0.097 8.39 3.88 12.37
4/29/2023 3:15:00 PM 11.51 52.718 0.09 8.36 4.01 12.21
4/29/2023 3:30:00 PM 11.58 52.844 0.09 8.34 3.83 12.18
4/29/2023 3:45:00 PM 11.68 53.024 0.09 8.39 3.9 12.2
4/29/2023 4:00:00 PM 11.71 53.078 0.09 8.38 3.63 12.13
4/29/2023 4:15:00 PM 11.72 53.096 0.09 8.3 4.06 11.95
4/29/2023 4:30:00 PM 11.75 53.15 0.09 8.24 3.78 11.85
4/29/2023 4:45:00 PM 11.8 53.24 0.09 8.23 3.94 11.86
4/29/2023 5:00:00 PM 11.82 53.276 0.09 8.21 4.06 11.8
4/29/2023 5:15:00 PM 11.83 53.294 0.09 8.15 3.88 11.69
4/29/2023 5:30:00 PM 11.83 53.294 0.09 8.07 3.96 11.57
4/29/2023 5:45:00 PM 11.83 53.294 0.091 7.97 4.04 11.46
4/29/2023 6:00:00 PM 11.83 53.294 0.091 7.92 4.07 11.39
4/29/2023 6:15:00 PM 11.83 53.294 0.098 7.85 3.86 11.29
4/29/2023 6:30:00 PM 11.83 53.294 0.098 7.79 4.13 11.18
4/29/2023 6:45:00 PM 11.84 53.312 0.091 7.75 4.3 11.16
4/29/2023 7:00:00 PM 11.85 53.33 0.098 7.73 4.04 11.16
4/29/2023 7:15:00 PM 11.84 53.312 0.098 7.7 3.9 11.08
4/29/2023 7:30:00 PM 11.82 53.276 0.091 7.64 3.9 10.93
4/29/2023 7:45:00 PM 11.8 53.24 0.098 7.6 3.83 10.83
4/29/2023 8:00:00 PM 11.79 53.222 0.091 7.56 4.03 10.74
4/29/2023 8:15:00 PM 11.76 53.168 0.098 7.52 4.22 10.65
4/29/2023 8:30:00 PM 11.74 53.132 0.092 7.49 4.33 10.57
4/29/2023 8:45:00 PM 11.72 53.096 0.099 7.46 4.05 10.48
4/29/2023 9:00:00 PM 11.7 53.06 0.099 7.43 3.85 10.42
4/29/2023 9:15:00 PM 11.68 53.024 0.099 7.4 4.18 10.37
4/29/2023 9:30:00 PM 11.66 52.988 0.092 7.37 4.3 10.31
4/29/2023 9:45:00 PM 11.63 52.934 0.099 7.36 4.73 10.27
4/29/2023 10:00:00 PM 11.61 52.898 0.099 7.35 4.06 10.24
4/29/2023 10:15:00 PM 11.58 52.844 0.099 7.33 4 10.21
4/29/2023 10:30:00 PM 11.55 52.79 0.099 7.32 9.55 10.19
4/29/2023 10:45:00 PM 11.53 52.754 0.1 7.31 4.29 10.18
4/29/2023 11:00:00 PM 11.5 52.7 0.092 7.3 4.34 10.16
4/29/2023 11:15:00 PM 11.48 52.664 0.099 7.29 3.89 10.17
4/29/2023 11:30:00 PM 11.45 52.61 0.1 7.28 4.07 10.17
4/29/2023 11:45:00 PM 11.43 52.574 0.1 7.28 4.23 10.13
4/30/2023 12:00:00 AM 11.41 52.538 0.1 7.27 4.27 10.16
4/30/2023 12:15:00 AM 11.39 52.502 0.093 7.26 4.44 10.17
4/30/2023 12:30:00 AM 11.37 52.466 0.1 7.26 4.17 10.18
4/30/2023 12:45:00 AM 11.35 52.43 0.1 7.26 4.15 10.17
4/30/2023 1:00:00 AM 11.32 52.376 0.093 7.25 4.01 10.17
4/30/2023 1:15:00 AM 11.3 52.34 0.1 7.24 3.93 10.19
4/30/2023 1:30:00 AM 11.27 52.286 0.093 7.24 3.87 10.17
4/30/2023 1:45:00 AM 11.25 52.25 0.1 7.24 3.93 10.19
4/30/2023 2:00:00 AM 11.23 52.214 0.1 7.24 4.37 10.19
4/30/2023 2:15:00 AM 11.21 52.178 0.093 7.24 4 10.21
4/30/2023 2:30:00 AM 11.19 52.142 0.093 7.24 3.82 10.21
4/30/2023 2:45:00 AM 11.17 52.106 0.1 7.23 3.9 10.21
4/30/2023 3:00:00 AM 11.15 52.07 0.1 7.24 4.47 10.23
4/30/2023 3:15:00 AM 11.13 52.034 0.093 7.23 4.02 10.21
4/30/2023 3:30:00 AM 11.12 52.016 0.1 7.23 3.99 10.23
4/30/2023 3:45:00 AM 11.1 51.98 0.093 7.22 4.59 10.22
4/30/2023 4:00:00 AM 11.09 51.962 0.1 7.23 4.04 10.23
4/30/2023 4:15:00 AM 11.08 51.944 0.1 7.23 4.27 10.24
4/30/2023 4:30:00 AM 11.06 51.908 0.1 7.23 5.33 10.23
4/30/2023 4:45:00 AM 11.05 51.89 0.093 7.24 6.17 10.24
4/30/2023 5:00:00 AM 11.04 51.872 0.1 7.23 10.23 10.26
4/30/2023 5:15:00 AM 11.02 51.836 0.101 7.24 22.97 10.25
4/30/2023 5:30:00 AM 11.01 51.818 0.101 7.24 17.02 10.25
4/30/2023 5:45:00 AM 10.99 51.782 0.103 7.24 20.92 10.26
4/30/2023 6:00:00 AM 10.98 51.764 0.103 7.24 17.53 10.22
4/30/2023 6:15:00 AM 10.97 51.746 0.105 7.25 21.99 10.26
4/30/2023 6:30:00 AM 10.95 51.71 0.103 7.25 14.81 10.25
4/30/2023 6:45:00 AM 10.94 51.692 0.103 7.25 12.2 10.29
4/30/2023 7:00:00 AM 10.94 51.692 0.104 7.25 11.97 10.27
4/30/2023 7:15:00 AM 10.93 51.674 0.105 7.27 11.31 10.35
4/30/2023 7:30:00 AM 10.93 51.674 0.106 7.27 11.69 10.33
4/30/2023 7:45:00 AM 10.93 51.674 0.107 7.29 12.13 10.42
4/30/2023 8:00:00 AM 10.93 51.674 0.106 7.3 11.56 10.46
4/30/2023 8:15:00 AM 10.94 51.692 0.107 7.31 11.88 10.55
4/30/2023 8:30:00 AM 10.96 51.728 0.108 7.33 10.58 10.64
4/30/2023 8:45:00 AM 10.99 51.782 0.112 7.36 10.53 10.78
4/30/2023 9:00:00 AM 11 51.8 0.113 7.38 9.37 10.81
4/30/2023 9:15:00 AM 11.02 51.836 0.114 7.39 9.68 10.81
4/30/2023 9:30:00 AM 11.03 51.854 0.112 7.4 9.01 10.81
4/30/2023 9:45:00 AM 11.05 51.89 0.11 7.41 9.4 10.87
4/30/2023 10:00:00 AM 11.07 51.926 0.108 7.42 9.78 10.9
4/30/2023 10:15:00 AM 11.09 51.962 0.107 7.42 11.14 10.89
4/30/2023 10:30:00 AM 11.11 51.998 0.107 7.43 12.26 10.9
4/30/2023 10:45:00 AM 11.12 52.016 0.106 7.43 11.7 10.86
4/30/2023 11:00:00 AM 11.14 52.052 0.106 7.43 13.84 10.9
4/30/2023 11:15:00 AM 11.16 52.088 0.107 7.43 15.12 10.9
4/30/2023 11:30:00 AM 11.19 52.142 0.107 7.44 16.65 10.93
4/30/2023 11:45:00 AM 11.22 52.196 0.109 7.45 25.7 10.91
4/30/2023 12:00:00 PM 11.25 52.25 0.109 7.45 26.38 10.92
4/30/2023 12:15:00 PM 11.29 52.322 0.109 7.45 33.82 10.96
4/30/2023 12:30:00 PM 11.33 52.394 0.11 7.47 37.41 10.93
4/30/2023 12:45:00 PM 11.36 52.448 0.111 7.47 40.93 10.86
4/30/2023 1:00:00 PM 11.4 52.52 0.11 7.46 39.73 10.9
4/30/2023 1:15:00 PM 11.44 52.592 0.111 7.46 43.57 10.87
4/30/2023 1:30:00 PM 11.49 52.682 0.113 7.46 35.01 10.9
4/30/2023 1:45:00 PM 11.55 52.79 0.113 7.46 41.81 10.89
4/30/2023 2:00:00 PM 11.61 52.898 0.112 7.46 35.65 10.87
4/30/2023 2:15:00 PM 11.66 52.988 0.112 7.45 43.33 10.82
4/30/2023 2:30:00 PM 11.7 53.06 0.11 7.44 49.04 10.79
4/30/2023 2:45:00 PM 11.72 53.096 0.109 7.42 65.22 10.72
4/30/2023 3:00:00 PM 11.74 53.132 0.107 7.41 60.58 10.67
4/30/2023 3:15:00 PM 11.74 53.132 0.105 7.39 52.39 10.64
4/30/2023 3:30:00 PM 11.74 53.132 0.104 7.37 44.53 10.58
4/30/2023 3:45:00 PM 11.72 53.096 0.103 7.35 49.58 10.54
4/30/2023 4:00:00 PM 11.71 53.078 0.103 7.33 48.33 10.49
4/30/2023 4:15:00 PM 11.71 53.078 0.103 7.32 48.62 10.47
4/30/2023 4:30:00 PM 11.71 53.078 0.102 7.31 54.69 10.44
4/30/2023 4:45:00 PM 11.7 53.06 0.094 7.3 58.32 10.42
4/30/2023 5:00:00 PM 11.71 53.078 0.094 7.28 57.78 10.4
4/30/2023 5:15:00 PM 11.71 53.078 0.094 7.27 88.18 10.39
4/30/2023 5:30:00 PM 11.71 53.078 0.094 7.26 63.9 10.36
4/30/2023 5:45:00 PM 11.71 53.078 0.101 7.25 64.41 10.36
4/30/2023 6:00:00 PM 11.69 53.042 0.093 7.25 72.6 10.37
4/30/2023 6:15:00 PM 11.68 53.024 0.093 7.24 66.21 10.36
4/30/2023 6:30:00 PM 11.65 52.97 0.092 7.24 68.71 10.35
4/30/2023 6:45:00 PM 11.63 52.934 0.091 7.23 71.63 10.33
4/30/2023 7:00:00 PM 11.6 52.88 0.09 7.22 70.48 10.33
4/30/2023 7:15:00 PM 11.57 52.826 0.089 7.22 70.93 10.31
4/30/2023 7:30:00 PM 11.55 52.79 0.089 7.2 70.62 10.29
4/30/2023 7:45:00 PM 11.53 52.754 0.09 7.19 73.88 10.3
4/30/2023 8:00:00 PM 11.5 52.7 0.089 7.2 70.59 10.29
4/30/2023 8:15:00 PM 11.47 52.646 0.088 7.21 68.69 10.3
4/30/2023 8:30:00 PM 11.43 52.574 0.087 7.18 67.16 10.3
4/30/2023 8:45:00 PM 11.39 52.502 0.087 7.17 64.65 10.32
4/30/2023 9:00:00 PM 11.34 52.412 0.086 7.18 59.08 10.33
4/30/2023 9:15:00 PM 11.28 52.304 0.086 7.17 55.11 10.35
4/30/2023 9:30:00 PM 11.23 52.214 0.086 7.17 55.44 10.37
4/30/2023 9:45:00 PM 11.18 52.124 0.085 7.18 51.91 10.38
4/30/2023 10:00:00 PM 11.13 52.034 0.085 7.17 52.68 10.4
4/30/2023 10:15:00 PM 11.08 51.944 0.085 7.17 47.21 10.42
4/30/2023 10:30:00 PM 11.03 51.854 0.085 7.18 50.04 10.43
4/30/2023 10:45:00 PM 10.98 51.764 0.086 7.17 27.93 10.45
4/30/2023 11:00:00 PM 10.93 51.674 0.085 7.18 46.94 10.46
4/30/2023 11:15:00 PM 10.87 51.566 0.085 7.17 49.34 10.48
4/30/2023 11:30:00 PM 10.82 51.476 0.085 7.18 43.35 10.49
4/30/2023 11:45:00 PM 10.76 51.368 0.085 7.18 44.02 10.5
5/1/2023 12:00:00 AM 10.71 51.278 0.085 7.18 44.96 10.51
5/1/2023 12:15:00 AM 10.66 51.188 0.086 7.17 40.69 10.54
5/1/2023 12:30:00 AM 10.6 51.08 0.085 7.18 39.81 10.56
5/1/2023 12:45:00 AM 10.55 50.99 0.086 7.17 28.24 10.58
5/1/2023 1:00:00 AM 10.5 50.9 0.085 7.18 39.66 10.59
5/1/2023 1:15:00 AM 10.45 50.81 0.085 7.17 36.67 10.62
5/1/2023 1:30:00 AM 10.4 50.72 0.085 7.17 36.52 10.63
5/1/2023 1:45:00 AM 10.35 50.63 0.085 7.17 35.98 10.63
5/1/2023 2:00:00 AM 10.3 50.54 0.085 7.16 34.77 10.66
5/1/2023 2:15:00 AM 10.25 50.45 0.085 7.15 32.87 10.67
5/1/2023 2:30:00 AM 10.19 50.342 0.085 7.15 25.82 10.69
5/1/2023 2:45:00 AM 10.12 50.216 0.085 7.14 32.86 10.69
5/1/2023 3:00:00 AM 10.06 50.108 0.084 7.14 30.54 10.72
5/1/2023 3:15:00 AM 9.99 49.982 0.084 7.12 30.34 10.75
5/1/2023 3:30:00 AM 9.93 49.874 0.084 7.12 29.39 10.76
5/1/2023 3:45:00 AM 9.87 49.766 0.083 7.12 29.5 10.79
5/1/2023 4:00:00 AM 9.82 49.676 0.083 7.11 27.13 10.8
5/1/2023 4:15:00 AM 9.77 49.586 0.083 7.11 27.84 10.83
5/1/2023 4:30:00 AM 9.72 49.496 0.082 7.11 26.59 10.83
5/1/2023 4:45:00 AM 9.68 49.424 0.082 7.11 27.45 10.85
5/1/2023 5:00:00 AM 9.63 49.334 0.082 7.11 26.04 10.87
5/1/2023 5:15:00 AM 9.59 49.262 0.082 7.12 26.67 10.89
5/1/2023 5:30:00 AM 9.53 49.154 0.081 7.13 25.82 10.9
5/1/2023 5:45:00 AM 9.47 49.046 0.081 7.13 24.96 10.92
5/1/2023 6:00:00 AM 9.42 48.956 0.081 7.12 24.11 10.94
5/1/2023 6:15:00 AM 9.36 48.848 0.081 7.13 25.01 10.96
5/1/2023 6:30:00 AM 9.31 48.758 0.081 7.13 24.57 10.97
5/1/2023 6:45:00 AM 9.27 48.686 0.081 7.13 21.71 11
5/1/2023 7:00:00 AM 9.24 48.632 0.08 7.14 23.84 11.04
5/1/2023 7:15:00 AM 9.21 48.578 0.08 7.14 23.23 11.07
5/1/2023 7:30:00 AM 9.18 48.524 0.08 7.15 25.81 11.1
5/1/2023 7:45:00 AM 9.17 48.506 0.08 7.15 22.08 11.13
5/1/2023 8:00:00 AM 9.14 48.452 0.079 7.16 22.54 11.15
5/1/2023 8:15:00 AM 9.14 48.452 0.079 7.17 19.95 11.18
5/1/2023 8:30:00 AM 9.14 48.452 0.078 7.17 19.36 11.21
5/1/2023 8:45:00 AM 9.16 48.488 0.078 7.19 19.68 11.25
5/1/2023 9:00:00 AM 9.17 48.506 0.078 7.19 20.01 11.3
5/1/2023 9:15:00 AM 9.19 48.542 0.078 7.21 18.66 11.32
5/1/2023 9:30:00 AM 9.19 48.542 0.077 7.22 18.53 11.34
5/1/2023 9:45:00 AM 9.24 48.632 0.077 7.24 17.42 11.38
5/1/2023 10:00:00 AM 9.29 48.722 0.077 7.24 17.48 11.41
5/1/2023 10:15:00 AM 9.31 48.758 0.077 7.26 17.57 11.41
5/1/2023 10:30:00 AM 9.33 48.794 0.076 7.27 17.57 11.43
5/1/2023 10:45:00 AM 9.48 49.064 0.076 7.28 17.66 11.47
5/1/2023 11:00:00 AM 9.55 49.19 0.076 7.3 17.53 11.48
5/1/2023 11:15:00 AM 9.69 49.442 0.075 7.31 17.8 11.51
5/1/2023 11:30:00 AM 9.77 49.586 0.075 7.33 17.12 11.53
5/1/2023 11:45:00 AM 9.79 49.622 0.075 7.34 17.77 11.49
5/1/2023 12:00:00 PM 9.76 49.568 0.075 7.32 16.85 11.43
5/1/2023 12:15:00 PM 9.84 49.712 0.075 7.33 17.06 11.46
5/1/2023 12:30:00 PM 9.76 49.568 0.074 7.34 17.74 11.43
5/1/2023 12:45:00 PM 9.58 49.244 0.074 7.32 52.71 11.39
5/1/2023 1:00:00 PM 9.61 49.298 0.075 7.29 42.22 11.36
5/1/2023 1:15:00 PM 9.77 49.586 0.076 7.28 51.56 11.34
5/1/2023 1:30:00 PM 10 50 0.075 7.28 56.92 11.34
5/1/2023 1:45:00 PM 10.27 50.486 0.075 7.29 48.6 11.36
5/1/2023 2:00:00 PM 10.42 50.756 0.075 7.31 33.69 11.36
5/1/2023 2:15:00 PM 10.57 51.026 0.077 7.33 31.08 11.34
5/1/2023 2:30:00 PM 10.62 51.116 0.078 7.34 28.34 11.32
5/1/2023 2:45:00 PM 10.67 51.206 0.078 7.35 24.97 11.3
5/1/2023 3:00:00 PM 10.76 51.368 0.078 7.35 25.82 11.3
5/1/2023 3:15:00 PM 10.78 51.404 0.077 7.35 25.14 11.25
5/1/2023 3:30:00 PM 10.75 51.35 0.076 7.35 26.56 11.21
5/1/2023 3:45:00 PM 10.82 51.476 0.076 7.35 23.12 11.21
5/1/2023 4:00:00 PM 10.85 51.53 0.075 7.34 25 11.19
5/1/2023 4:15:00 PM 10.82 51.476 0.075 7.33 23.23 11.13
5/1/2023 4:30:00 PM 10.84 51.512 0.074 7.32 22.87 11.12
5/1/2023 4:45:00 PM 10.81 51.458 0.074 7.31 21.89 11.06
5/1/2023 5:00:00 PM 10.77 51.386 0.074 7.3 26.51 11.02
5/1/2023 5:15:00 PM 10.73 51.314 0.074 7.3 21 10.99
5/1/2023 5:30:00 PM 10.72 51.296 0.075 7.28 20.1 10.98
5/1/2023 5:45:00 PM 10.71 51.278 0.074 7.27 20.59 10.96
5/1/2023 6:00:00 PM 10.7 51.26 0.074 7.26 22.05 10.94
5/1/2023 6:15:00 PM 10.65 51.17 0.074 7.24 25.8 10.91
5/1/2023 6:30:00 PM 10.62 51.116 0.074 7.24 22.01 10.89
5/1/2023 6:45:00 PM 10.57 51.026 0.075 7.22 23.03 10.88
5/1/2023 7:00:00 PM 10.54 50.972 0.074 7.21 25.59 10.88
5/1/2023 7:15:00 PM 10.51 50.918 0.074 7.22 22.08 10.88
5/1/2023 7:30:00 PM 10.46 50.828 0.074 7.21 21.74 10.87
5/1/2023 7:45:00 PM 10.41 50.738 0.074 7.2 20.36 10.86
5/1/2023 8:00:00 PM 10.36 50.648 0.074 7.19 22.72 10.84
5/1/2023 8:15:00 PM 10.3 50.54 0.075 7.19 22.54 10.84
5/1/2023 8:30:00 PM 10.25 50.45 0.074 7.17 18 10.82
5/1/2023 8:45:00 PM 10.2 50.36 0.075 7.16 20.28 10.81
5/1/2023 9:00:00 PM 10.16 50.288 0.074 7.16 21.71 10.81
5/1/2023 9:15:00 PM 10.11 50.198 0.074 7.15 20.81 10.81
5/1/2023 9:30:00 PM 10.06 50.108 0.074 7.14 21.02 10.82
5/1/2023 9:45:00 PM 10.02 50.036 0.074 7.14 19.02 10.82
5/1/2023 10:00:00 PM 9.98 49.964 0.074 7.14 21.16 10.82
5/1/2023 10:15:00 PM 9.94 49.892 0.074 7.14 21.09 10.84
5/1/2023 10:30:00 PM 9.9 49.82 0.074 7.12 20.98 10.84
5/1/2023 10:45:00 PM 9.86 49.748 0.074 7.13 19.99 10.86
5/1/2023 11:00:00 PM 9.82 49.676 0.074 7.12 19.82 10.87
5/1/2023 11:15:00 PM 9.78 49.604 0.074 7.13 19.48 10.88
5/1/2023 11:30:00 PM 9.74 49.532 0.074 7.12 19.41 10.89
5/1/2023 11:45:00 PM 9.7 49.46 0.074 7.12 16.26 10.9
5/2/2023 12:00:00 AM 9.66 49.388 0.074 7.11 18.56 10.91
5/2/2023 12:15:00 AM 9.61 49.298 0.074 7.11 17.78 10.92
5/2/2023 12:30:00 AM 9.57 49.226 0.074 7.12 18.24 10.94
5/2/2023 12:45:00 AM 9.53 49.154 0.074 7.11 18.84 10.95
5/2/2023 1:00:00 AM 9.49 49.082 0.074 7.11 17.28 10.96
5/2/2023 1:15:00 AM 9.44 48.992 0.074 7.12 14.01 10.98
5/2/2023 1:30:00 AM 9.39 48.902 0.073 7.1 18.1 10.99
5/2/2023 1:45:00 AM 9.35 48.83 0.074 7.1 17.38 11.01
5/2/2023 2:00:00 AM 9.31 48.758 0.073 7.1 18.3 11.02
5/2/2023 2:15:00 AM 9.26 48.668 0.073 7.09 17.96 11.04
5/2/2023 2:30:00 AM 9.23 48.614 0.074 7.08 18.16 11.05
5/2/2023 2:45:00 AM 9.19 48.542 0.073 7.09 18.49 11.06
5/2/2023 3:00:00 AM 9.15 48.47 0.073 7.08 17.45 11.07
5/2/2023 3:15:00 AM 9.11 48.398 0.073 7.08 18.13 11.08
5/2/2023 3:30:00 AM 9.07 48.326 0.073 7.08 16.27 11.09
5/2/2023 3:45:00 AM 9.04 48.272 0.073 7.08 17.47 11.1
5/2/2023 4:00:00 AM 9 48.2 0.073 7.08 17.76 11.11
5/2/2023 4:15:00 AM 8.97 48.146 0.073 7.09 17.98 11.12
5/2/2023 4:30:00 AM 8.93 48.074 0.073 7.08 17.51 11.14
5/2/2023 4:45:00 AM 8.9 48.02 0.073 7.07 17.28 11.15
5/2/2023 5:00:00 AM 8.86 47.948 0.073 7.09 17.09 11.16
5/2/2023 5:15:00 AM 8.81 47.858 0.073 7.09 17.53 11.18
5/2/2023 5:30:00 AM 8.77 47.786 0.073 7.09 16.89 11.18
5/2/2023 5:45:00 AM 8.73 47.714 0.073 7.08 17.4 11.2
5/2/2023 6:00:00 AM 8.69 47.642 0.073 7.08 17.62 11.21
5/2/2023 6:15:00 AM 8.65 47.57 0.073 7.09 17.08 11.23
5/2/2023 6:30:00 AM 8.62 47.516 0.073 7.09 18.25 11.24
5/2/2023 6:45:00 AM 8.58 47.444 0.073 7.09 15.7 11.27
5/2/2023 7:00:00 AM 8.56 47.408 0.073 7.09 15.94 11.29
5/2/2023 7:15:00 AM 8.54 47.372 0.073 7.1 15.14 11.32
5/2/2023 7:30:00 AM 8.52 47.336 0.073 7.1 15.81 11.34
5/2/2023 7:45:00 AM 8.52 47.336 0.073 7.11 15.44 11.39
5/2/2023 8:00:00 AM 8.51 47.318 0.073 7.13 15.62 11.44
5/2/2023 8:15:00 AM 8.52 47.336 0.073 7.14 15.66 11.48
5/2/2023 8:30:00 AM 8.53 47.354 0.073 7.14 13.92 11.52
5/2/2023 8:45:00 AM 8.55 47.39 0.073 7.15 16.31 11.57
5/2/2023 9:00:00 AM 8.57 47.426 0.072 7.17 15.31 11.6
5/2/2023 9:15:00 AM 8.61 47.498 0.072 7.19 14.78 11.65
5/2/2023 9:30:00 AM 8.64 47.552 0.072 7.2 14.07 11.66
5/2/2023 9:45:00 AM 8.66 47.588 0.072 7.21 14.36 11.67
5/2/2023 10:00:00 AM 8.69 47.642 0.072 7.22 13.64 11.69
5/2/2023 10:15:00 AM 8.73 47.714 0.072 7.24 13.59 11.7
5/2/2023 10:30:00 AM 8.77 47.786 0.072 7.25 13.25 11.73
5/2/2023 10:45:00 AM 8.83 47.894 0.072 7.24 12.7 11.74
5/2/2023 11:00:00 AM 8.88 47.984 0.072 7.27 13.51 11.76
5/2/2023 11:15:00 AM 8.92 48.056 0.072 7.27 12.93 11.76
5/2/2023 11:30:00 AM 8.97 48.146 0.072 7.28 12.83 11.78
5/2/2023 11:45:00 AM 8.99 48.182 0.072 7.29 12.74 11.77
5/2/2023 12:00:00 PM 9.04 48.272 0.071 7.3 12.77 11.78
5/2/2023 12:15:00 PM 9.09 48.362 0.071 7.29 12.45 11.76
5/2/2023 12:30:00 PM 9.14 48.452 0.071 7.31 12.3 11.76
5/2/2023 12:45:00 PM 9.23 48.614 0.071 7.32 12.41 11.77
5/2/2023 1:00:00 PM 9.29 48.722 0.071 7.31 12.38 11.76
5/2/2023 1:15:00 PM 9.37 48.866 0.071 7.33 13.31 11.75
5/2/2023 1:30:00 PM 9.48 49.064 0.071 7.33 12.17 11.73
5/2/2023 1:45:00 PM 9.64 49.352 0.071 7.34 12.88 11.73
5/2/2023 2:00:00 PM 9.77 49.586 0.071 7.35 11.79 11.73
5/2/2023 2:15:00 PM 9.86 49.748 0.071 7.35 12.44 11.7
5/2/2023 2:30:00 PM 9.86 49.748 0.071 7.35 11.74 11.66
5/2/2023 2:45:00 PM 9.88 49.784 0.071 7.34 12.11 11.63
5/2/2023 3:00:00 PM 9.9 49.82 0.071 7.34 12.69 11.61
5/2/2023 3:15:00 PM 9.95 49.91 0.071 7.35 11.74 11.6
5/2/2023 3:30:00 PM 9.97 49.946 0.07 7.36 11.44 11.58
5/2/2023 3:45:00 PM 10.01 50.018 0.071 7.35 11.8 11.57
5/2/2023 4:00:00 PM 10.04 50.072 0.07 7.35 13.99 11.54
5/2/2023 4:15:00 PM 10.05 50.09 0.07 7.34 12.49 11.5
5/2/2023 4:30:00 PM 10.03 50.054 0.07 7.34 12.23 11.47
5/2/2023 4:45:00 PM 10.05 50.09 0.07 7.33 11.89 11.46
5/2/2023 5:00:00 PM 10.07 50.126 0.07 7.33 12.27 11.45
5/2/2023 5:15:00 PM 10.07 50.126 0.07 7.32 12.23 11.41
5/2/2023 5:30:00 PM 10.07 50.126 0.07 7.32 12.62 11.4
5/2/2023 5:45:00 PM 10.07 50.126 0.07 7.32 12.14 11.39
5/2/2023 6:00:00 PM 10.07 50.126 0.07 7.31 12.34 11.38
5/2/2023 6:15:00 PM 10.06 50.108 0.07 7.31 12.13 11.37
5/2/2023 6:30:00 PM 10.04 50.072 0.07 7.3 11.78 11.34
5/2/2023 6:45:00 PM 10.02 50.036 0.07 7.29 11.67 11.33
5/2/2023 7:00:00 PM 9.99 49.982 0.07 7.27 11.62 11.31
5/2/2023 7:15:00 PM 9.96 49.928 0.07 7.27 11.75 11.27
5/2/2023 7:30:00 PM 9.92 49.856 0.07 7.25 11.92 11.24
5/2/2023 7:45:00 PM 9.89 49.802 0.07 7.25 12.39 11.2
5/2/2023 8:00:00 PM 9.85 49.73 0.07 7.23 13.71 11.17
5/2/2023 8:15:00 PM 9.81 49.658 0.07 7.21 11.64 11.14
5/2/2023 8:30:00 PM 9.76 49.568 0.07 7.2 12.12 11.11
5/2/2023 8:45:00 PM 9.72 49.496 0.07 7.19 12.51 11.09
5/2/2023 9:00:00 PM 9.69 49.442 0.07 7.18 12.94 11.08
5/2/2023 9:15:00 PM 9.65 49.37 0.07 7.18 12.76 11.07
5/2/2023 9:30:00 PM 9.61 49.298 0.07 7.16 13.36 11.07
5/2/2023 9:45:00 PM 9.57 49.226 0.07 7.15 13.72 11.06
5/2/2023 10:00:00 PM 9.53 49.154 0.07 7.15 13.35 11.06
5/2/2023 10:15:00 PM 9.49 49.082 0.07 7.15 12.13 11.07
5/2/2023 10:30:00 PM 9.44 48.992 0.07 7.15 12.19 11.08
5/2/2023 10:45:00 PM 9.4 48.92 0.07 7.15 12.85 11.08
5/2/2023 11:00:00 PM 9.35 48.83 0.07 7.14 13.11 11.1
5/2/2023 11:15:00 PM 9.3 48.74 0.071 7.13 13.35 11.11
5/2/2023 11:30:00 PM 9.26 48.668 0.07 7.12 13.15 11.13
5/2/2023 11:45:00 PM 9.21 48.578 0.07 7.12 12.81 11.13
5/3/2023 12:00:00 AM 9.17 48.506 0.07 7.14 13.34 11.15
5/3/2023 12:15:00 AM 9.13 48.434 0.07 7.12 12.83 11.15
5/3/2023 12:30:00 AM 9.09 48.362 0.07 7.12 12.85 11.17
5/3/2023 12:45:00 AM 9.06 48.308 0.071 7.11 12.69 11.18
5/3/2023 1:00:00 AM 9.02 48.236 0.07 7.11 13.47 11.19
5/3/2023 1:15:00 AM 8.98 48.164 0.07 7.12 12.44 11.2
5/3/2023 1:30:00 AM 8.94 48.092 0.07 7.11 12.91 11.21
5/3/2023 1:45:00 AM 8.91 48.038 0.07 7.1 12.73 11.22
5/3/2023 2:00:00 AM 8.87 47.966 0.07 7.11 12.04 11.23
5/3/2023 2:15:00 AM 8.84 47.912 0.07 7.1 12.39 11.24
5/3/2023 2:30:00 AM 8.81 47.858 0.07 7.11 12.24 11.25
5/3/2023 2:45:00 AM 8.77 47.786 0.07 7.1 12.65 11.26
5/3/2023 3:00:00 AM 8.74 47.732 0.071 7.11 12.35 11.27
5/3/2023 3:15:00 AM 8.71 47.678 0.07 7.1 12.3 11.28
5/3/2023 3:30:00 AM 8.68 47.624 0.07 7.1 11.73 11.29
5/3/2023 3:45:00 AM 8.65 47.57 0.07 7.1 11.92 11.3
5/3/2023 4:00:00 AM 8.62 47.516 0.071 7.11 12.21 11.31
5/3/2023 4:15:00 AM 8.59 47.462 0.071 7.09 12.91 11.33
5/3/2023 4:30:00 AM 8.56 47.408 0.071 7.1 12.35 11.33
5/3/2023 4:45:00 AM 8.53 47.354 0.071 7.1 12.71 11.33
5/3/2023 5:00:00 AM 8.5 47.3 0.071 7.09 11.99 11.35
5/3/2023 5:15:00 AM 8.47 47.246 0.07 7.09 12.35 11.35
5/3/2023 5:30:00 AM 8.44 47.192 0.07 7.09 12.06 11.36
5/3/2023 5:45:00 AM 8.41 47.138 0.07 7.09 11.7 11.37
5/3/2023 6:00:00 AM 8.38 47.084 0.07 7.08 12.17 11.38
5/3/2023 6:15:00 AM 8.36 47.048 0.07 7.08 12.83 11.39
5/3/2023 6:30:00 AM 8.33 46.994 0.07 7.08 12.78 11.4
5/3/2023 6:45:00 AM 8.31 46.958 0.07 7.09 11.9 11.42
5/3/2023 7:00:00 AM 8.3 46.94 0.07 7.09 12.06 11.46
5/3/2023 7:15:00 AM 8.29 46.922 0.07 7.11 11.48 11.49
5/3/2023 7:30:00 AM 8.28 46.904 0.07 7.11 12.57 11.52
5/3/2023 7:45:00 AM 8.27 46.886 0.07 7.12 11.26 11.56
5/3/2023 8:00:00 AM 8.28 46.904 0.07 7.13 10.6 11.59
5/3/2023 8:15:00 AM 8.29 46.922 0.07 7.15 10.84 11.64
5/3/2023 8:30:00 AM 8.31 46.958 0.07 7.16 10.47 11.69
5/3/2023 8:45:00 AM 8.35 47.03 0.07 7.17 10.48 11.75
5/3/2023 9:00:00 AM 8.38 47.084 0.07 7.18 10.21 11.78
5/3/2023 9:15:00 AM 8.45 47.21 0.07 7.21 9.63 11.83
5/3/2023 9:30:00 AM 8.48 47.264 0.07 7.21 9.43 11.84
5/3/2023 9:45:00 AM 8.54 47.372 0.07 7.23 10.37 11.87
5/3/2023 10:00:00 AM 8.56 47.408 0.07 7.24 9.69 11.87
5/3/2023 10:15:00 AM 8.7 47.66 0.07 7.25 9.43 11.89
5/3/2023 10:30:00 AM 8.79 47.822 0.07 7.26 9.17 11.91
5/3/2023 10:45:00 AM 8.79 47.822 0.07 7.26 9.54 11.86
5/3/2023 11:00:00 AM 8.84 47.912 0.069 7.27 8.87 11.87
5/3/2023 11:15:00 AM 8.92 48.056 0.07 7.28 9.37 11.87
5/3/2023 11:30:00 AM 9.03 48.254 0.07 7.3 9.15 11.9
5/3/2023 11:45:00 AM 9.17 48.506 0.069 7.32 9.61 11.91
5/3/2023 12:00:00 PM 9.33 48.794 0.069 7.32 8.86 11.92
5/3/2023 12:15:00 PM 9.41 48.938 0.069 7.33 8.45 11.9
5/3/2023 12:30:00 PM 9.59 49.262 0.069 7.34 9.14 11.88
5/3/2023 12:45:00 PM 9.84 49.712 0.07 7.35 8.84 11.88
5/3/2023 1:00:00 PM 9.95 49.91 0.069 7.36 8.67 11.83
5/3/2023 1:15:00 PM 9.93 49.874 0.069 7.36 8.97 11.79
5/3/2023 1:30:00 PM 9.95 49.91 0.069 7.36 8.82 11.77
5/3/2023 1:45:00 PM 9.98 49.964 0.069 7.36 8.73 11.74
5/3/2023 2:00:00 PM 10.1 50.18 0.069 7.38 10.02 11.73
5/3/2023 2:15:00 PM 10.2 50.36 0.069 7.39 9.2 11.71
5/3/2023 2:30:00 PM 10.21 50.378 0.069 7.38 9.35 11.67
5/3/2023 2:45:00 PM 10.21 50.378 0.069 7.38 9.93 11.62
5/3/2023 3:00:00 PM 10.23 50.414 0.069 7.38 9.33 11.63
5/3/2023 3:15:00 PM 10.32 50.576 0.069 7.38 9.44 11.62
5/3/2023 3:30:00 PM 10.36 50.648 0.069 7.38 9.5 11.62
5/3/2023 3:45:00 PM 10.39 50.702 0.069 7.38 9.65 11.56
5/3/2023 4:00:00 PM 10.41 50.738 0.069 7.37 10.05 11.53
5/3/2023 4:15:00 PM 10.47 50.846 0.069 7.37 10.62 11.51
5/3/2023 4:30:00 PM 10.44 50.792 0.069 7.36 10 11.48
5/3/2023 4:45:00 PM 10.49 50.882 0.069 7.35 10.43 11.44
5/3/2023 5:00:00 PM 10.48 50.864 0.069 7.34 10.32 11.38
5/3/2023 5:15:00 PM 10.59 51.062 0.069 7.34 10.72 11.35
5/3/2023 5:30:00 PM 10.59 51.062 0.069 7.34 10.31 11.33
5/3/2023 5:45:00 PM 10.65 51.17 0.069 7.33 11.33 11.3
5/3/2023 6:00:00 PM 10.71 51.278 0.069 7.33 11.58 11.29
5/3/2023 6:15:00 PM 10.75 51.35 0.07 7.34 13.3 11.28
5/3/2023 6:30:00 PM 10.76 51.368 0.07 7.32 14.7 11.25
5/3/2023 6:45:00 PM 10.75 51.35 0.07 7.3 17.54 11.2
5/3/2023 7:00:00 PM 10.69 51.242 0.07 7.3 16.5 11.18
5/3/2023 7:15:00 PM 10.61 51.098 0.07 7.29 13.87 11.16
5/3/2023 7:30:00 PM 10.53 50.954 0.07 7.27 13.32 11.14
5/3/2023 7:45:00 PM 10.46 50.828 0.07 7.25 12.85 11.11
5/3/2023 8:00:00 PM 10.4 50.72 0.07 7.25 11.07 11.08
5/3/2023 8:15:00 PM 10.35 50.63 0.07 7.22 11.87 11.04
5/3/2023 8:30:00 PM 10.29 50.522 0.07 7.2 12.07 11.02
5/3/2023 8:45:00 PM 10.23 50.414 0.071 7.2 11.19 11
5/3/2023 9:00:00 PM 10.17 50.306 0.071 7.18 12.35 10.98
5/3/2023 9:15:00 PM 10.13 50.234 0.071 7.17 12.53 10.98
5/3/2023 9:30:00 PM 10.07 50.126 0.071 7.17 11.23 10.98
5/3/2023 9:45:00 PM 10.02 50.036 0.071 7.16 11.17 10.98
5/3/2023 10:00:00 PM 9.97 49.946 0.071 7.15 12.53 10.99
5/3/2023 10:15:00 PM 9.91 49.838 0.071 7.14 12.07 11
5/3/2023 10:30:00 PM 9.85 49.73 0.071 7.14 11.62 11.01
5/3/2023 10:45:00 PM 9.8 49.64 0.071 7.13 12.13 11.03
5/3/2023 11:00:00 PM 9.76 49.568 0.071 7.12 12.04 11.03
5/3/2023 11:15:00 PM 9.71 49.478 0.071 7.12 11.52 11.05
5/3/2023 11:30:00 PM 9.66 49.388 0.071 7.12 11.01 11.06
5/3/2023 11:45:00 PM 9.61 49.298 0.071 7.11 11.24 11.07
5/4/2023 12:00:00 AM 9.56 49.208 0.071 7.12 11.44 11.08
5/4/2023 12:15:00 AM 9.51 49.118 0.071 7.11 11.88 11.1
5/4/2023 12:30:00 AM 9.45 49.01 0.071 7.11 10.75 11.12
5/4/2023 12:45:00 AM 9.39 48.902 0.071 7.1 10.88 11.13
5/4/2023 1:00:00 AM 9.33 48.794 0.071 7.11 11.41 11.16
5/4/2023 1:15:00 AM 9.27 48.686 0.071 7.09 11.29 11.17
5/4/2023 1:30:00 AM 9.22 48.596 0.071 7.1 11.12 11.19
5/4/2023 1:45:00 AM 9.17 48.506 0.071 7.1 10.86 11.21
5/4/2023 2:00:00 AM 9.12 48.416 0.072 7.1 11.1 11.23
5/4/2023 2:15:00 AM 9.08 48.344 0.071 7.1 10.9 11.24
5/4/2023 2:30:00 AM 9.03 48.254 0.072 7.09 10.75 11.26
5/4/2023 2:45:00 AM 8.97 48.146 0.072 7.1 10.62 11.27
5/4/2023 3:00:00 AM 8.92 48.056 0.072 7.1 10.5 11.29
5/4/2023 3:15:00 AM 8.87 47.966 0.072 7.08 10.33 11.3
5/4/2023 3:30:00 AM 8.82 47.876 0.071 7.1 10.46 11.32
5/4/2023 3:45:00 AM 8.77 47.786 0.072 7.08 10.09 11.34
5/4/2023 4:00:00 AM 8.71 47.678 0.072 7.08 10.89 11.36
5/4/2023 4:15:00 AM 8.67 47.606 0.071 7.09 10.94 11.38
5/4/2023 4:30:00 AM 8.63 47.534 0.072 7.07 10.75 11.39
5/4/2023 4:45:00 AM 8.58 47.444 0.072 7.06 10.32 11.41
5/4/2023 5:00:00 AM 8.53 47.354 0.072 7.06 10.56 11.43
5/4/2023 5:15:00 AM 8.48 47.264 0.072 7.05 10.86 11.44
5/4/2023 5:30:00 AM 8.43 47.174 0.072 7.05 10.1 11.46
5/4/2023 5:45:00 AM 8.38 47.084 0.072 7.05 10.16 11.48
5/4/2023 6:00:00 AM 8.34 47.012 0.072 7.05 10.84 11.49
5/4/2023 6:15:00 AM 8.29 46.922 0.072 7.05 10.84 11.51
5/4/2023 6:30:00 AM 8.26 46.868 0.072 7.05 10.3 11.53
5/4/2023 6:45:00 AM 8.23 46.814 0.072 7.05 11.76 11.56
5/4/2023 7:00:00 AM 8.21 46.778 0.072 7.06 10.72 11.59
5/4/2023 7:15:00 AM 8.19 46.742 0.072 7.06 10.13 11.61
5/4/2023 7:30:00 AM 8.19 46.742 0.072 7.08 9.62 11.66
5/4/2023 7:45:00 AM 8.19 46.742 0.072 7.09 9.69 11.72
5/4/2023 8:00:00 AM 8.21 46.778 0.072 7.1 9.25 11.78
5/4/2023 8:15:00 AM 8.23 46.814 0.072 7.11 9.53 11.83
5/4/2023 8:30:00 AM 8.25 46.85 0.072 7.14 9.16 11.86
5/4/2023 8:45:00 AM 8.29 46.922 0.072 7.15 9.01 11.92
5/4/2023 9:00:00 AM 8.34 47.012 0.072 7.17 8.9 11.96
5/4/2023 9:15:00 AM 8.4 47.12 0.072 7.18 8.28 12.01
5/4/2023 9:30:00 AM 8.45 47.21 0.072 7.21 8.81 12.02
5/4/2023 9:45:00 AM 8.49 47.282 0.072 7.23 8.1 12.04
5/4/2023 10:00:00 AM 8.53 47.354 0.072 7.23 8.32 12.03
5/4/2023 10:15:00 AM 8.57 47.426 0.072 7.24 7.95 12.04
5/4/2023 10:30:00 AM 8.65 47.57 0.072 7.25 7.37 12.05
5/4/2023 10:45:00 AM 8.77 47.786 0.072 7.27 8.02 12.07
5/4/2023 11:00:00 AM 8.9 48.02 0.072 7.28 9.09 12.09
5/4/2023 11:15:00 AM 8.98 48.164 0.072 7.29 8.07 12.08
5/4/2023 11:30:00 AM 9.13 48.434 0.072 7.32 7.67 12.08
5/4/2023 11:45:00 AM 9.47 49.046 0.071 7.32 8.17 12.07
5/4/2023 12:00:00 PM 9.57 49.226 0.071 7.33 8.13 12.04
5/4/2023 12:15:00 PM 9.63 49.334 0.071 7.33 8.1 12
5/4/2023 12:30:00 PM 9.79 49.622 0.071 7.35 7.52 11.98
5/4/2023 12:45:00 PM 9.9 49.82 0.071 7.34 7.98 11.94
5/4/2023 1:00:00 PM 10.14 50.252 0.071 7.36 7.41 11.91
5/4/2023 1:15:00 PM 10.33 50.594 0.071 7.37 8.29 11.89
5/4/2023 1:30:00 PM 10.57 51.026 0.071 7.38 7.9 11.87
5/4/2023 1:45:00 PM 10.71 51.278 0.071 7.38 7.64 11.81
5/4/2023 2:00:00 PM 10.72 51.296 0.071 7.37 7.84 11.73
5/4/2023 2:15:00 PM 11.03 51.854 0.071 7.39 7.93 11.7
5/4/2023 2:30:00 PM 11.25 52.25 0.071 7.39 8.15 11.66
5/4/2023 2:45:00 PM 11.39 52.502 0.071 7.41 8.73 11.63
5/4/2023 3:00:00 PM 11.44 52.592 0.071 7.41 9.14 11.61
5/4/2023 3:15:00 PM 11.51 52.718 0.071 7.41 8.2 11.54
5/4/2023 3:30:00 PM 11.63 52.934 0.071 7.41 8.74 11.49
5/4/2023 3:45:00 PM 11.61 52.898 0.071 7.4 9.36 11.46
5/4/2023 4:00:00 PM 11.55 52.79 0.071 7.4 10.27 11.4
5/4/2023 4:15:00 PM 11.58 52.844 0.071 7.38 8.46 11.38
5/4/2023 4:30:00 PM 11.57 52.826 0.071 7.39 9.63 11.36
5/4/2023 4:45:00 PM 11.69 53.042 0.071 7.39 8.47 11.37
5/4/2023 5:00:00 PM 11.71 53.078 0.071 7.39 8.56 11.32
5/4/2023 5:15:00 PM 11.8 53.24 0.071 7.39 9.57 11.28
5/4/2023 5:30:00 PM 11.91 53.438 0.072 7.38 8.61 11.21
5/4/2023 5:45:00 PM 11.94 53.492 0.072 7.37 8.71 11.13
5/4/2023 6:00:00 PM 11.92 53.456 0.072 7.35 8.8 11.1
5/4/2023 6:15:00 PM 11.88 53.384 0.072 7.34 8.9 11.03
5/4/2023 6:30:00 PM 11.85 53.33 0.072 7.32 9.97 10.97
5/4/2023 6:45:00 PM 11.81 53.258 0.072 7.29 11.09 10.9
5/4/2023 7:00:00 PM 11.76 53.168 0.072 7.27 10.23 10.86
5/4/2023 7:15:00 PM 11.73 53.114 0.073 7.27 11.2 10.85
5/4/2023 7:30:00 PM 11.69 53.042 0.073 7.26 12.76 10.85
5/4/2023 7:45:00 PM 11.65 52.97 0.073 7.24 13.16 10.84
5/4/2023 8:00:00 PM 11.62 52.916 0.073 7.23 13.02 10.81
5/4/2023 8:15:00 PM 11.6 52.88 0.073 7.23 13.56 10.78
5/4/2023 8:30:00 PM 11.58 52.844 0.073 7.21 12.82 10.75
5/4/2023 8:45:00 PM 11.55 52.79 0.073 7.2 13.67 10.72
5/4/2023 9:00:00 PM 11.49 52.682 0.073 7.19 14.34 10.71
5/4/2023 9:15:00 PM 11.44 52.592 0.074 7.18 14.88 10.7
5/4/2023 9:30:00 PM 11.38 52.484 0.075 7.19 13.43 10.7
5/4/2023 9:45:00 PM 11.33 52.394 0.075 7.17 14.39 10.71
5/4/2023 10:00:00 PM 11.29 52.322 0.076 7.17 15.47 10.71
5/4/2023 10:15:00 PM 11.24 52.232 0.075 7.17 15.93 10.73
5/4/2023 10:30:00 PM 11.19 52.142 0.075 7.17 15.48 10.75
5/4/2023 10:45:00 PM 11.15 52.07 0.075 7.17 15.5 10.75
5/4/2023 11:00:00 PM 11.11 51.998 0.075 7.16 16.37 10.76
5/4/2023 11:15:00 PM 11.06 51.908 0.075 7.15 16.22 10.78
5/4/2023 11:30:00 PM 11 51.8 0.074 7.14 15.44 10.8
5/4/2023 11:45:00 PM 10.95 51.71 0.074 7.13 15.81 10.81
5/5/2023 12:00:00 AM 10.91 51.638 0.075 7.13 15.08 10.82
5/5/2023 12:15:00 AM 10.86 51.548 0.075 7.13 16.09 10.83
5/5/2023 12:30:00 AM 10.81 51.458 0.075 7.12 15.24 10.84
5/5/2023 12:45:00 AM 10.77 51.386 0.075 7.13 14.7 10.85
5/5/2023 1:00:00 AM 10.72 51.296 0.076 7.13 15.89 10.86
5/5/2023 1:15:00 AM 10.67 51.206 0.077 7.13 16.25 10.88
5/5/2023 1:30:00 AM 10.62 51.116 0.077 7.12 15.42 10.9
5/5/2023 1:45:00 AM 10.57 51.026 0.077 7.12 14.99 10.91
5/5/2023 2:00:00 AM 10.52 50.936 0.077 7.13 15.75 10.93
5/5/2023 2:15:00 AM 10.46 50.828 0.078 7.13 16.32 10.95
5/5/2023 2:30:00 AM 10.41 50.738 0.078 7.13 15.94 10.96
5/5/2023 2:45:00 AM 10.36 50.648 0.078 7.13 17.72 10.97
5/5/2023 3:00:00 AM 10.31 50.558 0.078 7.13 17.48 10.98
5/5/2023 3:15:00 AM 10.26 50.468 0.078 7.13 18.16 11
5/5/2023 3:30:00 AM 10.2 50.36 0.078 7.12 16.95 11.02
5/5/2023 3:45:00 AM 10.14 50.252 0.078 7.13 19.31 11.03
5/5/2023 4:00:00 AM 10.09 50.162 0.078 7.12 17.29 11.05
5/5/2023 4:15:00 AM 10.03 50.054 0.079 7.13 18.41 11.07
5/5/2023 4:30:00 AM 9.98 49.964 0.079 7.13 19.13 11.09
5/5/2023 4:45:00 AM 9.92 49.856 0.079 7.13 17.26 11.1
5/5/2023 5:00:00 AM 9.87 49.766 0.079 7.14 17.31 11.13
5/5/2023 5:15:00 AM 9.81 49.658 0.079 7.13 16.9 11.15
5/5/2023 5:30:00 AM 9.75 49.55 0.079 7.13 16.01 11.17
5/5/2023 5:45:00 AM 9.69 49.442 0.079 7.12 15.62 11.18
5/5/2023 6:00:00 AM 9.63 49.334 0.079 7.12 15.03 11.2
5/5/2023 6:15:00 AM 9.57 49.226 0.079 7.12 14.15 11.22
5/5/2023 6:30:00 AM 9.52 49.136 0.079 7.12 14.2 11.24
5/5/2023 6:45:00 AM 9.47 49.046 0.079 7.12 14.11 11.27
5/5/2023 7:00:00 AM 9.43 48.974 0.079 7.12 13.37 11.31
5/5/2023 7:15:00 AM 9.38 48.884 0.079 7.12 13.95 11.35
5/5/2023 7:30:00 AM 9.34 48.812 0.079 7.13 13.52 11.4
5/5/2023 7:45:00 AM 9.32 48.776 0.079 7.13 12.8 11.46
5/5/2023 8:00:00 AM 9.31 48.758 0.079 7.14 12.21 11.51
5/5/2023 8:15:00 AM 9.31 48.758 0.079 7.15 12.85 11.59
5/5/2023 8:30:00 AM 9.3 48.74 0.078 7.16 11.94 11.63
5/5/2023 8:45:00 AM 9.32 48.776 0.078 7.18 11.88 11.7
5/5/2023 9:00:00 AM 9.35 48.83 0.078 7.2 11.44 11.76
5/5/2023 9:15:00 AM 9.39 48.902 0.078 7.22 11 11.82
5/5/2023 9:30:00 AM 9.49 49.082 0.078 7.23 10.59 11.88
5/5/2023 9:45:00 AM 9.56 49.208 0.077 7.25 10.45 11.93
5/5/2023 10:00:00 AM 9.64 49.352 0.077 7.26 10.07 11.95
5/5/2023 10:15:00 AM 9.71 49.478 0.077 7.27 9.43 11.97
5/5/2023 10:30:00 AM 9.88 49.784 0.077 7.3 10.38 11.99
5/5/2023 10:45:00 AM 10.03 50.054 0.077 7.31 9.25 11.99
5/5/2023 11:00:00 AM 10.26 50.468 0.077 7.31 9.65 11.98
5/5/2023 11:15:00 AM 10.51 50.918 0.077 7.33 9.19 11.96
5/5/2023 11:30:00 AM 10.77 51.386 0.077 7.35 8.87 11.93
5/5/2023 11:45:00 AM 10.85 51.53 0.077 7.36 10.04 11.89
5/5/2023 12:00:00 PM 10.81 51.458 0.077 7.37 9.13 11.84
5/5/2023 12:15:00 PM 11.02 51.836 0.077 7.36 9.36 11.86
5/5/2023 12:30:00 PM 10.97 51.746 0.077 7.38 9.92 11.81
5/5/2023 12:45:00 PM 11.03 51.854 0.077 7.39 9.12 11.81
5/5/2023 1:00:00 PM 11.13 52.034 0.077 7.4 8.88 11.81
5/5/2023 1:15:00 PM 11.26 52.268 0.077 7.41 9.46 11.8
5/5/2023 1:30:00 PM 11.42 52.556 0.077 7.42 9.88 11.78
5/5/2023 1:45:00 PM 11.51 52.718 0.077 7.42 10.32 11.78
5/5/2023 2:00:00 PM 11.62 52.916 0.076 7.43 9.08 11.76
5/5/2023 2:15:00 PM 11.55 52.79 0.076 7.42 8.32 11.7
5/5/2023 2:30:00 PM 11.63 52.934 0.076 7.43 11.33 11.68
5/5/2023 2:45:00 PM 11.7 53.06 0.077 7.42 8.69 11.63
5/5/2023 3:00:00 PM 12 53.6 0.076 7.42 8.41 11.59
5/5/2023 3:15:00 PM 12.09 53.762 0.076 7.44 8.3 11.53
5/5/2023 3:30:00 PM 12.12 53.816 0.076 7.43 8.51 11.51
5/5/2023 3:45:00 PM 12.13 53.834 0.076 7.42 8.36 11.43
5/5/2023 4:00:00 PM 12.18 53.924 0.076 7.42 8.7 11.4
5/5/2023 4:15:00 PM 12.32 54.176 0.076 7.42 8.3 11.35
5/5/2023 4:30:00 PM 12.35 54.23 0.076 7.41 8.53 11.34
5/5/2023 4:45:00 PM 12.26 54.068 0.076 7.41 8.52 11.28
5/5/2023 5:00:00 PM 12.25 54.05 0.076 7.4 8.64 11.26
5/5/2023 5:15:00 PM 12.33 54.194 0.075 7.4 9.14 11.26
5/5/2023 5:30:00 PM 12.37 54.266 0.075 7.4 8.58 11.24
5/5/2023 5:45:00 PM 12.33 54.194 0.075 7.39 8.51 11.2
5/5/2023 6:00:00 PM 12.3 54.14 0.076 7.39 8.39 11.18
5/5/2023 6:15:00 PM 12.31 54.158 0.076 7.37 8.36 11.13
5/5/2023 6:30:00 PM 12.33 54.194 0.075 7.37 8.75 11.1
5/5/2023 6:45:00 PM 12.32 54.176 0.076 7.35 8.35 11.05
5/5/2023 7:00:00 PM 12.27 54.086 0.076 7.34 8.09 11
5/5/2023 7:15:00 PM 12.21 53.978 0.076 7.33 9.78 10.94
5/5/2023 7:30:00 PM 12.17 53.906 0.076 7.3 8.8 10.9
5/5/2023 7:45:00 PM 12.13 53.834 0.076 7.28 9.64 10.84
5/5/2023 8:00:00 PM 12.09 53.762 0.076 7.27 8.11 10.79
5/5/2023 8:15:00 PM 12.04 53.672 0.075 7.25 8.64 10.75
5/5/2023 8:30:00 PM 11.99 53.582 0.076 7.23 8.78 10.72
5/5/2023 8:45:00 PM 11.93 53.474 0.076 7.23 8.54 10.71
5/5/2023 9:00:00 PM 11.86 53.348 0.076 7.21 8.38 10.69
5/5/2023 9:15:00 PM 11.79 53.222 0.076 7.2 10.1 10.68
5/5/2023 9:30:00 PM 11.72 53.096 0.076 7.19 8.92 10.67
5/5/2023 9:45:00 PM 11.65 52.97 0.076 7.19 9.36 10.68
5/5/2023 10:00:00 PM 11.58 52.844 0.076 7.18 10.11 10.68
5/5/2023 10:15:00 PM 11.5 52.7 0.076 7.18 11.16 10.69
5/5/2023 10:30:00 PM 11.42 52.556 0.076 7.17 9.43 10.7
5/5/2023 10:45:00 PM 11.34 52.412 0.076 7.17 9.07 10.73
5/5/2023 11:00:00 PM 11.26 52.268 0.076 7.16 9.62 10.75
5/5/2023 11:15:00 PM 11.17 52.106 0.076 7.16 9.18 10.77
5/5/2023 11:30:00 PM 11.08 51.944 0.076 7.15 9.18 10.81
5/5/2023 11:45:00 PM 10.98 51.764 0.077 7.16 9.61 10.82
5/6/2023 12:00:00 AM 10.88 51.584 0.077 7.15 8.51 10.85
5/6/2023 12:15:00 AM 10.78 51.404 0.076 7.15 9.1 10.88
5/6/2023 12:30:00 AM 10.68 51.224 0.077 7.15 8.82 10.92
5/6/2023 12:45:00 AM 10.57 51.026 0.077 7.14 8.79 10.95
5/6/2023 1:00:00 AM 10.47 50.846 0.077 7.14 8.64 10.98
5/6/2023 1:15:00 AM 10.37 50.666 0.077 7.14 9 11.01
5/6/2023 1:30:00 AM 10.28 50.504 0.077 7.13 8.78 11.04
5/6/2023 1:45:00 AM 10.18 50.324 0.076 7.13 9.65 11.06
5/6/2023 2:00:00 AM 10.09 50.162 0.077 7.12 8.51 11.08
5/6/2023 2:15:00 AM 10 50 0.077 7.13 8.4 11.12
5/6/2023 2:30:00 AM 9.92 49.856 0.077 7.11 9.55 11.14
5/6/2023 2:45:00 AM 9.83 49.694 0.077 7.11 8.84 11.17
5/6/2023 3:00:00 AM 9.76 49.568 0.076 7.1 8.79 11.2
5/6/2023 3:15:00 AM 9.68 49.424 0.077 7.09 8.18 11.22
5/6/2023 3:30:00 AM 9.6 49.28 0.077 7.08 8.29 11.24
5/6/2023 3:45:00 AM 9.52 49.136 0.077 7.09 8.29 11.26
5/6/2023 4:00:00 AM 9.45 49.01 0.077 7.07 8.74 11.28
5/6/2023 4:15:00 AM 9.38 48.884 0.077 7.07 8.47 11.31
5/6/2023 4:30:00 AM 9.3 48.74 0.077 7.07 8.47 11.33
5/6/2023 4:45:00 AM 9.24 48.632 0.077 7.07 8.05 11.35
5/6/2023 5:00:00 AM 9.17 48.506 0.077 7.07 8.31 11.38
5/6/2023 5:15:00 AM 9.11 48.398 0.077 7.07 8.69 11.41
5/6/2023 5:30:00 AM 9.05 48.29 0.078 7.07 7.63 11.43
5/6/2023 5:45:00 AM 8.98 48.164 0.077 7.07 8.1 11.44
5/6/2023 6:00:00 AM 8.91 48.038 0.078 7.07 8.28 11.47
5/6/2023 6:15:00 AM 8.84 47.912 0.077 7.07 8.17 11.49
5/6/2023 6:30:00 AM 8.79 47.822 0.077 7.07 8.09 11.53
5/6/2023 6:45:00 AM 8.75 47.75 0.077 7.07 9.56 11.57
5/6/2023 7:00:00 AM 8.71 47.678 0.077 7.08 8.08 11.6
5/6/2023 7:15:00 AM 8.68 47.624 0.077 7.1 7.74 11.65
5/6/2023 7:30:00 AM 8.65 47.57 0.077 7.1 7.55 11.68
5/6/2023 7:45:00 AM 8.63 47.534 0.077 7.11 8.22 11.77
5/6/2023 8:00:00 AM 8.62 47.516 0.077 7.13 7.17 11.82
5/6/2023 8:15:00 AM 8.63 47.534 0.076 7.14 7.37 11.91
5/6/2023 8:30:00 AM 8.61 47.498 0.076 7.17 7.49 11.97
5/6/2023 8:45:00 AM 8.66 47.588 0.076 7.18 7.36 12.05
5/6/2023 9:00:00 AM 8.7 47.66 0.076 7.2 7.31 12.1
5/6/2023 9:15:00 AM 8.79 47.822 0.077 7.23 6.85 12.13
5/6/2023 9:30:00 AM 8.89 48.002 0.076 7.24 6.97 12.16
5/6/2023 9:45:00 AM 8.97 48.146 0.076 7.26 6.69 12.17
5/6/2023 10:00:00 AM 9.07 48.326 0.076 7.27 6.51 12.18
5/6/2023 10:15:00 AM 9.26 48.668 0.076 7.29 6.43 12.18
5/6/2023 10:30:00 AM 9.48 49.064 0.076 7.3 6.35 12.17
5/6/2023 10:45:00 AM 9.72 49.496 0.076 7.32 6.97 12.15
5/6/2023 11:00:00 AM 9.94 49.892 0.076 7.33 6.47 12.14
5/6/2023 11:15:00 AM 10.18 50.324 0.075 7.34 6.75 12.1
5/6/2023 11:30:00 AM 10.43 50.774 0.075 7.37 6.48 12.08
5/6/2023 11:45:00 AM 10.69 51.242 0.075 7.38 6.26 12.04
5/6/2023 12:00:00 PM 10.95 51.71 0.075 7.39 6.13 11.98
5/6/2023 12:15:00 PM 11.2 52.16 0.075 7.39 5.91 11.94
5/6/2023 12:30:00 PM 11.43 52.574 0.075 7.42 5.93 11.9
5/6/2023 12:45:00 PM 11.67 53.006 0.075 7.43 6.57 11.86
5/6/2023 1:00:00 PM 11.89 53.402 0.075 7.44 6.31 11.8
5/6/2023 1:15:00 PM 12.11 53.798 0.075 7.45 6.19 11.74
5/6/2023 1:30:00 PM 12.33 54.194 0.075 7.45 6.38 11.68
5/6/2023 1:45:00 PM 12.53 54.554 0.075 7.45 6.51 11.65
5/6/2023 2:00:00 PM 12.73 54.914 0.075 7.46 6.41 11.58
5/6/2023 2:15:00 PM 12.92 55.256 0.075 7.47 6.51 11.53
5/6/2023 2:30:00 PM 13.11 55.598 0.075 7.47 6.73 11.47
5/6/2023 2:45:00 PM 13.28 55.904 0.075 7.47 6.37 11.42
5/6/2023 3:00:00 PM 13.45 56.21 0.075 7.47 6.75 11.35
5/6/2023 3:15:00 PM 13.61 56.498 0.075 7.48 6.44 11.29
5/6/2023 3:30:00 PM 13.75 56.75 0.075 7.47 6.46 11.23
5/6/2023 3:45:00 PM 13.89 57.002 0.074 7.48 6.82 11.16
5/6/2023 4:00:00 PM 14.04 57.272 0.074 7.47 6.72 11.09
5/6/2023 4:15:00 PM 14.16 57.488 0.075 7.47 6.78 11.04
5/6/2023 4:30:00 PM 14.28 57.704 0.075 7.47 7.17 10.97
5/6/2023 4:45:00 PM 14.39 57.902 0.074 7.47 7.53 10.88
5/6/2023 5:00:00 PM 14.46 58.028 0.074 7.46 6.91 10.82
5/6/2023 5:15:00 PM 14.53 58.154 0.074 7.45 7.12 10.8
5/6/2023 5:30:00 PM 14.58 58.244 0.074 7.45 7.28 10.74
5/6/2023 5:45:00 PM 14.62 58.316 0.074 7.45 7.28 10.7
5/6/2023 6:00:00 PM 14.65 58.37 0.074 7.43 6.97 10.65
5/6/2023 6:15:00 PM 14.66 58.388 0.074 7.42 7.28 10.6
5/6/2023 6:30:00 PM 14.67 58.406 0.074 7.41 6.74 10.54
5/6/2023 6:45:00 PM 14.67 58.406 0.074 7.4 7.75 10.49
5/6/2023 7:00:00 PM 14.67 58.406 0.074 7.38 7.46 10.43
5/6/2023 7:15:00 PM 14.67 58.406 0.074 7.36 7.69 10.36
5/6/2023 7:30:00 PM 14.64 58.352 0.074 7.34 7.09 10.29
5/6/2023 7:45:00 PM 14.6 58.28 0.074 7.32 8 10.25
5/6/2023 8:00:00 PM 14.55 58.19 0.074 7.29 8.63 10.19
5/6/2023 8:15:00 PM 14.5 58.1 0.075 7.28 8.77 10.13
5/6/2023 8:30:00 PM 14.43 57.974 0.075 7.25 9.71 10.09
5/6/2023 8:45:00 PM 14.35 57.83 0.075 7.23 8.49 10.04
5/6/2023 9:00:00 PM 14.26 57.668 0.075 7.21 8.08 10.02
5/6/2023 9:15:00 PM 14.17 57.506 0.075 7.2 8.48 10
5/6/2023 9:30:00 PM 14.08 57.344 0.075 7.18 8.44 10
5/6/2023 9:45:00 PM 13.98 57.164 0.075 7.18 9.47 10
5/6/2023 10:00:00 PM 13.88 56.984 0.075 7.17 8.73 10.01
5/6/2023 10:15:00 PM 13.78 56.804 0.075 7.16 10.35 10.03
5/6/2023 10:30:00 PM 13.69 56.642 0.075 7.15 9.93 10.04
5/6/2023 10:45:00 PM 13.59 56.462 0.075 7.15 8.89 10.06
5/6/2023 11:00:00 PM 13.49 56.282 0.075 7.14 9.51 10.07
5/6/2023 11:15:00 PM 13.4 56.12 0.075 7.13 9.6 10.1
5/6/2023 11:30:00 PM 13.29 55.922 0.075 7.13 9.37 10.12
5/6/2023 11:45:00 PM 13.19 55.742 0.075 7.14 9.66 10.15
5/7/2023 12:00:00 AM 13.09 55.562 0.076 7.13 9.38 10.17
5/7/2023 12:15:00 AM 12.98 55.364 0.076 7.13 8.28 10.21
5/7/2023 12:30:00 AM 12.87 55.166 0.076 7.13 8.97 10.23
5/7/2023 12:45:00 AM 12.76 54.968 0.076 7.13 8.31 10.26
5/7/2023 1:00:00 AM 12.66 54.788 0.076 7.12 8.22 10.28
5/7/2023 1:15:00 AM 12.55 54.59 0.076 7.12 8.96 10.31
5/7/2023 1:30:00 AM 12.44 54.392 0.076 7.12 8.95 10.36
5/7/2023 1:45:00 AM 12.34 54.212 0.076 7.12 8.8 10.38
5/7/2023 2:00:00 AM 12.24 54.032 0.076 7.12 8.73 10.41
5/7/2023 2:15:00 AM 12.14 53.852 0.076 7.12 8.86 10.43
5/7/2023 2:30:00 AM 12.04 53.672 0.076 7.12 9.01 10.46
5/7/2023 2:45:00 AM 11.94 53.492 0.076 7.12 8.51 10.49
5/7/2023 3:00:00 AM 11.84 53.312 0.076 7.12 8.72 10.52
5/7/2023 3:15:00 AM 11.74 53.132 0.076 7.11 8.54 10.55
5/7/2023 3:30:00 AM 11.64 52.952 0.076 7.11 8.65 10.56
5/7/2023 3:45:00 AM 11.54 52.772 0.076 7.11 8.39 10.6
5/7/2023 4:00:00 AM 11.44 52.592 0.076 7.1 8.62 10.63
5/7/2023 4:15:00 AM 11.34 52.412 0.076 7.1 8.28 10.67
5/7/2023 4:30:00 AM 11.24 52.232 0.076 7.11 7.93 10.69
5/7/2023 4:45:00 AM 11.14 52.052 0.076 7.11 10.15 10.71
5/7/2023 5:00:00 AM 11.04 51.872 0.076 7.11 8.08 10.74
5/7/2023 5:15:00 AM 10.94 51.692 0.076 7.11 8.27 10.76
5/7/2023 5:30:00 AM 10.85 51.53 0.076 7.1 8.34 10.8
5/7/2023 5:45:00 AM 10.76 51.368 0.076 7.09 8.43 10.82
5/7/2023 6:00:00 AM 10.68 51.224 0.076 7.09 8.07 10.85
5/7/2023 6:15:00 AM 10.6 51.08 0.076 7.09 8.29 10.89
5/7/2023 6:30:00 AM 10.52 50.936 0.076 7.09 8.62 10.93
5/7/2023 6:45:00 AM 10.45 50.81 0.076 7.09 8.14 10.97
5/7/2023 7:00:00 AM 10.38 50.684 0.076 7.1 8.79 11.02
5/7/2023 7:15:00 AM 10.35 50.63 0.076 7.09 7.9 11.1
5/7/2023 7:30:00 AM 10.32 50.576 0.076 7.11 9.72 11.18
5/7/2023 7:45:00 AM 10.29 50.522 0.076 7.12 8.95 11.2
5/7/2023 8:00:00 AM 10.26 50.468 0.076 7.13 7.62 11.29
5/7/2023 8:15:00 AM 10.25 50.45 0.076 7.13 8.14 11.34
5/7/2023 8:30:00 AM 10.25 50.45 0.076 7.16 7.17 11.39
5/7/2023 8:45:00 AM 10.28 50.504 0.076 7.17 6.92 11.46
5/7/2023 9:00:00 AM 10.31 50.558 0.076 7.19 6.89 11.51
5/7/2023 9:15:00 AM 10.34 50.612 0.076 7.21 6.77 11.56
5/7/2023 9:30:00 AM 10.37 50.666 0.076 7.22 7.5 11.6
5/7/2023 9:45:00 AM 10.39 50.702 0.076 7.23 6.38 11.63
5/7/2023 10:00:00 AM 10.42 50.756 0.076 7.25 6.71 11.63
5/7/2023 10:15:00 AM 10.46 50.828 0.076 7.26 6.69 11.66
5/7/2023 10:30:00 AM 10.52 50.936 0.075 7.28 6.86 11.68
5/7/2023 10:45:00 AM 10.56 51.008 0.075 7.3 6.31 11.68
5/7/2023 11:00:00 AM 10.61 51.098 0.075 7.3 6.97 11.7
5/7/2023 11:15:00 AM 10.74 51.332 0.075 7.33 7.06 11.69
5/7/2023 11:30:00 AM 10.79 51.422 0.075 7.33 6.15 11.72
5/7/2023 11:45:00 AM 10.86 51.548 0.075 7.34 6.31 11.71
5/7/2023 12:00:00 PM 11.04 51.872 0.075 7.37 5.95 11.73
5/7/2023 12:15:00 PM 11.15 52.07 0.075 7.38 6.19 11.7
5/7/2023 12:30:00 PM 11.32 52.376 0.075 7.4 6.36 11.72
5/7/2023 12:45:00 PM 11.48 52.664 0.075 7.41 6.42 11.71
5/7/2023 1:00:00 PM 11.54 52.772 0.075 7.42 6.2 11.65
5/7/2023 1:15:00 PM 11.63 52.934 0.074 7.41 6.41 11.62
5/7/2023 1:30:00 PM 11.67 53.006 0.075 7.4 6.07 11.52
5/7/2023 1:45:00 PM 11.69 53.042 0.074 7.4 6.52 11.44
5/7/2023 2:00:00 PM 11.71 53.078 0.074 7.4 6.32 11.39
5/7/2023 2:15:00 PM 11.72 53.096 0.074 7.37 6.53 11.37
5/7/2023 2:30:00 PM 11.74 53.132 0.074 7.4 6.98 11.34
5/7/2023 2:45:00 PM 11.77 53.186 0.074 7.4 6.56 11.34
5/7/2023 3:00:00 PM 11.81 53.258 0.074 7.39 6.48 11.31
5/7/2023 3:15:00 PM 11.86 53.348 0.074 7.39 7.33 11.3
5/7/2023 3:30:00 PM 11.9 53.42 0.074 7.39 6.42 11.25
5/7/2023 3:45:00 PM 11.92 53.456 0.074 7.37 6.64 11.18
5/7/2023 4:00:00 PM 11.94 53.492 0.074 7.36 6.2 11.14
5/7/2023 4:15:00 PM 11.96 53.528 0.074 7.35 6.68 11.09
5/7/2023 4:30:00 PM 12.02 53.636 0.074 7.36 6.54 11.12
5/7/2023 4:45:00 PM 12.06 53.708 0.075 7.36 7.26 11.12
5/7/2023 5:00:00 PM 12.07 53.726 0.074 7.36 6.52 11.09
5/7/2023 5:15:00 PM 12.09 53.762 0.074 7.34 6.18 11.05
5/7/2023 5:30:00 PM 12.12 53.816 0.074 7.35 5.81 11.05
5/7/2023 5:45:00 PM 12.17 53.906 0.074 7.34 6.43 11.05
5/7/2023 6:00:00 PM 12.22 53.996 0.074 7.34 6.33 11.05
5/7/2023 6:15:00 PM 12.24 54.032 0.074 7.35 6.97 11.02
5/7/2023 6:30:00 PM 12.25 54.05 0.074 7.35 6.15 10.97
5/7/2023 6:45:00 PM 12.31 54.158 0.074 7.34 6.53 10.96
5/7/2023 7:00:00 PM 12.35 54.23 0.074 7.34 6.25 10.93
5/7/2023 7:15:00 PM 12.36 54.248 0.074 7.33 6.63 10.89
5/7/2023 7:30:00 PM 12.34 54.212 0.074 7.32 6.73 10.82
5/7/2023 7:45:00 PM 12.33 54.194 0.075 7.29 7.64 10.76
5/7/2023 8:00:00 PM 12.33 54.194 0.074 7.27 6.68 10.71
5/7/2023 8:15:00 PM 12.32 54.176 0.074 7.27 7.12 10.64
5/7/2023 8:30:00 PM 12.31 54.158 0.074 7.23 6.92 10.6
5/7/2023 8:45:00 PM 12.3 54.14 0.074 7.21 6.5 10.54
5/7/2023 9:00:00 PM 12.3 54.14 0.074 7.21 6.97 10.5
5/7/2023 9:15:00 PM 12.29 54.122 0.074 7.2 7.07 10.47
5/7/2023 9:30:00 PM 12.28 54.104 0.075 7.19 9.59 10.43
5/7/2023 9:45:00 PM 12.26 54.068 0.075 7.17 7.55 10.43
5/7/2023 10:00:00 PM 12.24 54.032 0.075 7.17 7.02 10.4
5/7/2023 10:15:00 PM 12.22 53.996 0.075 7.15 7.97 10.41
5/7/2023 10:30:00 PM 12.21 53.978 0.075 7.15 7.43 10.39
5/7/2023 10:45:00 PM 12.2 53.96 0.075 7.14 7.34 10.4
5/7/2023 11:00:00 PM 12.19 53.942 0.075 7.15 7.66 10.4
5/7/2023 11:15:00 PM 12.17 53.906 0.075 7.13 7.43 10.39
5/7/2023 11:30:00 PM 12.15 53.87 0.075 7.12 7.5 10.4
5/7/2023 11:45:00 PM 12.14 53.852 0.075 7.13 7.65 10.4
5/8/2023 12:00:00 AM 12.12 53.816 0.075 7.13 6.98 10.39
5/8/2023 12:15:00 AM 12.11 53.798 0.075 7.12 7.26 10.4
5/8/2023 12:30:00 AM 12.09 53.762 0.076 7.12 7.6 10.4
5/8/2023 12:45:00 AM 12.06 53.708 0.076 7.1 7.59 10.41
5/8/2023 1:00:00 AM 12.04 53.672 0.076 7.12 7.47 10.4
5/8/2023 1:15:00 AM 12.02 53.636 0.076 7.1 7.48 10.42
5/8/2023 1:30:00 AM 11.99 53.582 0.076 7.11 7.49 10.42
5/8/2023 1:45:00 AM 11.96 53.528 0.076 7.11 7.98 10.42
5/8/2023 2:00:00 AM 11.93 53.474 0.076 7.11 7.08 10.44
5/8/2023 2:15:00 AM 11.9 53.42 0.076 7.11 7.47 10.44
5/8/2023 2:30:00 AM 11.87 53.366 0.076 7.11 7.47 10.45
5/8/2023 2:45:00 AM 11.85 53.33 0.076 7.11 7.26 10.46
5/8/2023 3:00:00 AM 11.82 53.276 0.076 7.11 7.24 10.45
5/8/2023 3:15:00 AM 11.8 53.24 0.076 7.11 6.84 10.47
5/8/2023 3:30:00 AM 11.77 53.186 0.076 7.09 7.49 10.48
5/8/2023 3:45:00 AM 11.75 53.15 0.076 7.1 7.46 10.48
5/8/2023 4:00:00 AM 11.72 53.096 0.076 7.08 7.42 10.49
5/8/2023 4:15:00 AM 11.69 53.042 0.076 7.09 7.65 10.5
5/8/2023 4:30:00 AM 11.66 52.988 0.076 7.09 8.61 10.5
5/8/2023 4:45:00 AM 11.64 52.952 0.076 7.08 7.2 10.51
5/8/2023 5:00:00 AM 11.62 52.916 0.076 7.08 7.7 10.52
5/8/2023 5:15:00 AM 11.6 52.88 0.076 7.08 6.77 10.52
5/8/2023 5:30:00 AM 11.57 52.826 0.076 7.08 8.22 10.52
5/8/2023 5:45:00 AM 11.55 52.79 0.076 7.08 7.34 10.54
5/8/2023 6:00:00 AM 11.54 52.772 0.076 7.07 7.98 10.55
5/8/2023 6:15:00 AM 11.52 52.736 0.076 7.07 7.25 10.55
5/8/2023 6:30:00 AM 11.51 52.718 0.077 7.07 8 10.57
5/8/2023 6:45:00 AM 11.5 52.7 0.077 7.08 6.88 10.59
5/8/2023 7:00:00 AM 11.5 52.7 0.076 7.08 7.85 10.62
5/8/2023 7:15:00 AM 11.5 52.7 0.076 7.09 7.3 10.64
5/8/2023 7:30:00 AM 11.49 52.682 0.076 7.09 6.89 10.66
5/8/2023 7:45:00 AM 11.49 52.682 0.076 7.1 6.71 10.7
5/8/2023 8:00:00 AM 11.5 52.7 0.076 7.12 6.46 10.75
5/8/2023 8:15:00 AM 11.52 52.736 0.076 7.14 7.09 10.82
5/8/2023 8:30:00 AM 11.56 52.808 0.076 7.16 6.47 10.9
5/8/2023 8:45:00 AM 11.59 52.862 0.076 7.19 6.59 10.97
5/8/2023 9:00:00 AM 11.64 52.952 0.076 7.2 6.08 11.05
5/8/2023 9:15:00 AM 11.73 53.114 0.076 7.23 6.32 11.1
5/8/2023 9:30:00 AM 11.82 53.276 0.076 7.26 7.37 11.17
5/8/2023 9:45:00 AM 11.92 53.456 0.076 7.28 6.53 11.21
5/8/2023 10:00:00 AM 11.94 53.492 0.076 7.3 6.64 11.24
5/8/2023 10:15:00 AM 12.02 53.636 0.076 7.32 6.11 11.25
5/8/2023 10:30:00 AM 12.08 53.744 0.076 7.33 5.98 11.26
5/8/2023 10:45:00 AM 12.13 53.834 0.076 7.34 6.06 11.29
5/8/2023 11:00:00 AM 12.25 54.05 0.076 7.36 5.77 11.3
5/8/2023 11:15:00 AM 12.45 54.41 0.076 7.39 5.85 11.32
5/8/2023 11:30:00 AM 12.46 54.428 0.076 7.4 5.77 11.29
5/8/2023 11:45:00 AM 12.75 54.95 0.076 7.41 5.77 11.32
5/8/2023 12:00:00 PM 12.91 55.238 0.075 7.42 6.02 11.29
5/8/2023 12:15:00 PM 13.12 55.616 0.075 7.45 5.97 11.27
5/8/2023 12:30:00 PM 13.36 56.048 0.075 7.44 5.63 11.23
5/8/2023 12:45:00 PM 13.64 56.552 0.075 7.46 6.01 11.19
5/8/2023 1:00:00 PM 13.82 56.876 0.075 7.48 6.05 11.19
5/8/2023 1:15:00 PM 14.1 57.38 0.075 7.49 6.67 11.12
5/8/2023 1:30:00 PM 14.18 57.524 0.075 7.49 5.92 11.09
5/8/2023 1:45:00 PM 14.32 57.776 0.075 7.5 6.11 11.07
5/8/2023 2:00:00 PM 14.39 57.902 0.075 7.5 6.25 11.01
5/8/2023 2:15:00 PM 14.7 58.46 0.075 7.52 6.14 10.99
5/8/2023 2:30:00 PM 14.82 58.676 0.074 7.53 7.24 10.93
5/8/2023 2:45:00 PM 14.84 58.712 0.074 7.53 6.23 10.93
5/8/2023 3:00:00 PM 14.93 58.874 0.074 7.53 6.17 10.88
5/8/2023 3:15:00 PM 14.99 58.982 0.074 7.52 7.57 10.81
5/8/2023 3:30:00 PM 15 59 0.074 7.52 6.89 10.77
5/8/2023 3:45:00 PM 15.1 59.18 0.074 7.51 6.47 10.76
5/8/2023 4:00:00 PM 15.1 59.18 0.075 7.5 6.41 10.67
5/8/2023 4:15:00 PM 15.07 59.126 0.074 7.49 6.9 10.68
5/8/2023 4:30:00 PM 15.09 59.162 0.074 7.5 5.89 10.64
5/8/2023 4:45:00 PM 15.25 59.45 0.074 7.49 6.14 10.62
5/8/2023 5:00:00 PM 15.35 59.63 0.074 7.48 6.48 10.53
5/8/2023 5:15:00 PM 15.46 59.828 0.074 7.48 6.44 10.43
5/8/2023 5:30:00 PM 15.53 59.954 0.074 7.45 6.63 10.33
5/8/2023 5:45:00 PM 15.61 60.098 0.074 7.44 7.43 10.28
5/8/2023 6:00:00 PM 15.67 60.206 0.074 7.4 7.01 10.19
5/8/2023 6:15:00 PM 15.68 60.224 0.074 7.39 7.14 10.16
5/8/2023 6:30:00 PM 15.65 60.17 0.074 7.37 6.11 10.14
5/8/2023 6:45:00 PM 15.59 60.062 0.074 7.37 6.46 10.11
5/8/2023 7:00:00 PM 15.53 59.954 0.074 7.35 6.91 10.09
5/8/2023 7:15:00 PM 15.47 59.846 0.074 7.34 8.27 10.04
5/8/2023 7:30:00 PM 15.42 59.756 0.074 7.32 7.7 10
5/8/2023 7:45:00 PM 15.35 59.63 0.074 7.3 6.98 9.96
5/8/2023 8:00:00 PM 15.26 59.468 0.074 7.28 6.71 9.91
5/8/2023 8:15:00 PM 15.15 59.27 0.074 7.26 7.36 9.89
5/8/2023 8:30:00 PM 15.03 59.054 0.075 7.23 8.16 9.84
5/8/2023 8:45:00 PM 14.92 58.856 0.075 7.21 10.39 9.82
5/8/2023 9:00:00 PM 14.81 58.658 0.075 7.19 8.19 9.81
5/8/2023 9:15:00 PM 14.72 58.496 0.075 7.19 8.08 9.78
5/8/2023 9:30:00 PM 14.64 58.352 0.075 7.17 8.17 9.78
5/8/2023 9:45:00 PM 14.56 58.208 0.075 7.16 10.29 9.74
5/8/2023 10:00:00 PM 14.48 58.064 0.076 7.14 14.44 9.78
5/8/2023 10:15:00 PM 14.4 57.92 0.076 7.14 14.03 9.77
5/8/2023 10:30:00 PM 14.32 57.776 0.076 7.13 12.08 9.79
5/8/2023 10:45:00 PM 14.24 57.632 0.076 7.12 12.3 9.81
5/8/2023 11:00:00 PM 14.15 57.47 0.076 7.12 12.4 9.78
5/8/2023 11:15:00 PM 14.08 57.344 0.076 7.11 11.42 9.83
5/8/2023 11:30:00 PM 14.01 57.218 0.076 7.1 10 9.85
5/8/2023 11:45:00 PM 13.94 57.092 0.076 7.11 8.67 9.87
5/9/2023 12:00:00 AM 13.87 56.966 0.076 7.09 7.87 9.88
5/9/2023 12:15:00 AM 13.8 56.84 0.076 7.1 8.22 9.91
5/9/2023 12:30:00 AM 13.73 56.714 0.076 7.1 9.38 9.92
5/9/2023 12:45:00 AM 13.66 56.588 0.076 7.1 8.83 9.95
5/9/2023 1:00:00 AM 13.59 56.462 0.076 7.1 9.47 9.96
5/9/2023 1:15:00 AM 13.53 56.354 0.076 7.1 8.61 9.98
5/9/2023 1:30:00 AM 13.46 56.228 0.076 7.09 8.56 9.99
5/9/2023 1:45:00 AM 13.4 56.12 0.076 7.09 7.9 10.01
5/9/2023 2:00:00 AM 13.35 56.03 0.076 7.1 7.9 10.02
5/9/2023 2:15:00 AM 13.29 55.922 0.076 7.09 7.43 10.05
5/9/2023 2:30:00 AM 13.24 55.832 0.076 7.09 9.06 10.05
5/9/2023 2:45:00 AM 13.19 55.742 0.076 7.09 7.85 10.07
5/9/2023 3:00:00 AM 13.14 55.652 0.076 7.08 7.63 10.1
5/9/2023 3:15:00 AM 13.09 55.562 0.076 7.09 7.3 10.11
5/9/2023 3:30:00 AM 13.05 55.49 0.076 7.09 7.45 10.1
5/9/2023 3:45:00 AM 13 55.4 0.076 7.09 7.14 10.13
5/9/2023 4:00:00 AM 12.95 55.31 0.076 7.1 7.92 10.15
5/9/2023 4:15:00 AM 12.91 55.238 0.076 7.09 7.41 10.15
5/9/2023 4:30:00 AM 12.86 55.148 0.076 7.09 7.71 10.16
5/9/2023 4:45:00 AM 12.81 55.058 0.077 7.09 7.63 10.17
5/9/2023 5:00:00 AM 12.76 54.968 0.076 7.1 7.84 10.19
5/9/2023 5:15:00 AM 12.71 54.878 0.077 7.09 7.43 10.21
5/9/2023 5:30:00 AM 12.66 54.788 0.077 7.09 7.31 10.23
5/9/2023 5:45:00 AM 12.61 54.698 0.076 7.1 9.22 10.25
5/9/2023 6:00:00 AM 12.55 54.59 0.077 7.1 7.98 10.23
5/9/2023 6:15:00 AM 12.5 54.5 0.077 7.08 8.98 10.27
5/9/2023 6:30:00 AM 12.46 54.428 0.077 7.1 7.5 10.3
5/9/2023 6:45:00 AM 12.42 54.356 0.076 7.1 7.16 10.35
5/9/2023 7:00:00 AM 12.38 54.284 0.077 7.12 7.69 10.37
5/9/2023 7:15:00 AM 12.34 54.212 0.077 7.12 6.9 10.45
5/9/2023 7:30:00 AM 12.31 54.158 0.076 7.12 7.7 10.5
5/9/2023 7:45:00 AM 12.29 54.122 0.077 7.14 7.1 10.56
5/9/2023 8:00:00 AM 12.26 54.068 0.076 7.15 6.92 10.64
5/9/2023 8:15:00 AM 12.25 54.05 0.077 7.17 6.56 10.7
5/9/2023 8:30:00 AM 12.24 54.032 0.076 7.19 6.47 10.77
5/9/2023 8:45:00 AM 12.25 54.05 0.076 7.21 6.42 10.81
5/9/2023 9:00:00 AM 12.26 54.068 0.076 7.22 6.27 10.89
5/9/2023 9:15:00 AM 12.31 54.158 0.076 7.25 6.78 10.99
5/9/2023 9:30:00 AM 12.39 54.302 0.076 7.27 6.93 11.05
5/9/2023 9:45:00 AM 12.42 54.356 0.076 7.29 6.2 11.09
5/9/2023 10:00:00 AM 12.54 54.572 0.076 7.32 5.65 11.14
5/9/2023 10:15:00 AM 12.57 54.626 0.076 7.32 6.07 11.17
5/9/2023 10:30:00 AM 12.62 54.716 0.076 7.35 6.17 11.19
5/9/2023 10:45:00 AM 12.71 54.878 0.076 7.37 6.53 11.2
5/9/2023 11:00:00 AM 12.93 55.274 0.076 7.39 5.88 11.23
5/9/2023 11:15:00 AM 13.09 55.562 0.075 7.42 6.18 11.24
5/9/2023 11:30:00 AM 13.34 56.012 0.076 7.43 5.8 11.24
5/9/2023 11:45:00 AM 13.56 56.408 0.075 7.45 6.4 11.22
5/9/2023 12:00:00 PM 13.76 56.768 0.075 7.45 6.01 11.22
5/9/2023 12:15:00 PM 13.94 57.092 0.075 7.47 5.72 11.2
5/9/2023 12:30:00 PM 14.15 57.47 0.075 7.48 5.73 11.15
5/9/2023 12:45:00 PM 14.37 57.866 0.075 7.49 6.55 11.12
5/9/2023 1:00:00 PM 14.63 58.334 0.075 7.5 6.49 11.08
5/9/2023 1:15:00 PM 14.91 58.838 0.075 7.53 5.95 11.04
5/9/2023 1:30:00 PM 14.93 58.874 0.075 7.53 5.88 10.97
5/9/2023 1:45:00 PM 15.17 59.306 0.075 7.53 5.54 10.95
5/9/2023 2:00:00 PM 15.34 59.612 0.075 7.54 6.12 10.91
5/9/2023 2:15:00 PM 15.46 59.828 0.075 7.56 6.01 10.88
5/9/2023 2:30:00 PM 15.58 60.044 0.075 7.55 6.61 10.83
5/9/2023 2:45:00 PM 15.7 60.26 0.075 7.55 9.95 10.82
5/9/2023 3:00:00 PM 15.84 60.512 0.075 7.55 6.98 10.77
5/9/2023 3:15:00 PM 16 60.8 0.075 7.55 6.09 10.69
5/9/2023 3:30:00 PM 16.13 61.034 0.075 7.55 6.61 10.64
5/9/2023 3:45:00 PM 16.24 61.232 0.075 7.55 6.09 10.61
5/9/2023 4:00:00 PM 16.33 61.394 0.075 7.54 6.11 10.54
5/9/2023 4:15:00 PM 16.39 61.502 0.075 7.54 5.92 10.48
5/9/2023 4:30:00 PM 16.44 61.592 0.075 7.53 7.91 10.44
5/9/2023 4:45:00 PM 16.48 61.664 0.075 7.52 6.56 10.41
5/9/2023 5:00:00 PM 16.49 61.682 0.074 7.51 6.85 10.35
5/9/2023 5:15:00 PM 16.5 61.7 0.075 7.5 6.89 10.3
5/9/2023 5:30:00 PM 16.5 61.7 0.075 7.49 6.39 10.22
5/9/2023 5:45:00 PM 16.47 61.646 0.074 7.48 6.32 10.22
5/9/2023 6:00:00 PM 16.45 61.61 0.074 7.46 6.26 10.18
5/9/2023 6:15:00 PM 16.42 61.556 0.075 7.45 6.31 10.12
5/9/2023 6:30:00 PM 16.38 61.484 0.074 7.44 6.15 10.09
5/9/2023 6:45:00 PM 16.31 61.358 0.075 7.42 6.65 10.05
5/9/2023 7:00:00 PM 16.23 61.214 0.074 7.4 6.66 9.99
5/9/2023 7:15:00 PM 16.17 61.106 0.074 7.38 7.23 9.94
5/9/2023 7:30:00 PM 16.09 60.962 0.074 7.36 6.52 9.86
5/9/2023 7:45:00 PM 16 60.8 0.075 7.33 7.3 9.83
5/9/2023 8:00:00 PM 15.92 60.656 0.075 7.31 6.56 9.77
5/9/2023 8:15:00 PM 15.82 60.476 0.075 7.29 7.47 9.73
5/9/2023 8:30:00 PM 15.7 60.26 0.075 7.27 6.67 9.68
5/9/2023 8:45:00 PM 15.58 60.044 0.075 7.24 7.32 9.6
5/9/2023 9:00:00 PM 15.46 59.828 0.075 7.23 7.57 9.61
5/9/2023 9:15:00 PM 15.34 59.612 0.075 7.21 6.93 9.61
5/9/2023 9:30:00 PM 15.21 59.378 0.075 7.19 7.57 9.5
5/9/2023 9:45:00 PM 15.08 59.144 0.075 7.17 7.02 9.64
5/9/2023 10:00:00 PM 14.95 58.91 0.075 7.16 7.93 9.64
5/9/2023 10:15:00 PM 14.82 58.676 0.075 7.16 7.62 9.65
5/9/2023 10:30:00 PM 14.69 58.442 0.075 7.15 10.21 9.64
5/9/2023 10:45:00 PM 14.57 58.226 0.076 7.15 9.75 9.7
5/9/2023 11:00:00 PM 14.46 58.028 0.076 7.14 6.6 9.73
5/9/2023 11:15:00 PM 14.35 57.83 0.076 7.14 6.91 9.76
5/9/2023 11:30:00 PM 14.22 57.596 0.076 7.13 7.94 9.78
5/9/2023 11:45:00 PM 14.1 57.38 0.076 7.13 6.41 9.82
5/10/2023 12:00:00 AM 13.97 57.146 0.077 7.12 7.51 9.84
5/10/2023 12:15:00 AM 13.85 56.93 0.076 7.12 7.92 9.86
5/10/2023 12:30:00 AM 13.72 56.696 0.076 7.12 6.59 9.92
5/10/2023 12:45:00 AM 13.59 56.462 0.077 7.12 6.6 9.94
5/10/2023 1:00:00 AM 13.47 56.246 0.077 7.11 8.35 9.99
5/10/2023 1:15:00 AM 13.34 56.012 0.077 7.12 6.8 10.02
5/10/2023 1:30:00 AM 13.22 55.796 0.077 7.11 6.73 10.06
5/10/2023 1:45:00 AM 13.08 55.544 0.077 7.11 6.3 10.07
5/10/2023 2:00:00 AM 12.96 55.328 0.077 7.1 6.39 10.14
5/10/2023 2:15:00 AM 12.84 55.112 0.077 7.09 6.71 10.14
5/10/2023 2:30:00 AM 12.73 54.914 0.077 7.08 6.19 10.2
5/10/2023 2:45:00 AM 12.62 54.716 0.077 7.07 6.89 10.22
5/10/2023 3:00:00 AM 12.5 54.5 0.077 7.06 6.6 10.25
5/10/2023 3:15:00 AM 12.4 54.32 0.077 7.05 6.98 10.28
5/10/2023 3:30:00 AM 12.29 54.122 0.077 7.04 7.19 10.31
5/10/2023 3:45:00 AM 12.18 53.924 0.077 7.04 6.35 10.36
5/10/2023 4:00:00 AM 12.07 53.726 0.077 7.03 6.63 10.38
5/10/2023 4:15:00 AM 11.97 53.546 0.077 7.03 6.36 10.42
5/10/2023 4:30:00 AM 11.87 53.366 0.077 7.02 6.2 10.44
5/10/2023 4:45:00 AM 11.76 53.168 0.077 7.02 5.96 10.49
5/10/2023 5:00:00 AM 11.65 52.97 0.077 7.02 6.03 10.52
5/10/2023 5:15:00 AM 11.54 52.772 0.077 7.02 6.38 10.55
5/10/2023 5:30:00 AM 11.43 52.574 0.077 7.01 6.69 10.57
5/10/2023 5:45:00 AM 11.33 52.394 0.077 7.01 6.45 10.62
5/10/2023 6:00:00 AM 11.23 52.214 0.077 7.01 6.26 10.65
5/10/2023 6:15:00 AM 11.12 52.016 0.077 7.01 6.69 10.67
5/10/2023 6:30:00 AM 11.02 51.836 0.077 7.02 6.39 10.71
5/10/2023 6:45:00 AM 10.93 51.674 0.077 7.02 6.2 10.74
5/10/2023 7:00:00 AM 10.85 51.53 0.077 7.04 6.26 10.85
5/10/2023 7:15:00 AM 10.78 51.404 0.077 7.05 5.69 10.95
5/10/2023 7:30:00 AM 10.71 51.278 0.077 7.06 6.07 11.02
5/10/2023 7:45:00 AM 10.66 51.188 0.077 7.08 5.39 11.06
5/10/2023 8:00:00 AM 10.61 51.098 0.077 7.1 5.8 11.18
5/10/2023 8:15:00 AM 10.59 51.062 0.077 7.12 6.06 11.24
5/10/2023 8:30:00 AM 10.59 51.062 0.077 7.15 5.61 11.3
5/10/2023 8:45:00 AM 10.59 51.062 0.077 7.18 5.1 11.37
5/10/2023 9:00:00 AM 10.62 51.116 0.076 7.2 5.25 11.46
5/10/2023 9:15:00 AM 10.68 51.224 0.076 7.22 5.43 11.51
5/10/2023 9:30:00 AM 10.76 51.368 0.076 7.25 5.45 11.58
5/10/2023 9:45:00 AM 10.86 51.548 0.076 7.28 5.4 11.58
5/10/2023 10:00:00 AM 10.99 51.782 0.076 7.3 5.62 11.66
5/10/2023 10:15:00 AM 11.13 52.034 0.076 7.33 5.36 11.69
5/10/2023 10:30:00 AM 11.3 52.34 0.076 7.35 5.04 11.67
5/10/2023 10:45:00 AM 11.49 52.682 0.076 7.37 5.14 11.66
5/10/2023 11:00:00 AM 11.69 53.042 0.076 7.4 5.38 11.69
5/10/2023 11:15:00 AM 11.92 53.456 0.076 7.42 5.5 11.68
5/10/2023 11:30:00 AM 12.16 53.888 0.076 7.43 5.08 11.64
5/10/2023 11:45:00 AM 12.41 54.338 0.076 7.46 4.79 11.64
5/10/2023 12:00:00 PM 12.67 54.806 0.076 7.48 4.89 11.59
5/10/2023 12:15:00 PM 12.94 55.292 0.076 7.5 4.79 11.58
5/10/2023 12:30:00 PM 13.2 55.76 0.076 7.51 5.38 11.51
5/10/2023 12:45:00 PM 13.46 56.228 0.076 7.53 4.84 11.41
5/10/2023 1:00:00 PM 13.71 56.678 0.076 7.55 4.97 11.38
5/10/2023 1:15:00 PM 13.96 57.128 0.076 7.55 4.77 11.25
5/10/2023 1:30:00 PM 14.2 57.56 0.076 7.57 4.9 11.28
5/10/2023 1:45:00 PM 14.42 57.956 0.075 7.58 4.8 11.26
5/10/2023 2:00:00 PM 14.63 58.334 0.075 7.59 4.85 11.23
5/10/2023 2:15:00 PM 14.83 58.694 0.075 7.6 4.88 11.18
5/10/2023 2:30:00 PM 15 59 0.075 7.61 4.93 11.12
5/10/2023 2:45:00 PM 15.16 59.288 0.075 7.61 5.56 11.06
5/10/2023 3:00:00 PM 15.3 59.54 0.075 7.62 4.96 10.97
5/10/2023 3:15:00 PM 15.43 59.774 0.075 7.62 5.12 10.85
5/10/2023 3:30:00 PM 15.53 59.954 0.075 7.62 6.59 10.89
5/10/2023 3:45:00 PM 15.64 60.152 0.076 7.61 5.42 10.84
5/10/2023 4:00:00 PM 15.71 60.278 0.075 7.62 5.66 10.82
5/10/2023 4:15:00 PM 15.79 60.422 0.075 7.61 4.93 10.71
5/10/2023 4:30:00 PM 15.86 60.548 0.075 7.6 5.23 10.71
5/10/2023 4:45:00 PM 15.91 60.638 0.075 7.6 5.3 10.64
5/10/2023 5:00:00 PM 15.96 60.728 0.075 7.59 5.96 10.56
5/10/2023 5:15:00 PM 16 60.8 0.075 7.57 5.37 10.5
5/10/2023 5:30:00 PM 16.02 60.836 0.075 7.56 5.35 10.42
5/10/2023 5:45:00 PM 16.02 60.836 0.075 7.53 5.86 10.35
5/10/2023 6:00:00 PM 16.02 60.836 0.076 7.51 6.56 10.29
5/10/2023 6:15:00 PM 16 60.8 0.075 7.49 6.04 10.22
5/10/2023 6:30:00 PM 15.98 60.764 0.075 7.47 5.95 10.12
5/10/2023 6:45:00 PM 15.95 60.71 0.075 7.45 5.53 10.12
5/10/2023 7:00:00 PM 15.92 60.656 0.075 7.44 5.71 10.05
5/10/2023 7:15:00 PM 15.89 60.602 0.075 7.41 5.88 10.03
5/10/2023 7:30:00 PM 15.84 60.512 0.075 7.39 5.24 9.95
5/10/2023 7:45:00 PM 15.78 60.404 0.075 7.36 5.79 9.86
5/10/2023 8:00:00 PM 15.72 60.296 0.075 7.34 6.11 9.85
5/10/2023 8:15:00 PM 15.66 60.188 0.076 7.32 5.87 9.75
5/10/2023 8:30:00 PM 15.59 60.062 0.076 7.3 6.15 9.74
5/10/2023 8:45:00 PM 15.52 59.936 0.076 7.28 6.39 9.67
5/10/2023 9:00:00 PM 15.44 59.792 0.076 7.26 5.65 9.42
5/10/2023 9:15:00 PM 15.34 59.612 0.076 7.24 5.87 9.53
5/10/2023 9:30:00 PM 15.24 59.432 0.076 7.22 6.11 9.58
5/10/2023 9:45:00 PM 15.13 59.234 0.076 7.21 6.03 9.52
5/10/2023 10:00:00 PM 15.02 59.036 0.076 7.2 6.75 9.5
5/10/2023 10:15:00 PM 14.92 58.856 0.076 7.19 6.47 9.5
5/10/2023 10:30:00 PM 14.82 58.676 0.076 7.19 6.65 9.4
5/10/2023 10:45:00 PM 14.71 58.478 0.077 7.18 6.54 9.58
5/10/2023 11:00:00 PM 14.6 58.28 0.077 7.17 6.51 9.65
5/10/2023 11:15:00 PM 14.5 58.1 0.077 7.16 6.56 9.42
5/10/2023 11:30:00 PM 14.39 57.902 0.077 7.15 7.13 9.6
5/10/2023 11:45:00 PM 14.28 57.704 0.077 7.15 6.68 9.68
5/11/2023 12:00:00 AM 14.16 57.488 0.077 7.15 6.79 9.68
5/11/2023 12:15:00 AM 14.06 57.308 0.078 7.15 6.01 9.76
5/11/2023 12:30:00 AM 13.95 57.11 0.077 7.15 6.5 9.8
5/11/2023 12:45:00 AM 13.84 56.912 0.077 7.15 6.3 9.85
5/11/2023 1:00:00 AM 13.73 56.714 0.077 7.14 8.49 9.82
5/11/2023 1:15:00 AM 13.63 56.534 0.078 7.14 6.71 9.9
5/11/2023 1:30:00 AM 13.52 56.336 0.078 7.14 5.71 9.95
5/11/2023 1:45:00 AM 13.4 56.12 0.078 7.14 5.69 9.86
5/11/2023 2:00:00 AM 13.29 55.922 0.078 7.13 5.89 9.98
5/11/2023 2:15:00 AM 13.18 55.724 0.078 7.13 6.1 10
5/11/2023 2:30:00 AM 13.06 55.508 0.078 7.13 6.75 10.04
5/11/2023 2:45:00 AM 12.95 55.31 0.078 7.13 6.05 10.09
5/11/2023 3:00:00 AM 12.85 55.13 0.078 7.13 6.26 10.09
5/11/2023 3:15:00 AM 12.75 54.95 0.078 7.13 5.9 10.11
5/11/2023 3:30:00 AM 12.65 54.77 0.078 7.13 6.53 10.15
5/11/2023 3:45:00 AM 12.54 54.572 0.078 7.12 5.92 10.22
5/11/2023 4:00:00 AM 12.44 54.392 0.078 7.12 6.91 10.26
5/11/2023 4:15:00 AM 12.34 54.212 0.078 7.12 6.07 10.27
5/11/2023 4:30:00 AM 12.24 54.032 0.078 7.12 6.34 10.31
5/11/2023 4:45:00 AM 12.15 53.87 0.078 7.12 6.58 10.3
5/11/2023 5:00:00 AM 12.06 53.708 0.078 7.11 6.48 10.34
5/11/2023 5:15:00 AM 11.97 53.546 0.078 7.11 6.86 10.39
5/11/2023 5:30:00 AM 11.88 53.384 0.078 7.11 6.25 10.42
5/11/2023 5:45:00 AM 11.78 53.204 0.078 7.08 7.38 10.39
5/11/2023 6:00:00 AM 11.69 53.042 0.078 7.07 5.53 10.46
5/11/2023 6:15:00 AM 11.61 52.898 0.078 7.08 6.11 10.5
5/11/2023 6:30:00 AM 11.53 52.754 0.078 7.07 7.32 10.46
5/11/2023 6:45:00 AM 11.46 52.628 0.078 7.09 5.22 10.52
5/11/2023 7:00:00 AM 11.39 52.502 0.078 7.09 5.52 10.66
5/11/2023 7:15:00 AM 11.34 52.412 0.078 7.1 5.6 10.67
5/11/2023 7:30:00 AM 11.29 52.322 0.079 7.1 5.3 10.78
5/11/2023 7:45:00 AM 11.26 52.268 0.078 7.13 5.14 10.92
5/11/2023 8:00:00 AM 11.23 52.214 0.078 7.14 6.12 10.94
5/11/2023 8:15:00 AM 11.22 52.196 0.078 7.16 5.28 11.09
5/11/2023 8:30:00 AM 11.23 52.214 0.078 7.19 5.17 11.16
5/11/2023 8:45:00 AM 11.25 52.25 0.078 7.21 4.96 11.25
5/11/2023 9:00:00 AM 11.29 52.322 0.078 7.23 4.93 11.27
5/11/2023 9:15:00 AM 11.36 52.448 0.079 7.25 4.92 11.4
5/11/2023 9:30:00 AM 11.44 52.592 0.079 7.29 5.68 11.42
5/11/2023 9:45:00 AM 11.55 52.79 0.079 7.31 4.66 11.38
5/11/2023 10:00:00 AM 11.67 53.006 0.078 7.32 4.99 11.53
5/11/2023 10:15:00 AM 11.82 53.276 0.078 7.36 4.88 11.51
5/11/2023 10:30:00 AM 12 53.6 0.078 7.38 4.97 11.55
5/11/2023 10:45:00 AM 12.2 53.96 0.078 7.4 4.54 11.54
5/11/2023 11:00:00 AM 12.41 54.338 0.078 7.43 4.51 11.52
5/11/2023 11:15:00 AM 12.66 54.788 0.077 7.45 4.78 11.51
5/11/2023 11:30:00 AM 12.91 55.238 0.077 7.48 4.88 11.5
5/11/2023 11:45:00 AM 13.19 55.742 0.077 7.48 4.49 11.49
5/11/2023 12:00:00 PM 13.46 56.228 0.077 7.5 4.53 11.38
5/11/2023 12:15:00 PM 13.74 56.732 0.077 7.53 4.84 11.39
5/11/2023 12:30:00 PM 13.99 57.182 0.077 7.54 4.66 11.28
5/11/2023 12:45:00 PM 14.3 57.74 0.077 7.56 4.32 11.27
5/11/2023 1:00:00 PM 14.61 58.298 0.077 7.57 5.24 11.26
5/11/2023 1:15:00 PM 14.92 58.856 0.077 7.58 4.66 11.16
5/11/2023 1:30:00 PM 15.18 59.324 0.076 7.6 4.58 11.1
5/11/2023 1:45:00 PM 15.46 59.828 0.076 7.61 4.72 11.04
5/11/2023 2:00:00 PM 15.69 60.242 0.076 7.62 5.27 10.99
5/11/2023 2:15:00 PM 15.9 60.62 0.076 7.62 5.08 10.94
5/11/2023 2:30:00 PM 16.13 61.034 0.076 7.62 6.08 10.91
5/11/2023 2:45:00 PM 16.33 61.394 0.076 7.64 4.79 10.81
5/11/2023 3:00:00 PM 16.52 61.736 0.076 7.64 4.62 10.75
5/11/2023 3:15:00 PM 16.69 62.042 0.076 7.64 4.47 10.66
5/11/2023 3:30:00 PM 16.82 62.276 0.076 7.64 7.68 10.64
5/11/2023 3:45:00 PM 16.95 62.51 0.076 7.64 5.42 10.57
5/11/2023 4:00:00 PM 17.05 62.69 0.076 7.63 5.28 10.42
5/11/2023 4:15:00 PM 17.14 62.852 0.076 7.64 5.04 10.43
5/11/2023 4:30:00 PM 17.16 62.888 0.076 7.62 4.92 10.35
5/11/2023 4:45:00 PM 17.16 62.888 0.076 7.59 4.88 10.3
5/11/2023 5:00:00 PM 17.14 62.852 0.076 7.56 4.69 10.17
5/11/2023 5:15:00 PM 17.14 62.852 0.076 7.54 4.77 10.1
5/11/2023 5:30:00 PM 17.12 62.816 0.076 7.52 5.03 10.06
5/11/2023 5:45:00 PM 17.1 62.78 0.076 7.51 5.07 10.01
5/11/2023 6:00:00 PM 17.07 62.726 0.076 7.49 5.53 9.95
5/11/2023 6:15:00 PM 17.01 62.618 0.076 7.48 5.56 9.92
5/11/2023 6:30:00 PM 16.96 62.528 0.076 7.46 6.05 9.88
5/11/2023 6:45:00 PM 16.91 62.438 0.076 7.43 5.73 9.82
5/11/2023 7:00:00 PM 16.87 62.366 0.077 7.4 5.9 9.7
5/11/2023 7:15:00 PM 16.85 62.33 0.077 7.37 5.58 9.64
5/11/2023 7:30:00 PM 16.83 62.294 0.077 7.35 5.35 9.61
5/11/2023 7:45:00 PM 16.81 62.258 0.077 7.33 5.14 9.56
5/11/2023 8:00:00 PM 16.75 62.15 0.077 7.3 5.01 9.33
5/11/2023 8:15:00 PM 16.68 62.024 0.077 7.28 5.29 9.41
5/11/2023 8:30:00 PM 16.61 61.898 0.077 7.26 6.15 9.33
5/11/2023 8:45:00 PM 16.52 61.736 0.077 7.24 6.03 9.36
5/11/2023 9:00:00 PM 16.43 61.574 0.077 7.22 6.69 9.23
5/11/2023 9:15:00 PM 16.35 61.43 0.077 7.21 6.52 9.23
5/11/2023 9:30:00 PM 16.27 61.286 0.078 7.19 7.09 9.27
5/11/2023 9:45:00 PM 16.18 61.124 0.078 7.19 6.51 9.21
5/11/2023 10:00:00 PM 16.09 60.962 0.078 7.17 7.15 9.3
5/11/2023 10:15:00 PM 16 60.8 0.078 7.17 7.88 9.29
5/11/2023 10:30:00 PM 15.89 60.602 0.079 7.16 7.62 9.33
5/11/2023 10:45:00 PM 15.79 60.422 0.078 7.16 7.35 9.28
5/11/2023 11:00:00 PM 15.69 60.242 0.078 7.15 7.52 9.29
5/11/2023 11:15:00 PM 15.59 60.062 0.078 7.15 6.65 9.38
5/11/2023 11:30:00 PM 15.48 59.864 0.078 7.14 6.87 9.39
5/11/2023 11:45:00 PM 15.38 59.684 0.079 7.14 7.85 9.23
5/12/2023 12:00:00 AM 15.27 59.486 0.079 7.13 8.38 9.4
5/12/2023 12:15:00 AM 15.18 59.324 0.079 7.13 7.9 9.31
5/12/2023 12:30:00 AM 15.09 59.162 0.079 7.13 7.22 9.47
5/12/2023 12:45:00 AM 15 59 0.079 7.13 7.23 9.51
5/12/2023 1:00:00 AM 14.91 58.838 0.079 7.13 7.2 9.53
5/12/2023 1:15:00 AM 14.81 58.658 0.079 7.13 7.49 9.57
5/12/2023 1:30:00 AM 14.72 58.496 0.079 7.12 7.94 9.55
5/12/2023 1:45:00 AM 14.63 58.334 0.079 7.12 8.33 9.59
5/12/2023 2:00:00 AM 14.53 58.154 0.079 7.12 6.72 9.59
5/12/2023 2:15:00 AM 14.43 57.974 0.079 7.12 7.8 9.67
5/12/2023 2:30:00 AM 14.35 57.83 0.079 7.12 7.37 9.58
5/12/2023 2:45:00 AM 14.25 57.65 0.08 7.12 8.17 9.71
5/12/2023 3:00:00 AM 14.16 57.488 0.08 7.11 7.45 9.73
5/12/2023 3:15:00 AM 14.07 57.326 0.08 7.11 8.18 9.73
5/12/2023 3:30:00 AM 13.98 57.164 0.08 7.11 8.63 9.78
5/12/2023 3:45:00 AM 13.89 57.002 0.08 7.11 8.19 9.82
5/12/2023 4:00:00 AM 13.8 56.84 0.08 7.11 9.63 9.78
5/12/2023 4:15:00 AM 13.71 56.678 0.08 7.11 8.13 9.88
5/12/2023 4:30:00 AM 13.62 56.516 0.08 7.11 7.57 9.9
5/12/2023 4:45:00 AM 13.53 56.354 0.08 7.11 6.85 9.92
5/12/2023 5:00:00 AM 13.45 56.21 0.08 7.11 7.55 9.91
5/12/2023 5:15:00 AM 13.37 56.066 0.08 7.11 6.58 9.94
5/12/2023 5:30:00 AM 13.28 55.904 0.08 7.11 6.44 10
5/12/2023 5:45:00 AM 13.19 55.742 0.08 7.11 5.93 10
5/12/2023 6:00:00 AM 13.11 55.598 0.08 7.11 9.3 10.02
5/12/2023 6:15:00 AM 13.03 55.454 0.08 7.11 7.09 10.06
5/12/2023 6:30:00 AM 12.96 55.328 0.08 7.11 6.19 10.14
5/12/2023 6:45:00 AM 12.9 55.22 0.08 7.11 5.45 10.2
5/12/2023 7:00:00 AM 12.84 55.112 0.08 7.12 5.29 10.2
5/12/2023 7:15:00 AM 12.79 55.022 0.08 7.12 5.2 10.31
5/12/2023 7:30:00 AM 12.75 54.95 0.08 7.13 5.49 10.38
5/12/2023 7:45:00 AM 12.73 54.914 0.08 7.14 5.06 10.46
5/12/2023 8:00:00 AM 12.71 54.878 0.08 7.16 5.33 10.52
5/12/2023 8:15:00 AM 12.72 54.896 0.08 7.17 5.2 10.59
5/12/2023 8:30:00 AM 12.73 54.914 0.079 7.19 4.88